<?xml version="1.0" encoding="UTF-8" standalone="no" ?>
<gpx xmlns="http://www.topografix.com/GPX/1/1" xmlns:xsi="http://www.w3.org/2001/XMLSchema-instance" xsi:schemaLocation="http://www.topografix.com/GPX/1/1 http://www.topografix.com/GPX/1/1/gpx.xsd" version="1.1" creator="VisuGPX - https://www.visugpx.com">
  <metadata>
    <name>Sugiton-Col de la Candelle</name>
    <desc><![CDATA[Randonnée sportive au départ de Luminy. Belles perspectives sur la Calanque de Sugiton et son \"torpilleur\" avant une montée au col de la Candelle par le passage de l%u2019%u0153il de verre et la cheminée du diable, âmes sensibles s\'abstenir !]]></desc>
  </metadata>
  <trk>
    <name><![CDATA[SUGITON PAS DU DIABLE]]></name>
    <trkseg>
      <trkpt lat="43.22884" lon="5.43714">
        <ele>143.37</ele>
        <time>2014-05-10T06:25:05Z</time>
      </trkpt>
      <trkpt lat="43.22879" lon="5.43715">
        <ele>139.53</ele>
        <time>2014-05-10T06:25:10Z</time>
      </trkpt>
      <trkpt lat="43.22855" lon="5.43718">
        <ele>140.97</ele>
        <time>2014-05-10T06:25:32Z</time>
      </trkpt>
      <trkpt lat="43.22833" lon="5.43721">
        <ele>142.41</ele>
        <time>2014-05-10T06:25:52Z</time>
      </trkpt>
      <trkpt lat="43.22814" lon="5.43724">
        <ele>143.37</ele>
        <time>2014-05-10T06:26:10Z</time>
      </trkpt>
      <trkpt lat="43.2279" lon="5.43723">
        <ele>144.82</ele>
        <time>2014-05-10T06:26:30Z</time>
      </trkpt>
      <trkpt lat="43.2277" lon="5.4372">
        <ele>146.26</ele>
        <time>2014-05-10T06:26:49Z</time>
      </trkpt>
      <trkpt lat="43.22751" lon="5.43719">
        <ele>147.22</ele>
        <time>2014-05-10T06:27:07Z</time>
      </trkpt>
      <trkpt lat="43.22733" lon="5.43725">
        <ele>148.66</ele>
        <time>2014-05-10T06:27:23Z</time>
      </trkpt>
      <trkpt lat="43.22717" lon="5.43731">
        <ele>149.62</ele>
        <time>2014-05-10T06:27:39Z</time>
      </trkpt>
      <trkpt lat="43.22701" lon="5.43742">
        <ele>151.06</ele>
        <time>2014-05-10T06:27:57Z</time>
      </trkpt>
      <trkpt lat="43.22684" lon="5.43756">
        <ele>152.03</ele>
        <time>2014-05-10T06:28:16Z</time>
      </trkpt>
      <trkpt lat="43.22668" lon="5.43767">
        <ele>152.99</ele>
        <time>2014-05-10T06:28:32Z</time>
      </trkpt>
      <trkpt lat="43.22649" lon="5.43782">
        <ele>153.95</ele>
        <time>2014-05-10T06:28:51Z</time>
      </trkpt>
      <trkpt lat="43.22624" lon="5.43794">
        <ele>154.91</ele>
        <time>2014-05-10T06:29:13Z</time>
      </trkpt>
      <trkpt lat="43.226" lon="5.43803">
        <ele>154.91</ele>
        <time>2014-05-10T06:29:35Z</time>
      </trkpt>
      <trkpt lat="43.22583" lon="5.43804">
        <ele>154.91</ele>
        <time>2014-05-10T06:29:51Z</time>
      </trkpt>
      <trkpt lat="43.22562" lon="5.43806">
        <ele>154.91</ele>
        <time>2014-05-10T06:30:08Z</time>
      </trkpt>
      <trkpt lat="43.22539" lon="5.43809">
        <ele>153.95</ele>
        <time>2014-05-10T06:30:27Z</time>
      </trkpt>
      <trkpt lat="43.22521" lon="5.43812">
        <ele>153.95</ele>
        <time>2014-05-10T06:30:43Z</time>
      </trkpt>
      <trkpt lat="43.22498" lon="5.43812">
        <ele>153.95</ele>
        <time>2014-05-10T06:31:02Z</time>
      </trkpt>
      <trkpt lat="43.22481" lon="5.43813">
        <ele>153.95</ele>
        <time>2014-05-10T06:31:17Z</time>
      </trkpt>
      <trkpt lat="43.22464" lon="5.43814">
        <ele>153.47</ele>
        <time>2014-05-10T06:31:33Z</time>
      </trkpt>
      <trkpt lat="43.22452" lon="5.43817">
        <ele>152.99</ele>
        <time>2014-05-10T06:31:45Z</time>
      </trkpt>
      <trkpt lat="43.22435" lon="5.43832">
        <ele>152.51</ele>
        <time>2014-05-10T06:32:00Z</time>
      </trkpt>
      <trkpt lat="43.22415" lon="5.43847">
        <ele>152.51</ele>
        <time>2014-05-10T06:32:18Z</time>
      </trkpt>
      <trkpt lat="43.224" lon="5.43856">
        <ele>152.51</ele>
        <time>2014-05-10T06:32:32Z</time>
      </trkpt>
      <trkpt lat="43.22384" lon="5.43864">
        <ele>153.47</ele>
        <time>2014-05-10T06:32:47Z</time>
      </trkpt>
      <trkpt lat="43.22366" lon="5.43879">
        <ele>154.43</ele>
        <time>2014-05-10T06:33:05Z</time>
      </trkpt>
      <trkpt lat="43.22353" lon="5.43892">
        <ele>154.91</ele>
        <time>2014-05-10T06:33:21Z</time>
      </trkpt>
      <trkpt lat="43.22339" lon="5.43911">
        <ele>155.39</ele>
        <time>2014-05-10T06:33:37Z</time>
      </trkpt>
      <trkpt lat="43.22332" lon="5.4392">
        <ele>155.87</ele>
        <time>2014-05-10T06:33:45Z</time>
      </trkpt>
      <trkpt lat="43.22321" lon="5.43937">
        <ele>156.83</ele>
        <time>2014-05-10T06:33:59Z</time>
      </trkpt>
      <trkpt lat="43.22308" lon="5.4395">
        <ele>157.79</ele>
        <time>2014-05-10T06:34:13Z</time>
      </trkpt>
      <trkpt lat="43.223" lon="5.43957">
        <ele>157.79</ele>
        <time>2014-05-10T06:34:22Z</time>
      </trkpt>
      <trkpt lat="43.22284" lon="5.4397">
        <ele>158.75</ele>
        <time>2014-05-10T06:34:38Z</time>
      </trkpt>
      <trkpt lat="43.22268" lon="5.43983">
        <ele>159.24</ele>
        <time>2014-05-10T06:34:55Z</time>
      </trkpt>
      <trkpt lat="43.22249" lon="5.43991">
        <ele>160.2</ele>
        <time>2014-05-10T06:35:11Z</time>
      </trkpt>
      <trkpt lat="43.22233" lon="5.43996">
        <ele>160.68</ele>
        <time>2014-05-10T06:35:26Z</time>
      </trkpt>
      <trkpt lat="43.22213" lon="5.44003">
        <ele>161.16</ele>
        <time>2014-05-10T06:35:44Z</time>
      </trkpt>
      <trkpt lat="43.22198" lon="5.44009">
        <ele>161.64</ele>
        <time>2014-05-10T06:35:58Z</time>
      </trkpt>
      <trkpt lat="43.22184" lon="5.44013">
        <ele>162.6</ele>
        <time>2014-05-10T06:36:10Z</time>
      </trkpt>
      <trkpt lat="43.22168" lon="5.4402">
        <ele>163.56</ele>
        <time>2014-05-10T06:36:27Z</time>
      </trkpt>
      <trkpt lat="43.22159" lon="5.44025">
        <ele>164.04</ele>
        <time>2014-05-10T06:36:37Z</time>
      </trkpt>
      <trkpt lat="43.22144" lon="5.44041">
        <ele>164.52</ele>
        <time>2014-05-10T06:36:53Z</time>
      </trkpt>
      <trkpt lat="43.22128" lon="5.44055">
        <ele>165.48</ele>
        <time>2014-05-10T06:37:09Z</time>
      </trkpt>
      <trkpt lat="43.22111" lon="5.44068">
        <ele>167.41</ele>
        <time>2014-05-10T06:37:26Z</time>
      </trkpt>
      <trkpt lat="43.22097" lon="5.44081">
        <ele>167.41</ele>
        <time>2014-05-10T06:37:43Z</time>
      </trkpt>
      <trkpt lat="43.22083" lon="5.441">
        <ele>168.85</ele>
        <time>2014-05-10T06:38:00Z</time>
      </trkpt>
      <trkpt lat="43.22077" lon="5.44111">
        <ele>169.33</ele>
        <time>2014-05-10T06:38:14Z</time>
      </trkpt>
      <trkpt lat="43.22076" lon="5.44115">
        <ele>169.81</ele>
        <time>2014-05-10T06:38:40Z</time>
      </trkpt>
      <trkpt lat="43.22073" lon="5.44112">
        <ele>169.81</ele>
        <time>2014-05-10T06:39:06Z</time>
      </trkpt>
      <trkpt lat="43.22073" lon="5.44112">
        <ele>169.81</ele>
        <time>2014-05-10T06:39:19Z</time>
      </trkpt>
      <trkpt lat="43.22075" lon="5.44113">
        <ele>170.29</ele>
        <time>2014-05-10T06:39:41Z</time>
      </trkpt>
      <trkpt lat="43.22074" lon="5.44112">
        <ele>170.29</ele>
        <time>2014-05-10T06:39:56Z</time>
      </trkpt>
      <trkpt lat="43.22075" lon="5.44111">
        <ele>170.29</ele>
        <time>2014-05-10T06:40:12Z</time>
      </trkpt>
      <trkpt lat="43.22075" lon="5.44111">
        <ele>169.33</ele>
        <time>2014-05-10T06:40:26Z</time>
      </trkpt>
      <trkpt lat="43.22074" lon="5.44112">
        <ele>169.33</ele>
        <time>2014-05-10T06:40:43Z</time>
      </trkpt>
      <trkpt lat="43.22073" lon="5.44112">
        <ele>169.33</ele>
        <time>2014-05-10T06:41:25Z</time>
      </trkpt>
      <trkpt lat="43.22065" lon="5.44124">
        <ele>169.33</ele>
        <time>2014-05-10T06:41:41Z</time>
      </trkpt>
      <trkpt lat="43.22063" lon="5.44127">
        <ele>170.77</ele>
        <time>2014-05-10T06:41:44Z</time>
      </trkpt>
      <trkpt lat="43.22054" lon="5.44152">
        <ele>171.73</ele>
        <time>2014-05-10T06:42:04Z</time>
      </trkpt>
      <trkpt lat="43.22049" lon="5.44174">
        <ele>173.17</ele>
        <time>2014-05-10T06:42:20Z</time>
      </trkpt>
      <trkpt lat="43.22045" lon="5.44192">
        <ele>173.66</ele>
        <time>2014-05-10T06:42:34Z</time>
      </trkpt>
      <trkpt lat="43.22037" lon="5.44215">
        <ele>174.62</ele>
        <time>2014-05-10T06:42:51Z</time>
      </trkpt>
      <trkpt lat="43.22032" lon="5.44237">
        <ele>175.58</ele>
        <time>2014-05-10T06:43:07Z</time>
      </trkpt>
      <trkpt lat="43.22027" lon="5.44254">
        <ele>176.06</ele>
        <time>2014-05-10T06:43:21Z</time>
      </trkpt>
      <trkpt lat="43.22018" lon="5.44274">
        <ele>177.5</ele>
        <time>2014-05-10T06:43:37Z</time>
      </trkpt>
      <trkpt lat="43.2201" lon="5.44291">
        <ele>177.98</ele>
        <time>2014-05-10T06:43:52Z</time>
      </trkpt>
      <trkpt lat="43.22002" lon="5.44304">
        <ele>178.94</ele>
        <time>2014-05-10T06:44:05Z</time>
      </trkpt>
      <trkpt lat="43.21993" lon="5.44321">
        <ele>179.42</ele>
        <time>2014-05-10T06:44:20Z</time>
      </trkpt>
      <trkpt lat="43.21981" lon="5.44343">
        <ele>180.38</ele>
        <time>2014-05-10T06:44:38Z</time>
      </trkpt>
      <trkpt lat="43.21971" lon="5.44365">
        <ele>181.35</ele>
        <time>2014-05-10T06:44:54Z</time>
      </trkpt>
      <trkpt lat="43.21962" lon="5.44385">
        <ele>182.31</ele>
        <time>2014-05-10T06:45:11Z</time>
      </trkpt>
      <trkpt lat="43.21959" lon="5.44389">
        <ele>182.79</ele>
        <time>2014-05-10T06:45:15Z</time>
      </trkpt>
      <trkpt lat="43.21946" lon="5.44404">
        <ele>184.23</ele>
        <time>2014-05-10T06:45:30Z</time>
      </trkpt>
      <trkpt lat="43.21936" lon="5.44418">
        <ele>184.71</ele>
        <time>2014-05-10T06:45:45Z</time>
      </trkpt>
      <trkpt lat="43.21926" lon="5.44435">
        <ele>186.63</ele>
        <time>2014-05-10T06:46:00Z</time>
      </trkpt>
      <trkpt lat="43.21926" lon="5.44438">
        <ele>187.11</ele>
        <time>2014-05-10T06:46:02Z</time>
      </trkpt>
      <trkpt lat="43.21923" lon="5.44455">
        <ele>188.08</ele>
        <time>2014-05-10T06:46:16Z</time>
      </trkpt>
      <trkpt lat="43.21918" lon="5.44479">
        <ele>189.04</ele>
        <time>2014-05-10T06:46:33Z</time>
      </trkpt>
      <trkpt lat="43.21918" lon="5.44504">
        <ele>190.96</ele>
        <time>2014-05-10T06:46:49Z</time>
      </trkpt>
      <trkpt lat="43.21925" lon="5.44527">
        <ele>191.92</ele>
        <time>2014-05-10T06:47:07Z</time>
      </trkpt>
      <trkpt lat="43.21927" lon="5.4455">
        <ele>194.32</ele>
        <time>2014-05-10T06:47:23Z</time>
      </trkpt>
      <trkpt lat="43.21921" lon="5.44565">
        <ele>195.28</ele>
        <time>2014-05-10T06:47:36Z</time>
      </trkpt>
      <trkpt lat="43.21911" lon="5.44584">
        <ele>196.25</ele>
        <time>2014-05-10T06:47:52Z</time>
      </trkpt>
      <trkpt lat="43.21901" lon="5.44604">
        <ele>197.21</ele>
        <time>2014-05-10T06:48:08Z</time>
      </trkpt>
      <trkpt lat="43.21889" lon="5.44623">
        <ele>198.17</ele>
        <time>2014-05-10T06:48:24Z</time>
      </trkpt>
      <trkpt lat="43.21886" lon="5.44634">
        <ele>199.13</ele>
        <time>2014-05-10T06:48:33Z</time>
      </trkpt>
      <trkpt lat="43.21881" lon="5.44657">
        <ele>200.57</ele>
        <time>2014-05-10T06:48:49Z</time>
      </trkpt>
      <trkpt lat="43.21875" lon="5.44681">
        <ele>202.98</ele>
        <time>2014-05-10T06:49:06Z</time>
      </trkpt>
      <trkpt lat="43.21877" lon="5.44709">
        <ele>203.46</ele>
        <time>2014-05-10T06:49:24Z</time>
      </trkpt>
      <trkpt lat="43.21884" lon="5.4473">
        <ele>204.42</ele>
        <time>2014-05-10T06:49:40Z</time>
      </trkpt>
      <trkpt lat="43.21886" lon="5.44751">
        <ele>203.46</ele>
        <time>2014-05-10T06:49:57Z</time>
      </trkpt>
      <trkpt lat="43.21884" lon="5.44756">
        <ele>203.46</ele>
        <time>2014-05-10T06:50:01Z</time>
      </trkpt>
      <trkpt lat="43.21883" lon="5.44757">
        <ele>203.46</ele>
        <time>2014-05-10T06:50:02Z</time>
      </trkpt>
      <trkpt lat="43.21872" lon="5.44786">
        <ele>203.46</ele>
        <time>2014-05-10T06:50:20Z</time>
      </trkpt>
      <trkpt lat="43.21877" lon="5.44817">
        <ele>202.01</ele>
        <time>2014-05-10T06:50:39Z</time>
      </trkpt>
      <trkpt lat="43.21873" lon="5.44842">
        <ele>201.05</ele>
        <time>2014-05-10T06:50:55Z</time>
      </trkpt>
      <trkpt lat="43.21863" lon="5.44851">
        <ele>200.57</ele>
        <time>2014-05-10T06:51:06Z</time>
      </trkpt>
      <trkpt lat="43.21862" lon="5.44851">
        <ele>200.57</ele>
        <time>2014-05-10T06:51:07Z</time>
      </trkpt>
      <trkpt lat="43.21839" lon="5.44853">
        <ele>199.61</ele>
        <time>2014-05-10T06:51:26Z</time>
      </trkpt>
      <trkpt lat="43.21817" lon="5.44856">
        <ele>198.65</ele>
        <time>2014-05-10T06:51:45Z</time>
      </trkpt>
      <trkpt lat="43.21806" lon="5.44878">
        <ele>197.69</ele>
        <time>2014-05-10T06:52:00Z</time>
      </trkpt>
      <trkpt lat="43.21804" lon="5.449">
        <ele>197.69</ele>
        <time>2014-05-10T06:52:13Z</time>
      </trkpt>
      <trkpt lat="43.21797" lon="5.44912">
        <ele>197.69</ele>
        <time>2014-05-10T06:52:24Z</time>
      </trkpt>
      <trkpt lat="43.21792" lon="5.44912">
        <ele>197.69</ele>
        <time>2014-05-10T06:52:29Z</time>
      </trkpt>
      <trkpt lat="43.21791" lon="5.44912">
        <ele>197.69</ele>
        <time>2014-05-10T06:52:30Z</time>
      </trkpt>
      <trkpt lat="43.2179" lon="5.44911">
        <ele>197.69</ele>
        <time>2014-05-10T06:52:31Z</time>
      </trkpt>
      <trkpt lat="43.21767" lon="5.44909">
        <ele>196.73</ele>
        <time>2014-05-10T06:52:50Z</time>
      </trkpt>
      <trkpt lat="43.21766" lon="5.4491">
        <ele>196.73</ele>
        <time>2014-05-10T06:52:51Z</time>
      </trkpt>
      <trkpt lat="43.21745" lon="5.44915">
        <ele>196.73</ele>
        <time>2014-05-10T06:53:09Z</time>
      </trkpt>
      <trkpt lat="43.21743" lon="5.44917">
        <ele>196.73</ele>
        <time>2014-05-10T06:53:11Z</time>
      </trkpt>
      <trkpt lat="43.21741" lon="5.44921">
        <ele>196.73</ele>
        <time>2014-05-10T06:53:14Z</time>
      </trkpt>
      <trkpt lat="43.2174" lon="5.44922">
        <ele>196.25</ele>
        <time>2014-05-10T06:53:15Z</time>
      </trkpt>
      <trkpt lat="43.21739" lon="5.44923">
        <ele>196.25</ele>
        <time>2014-05-10T06:53:16Z</time>
      </trkpt>
      <trkpt lat="43.21736" lon="5.44925">
        <ele>196.25</ele>
        <time>2014-05-10T06:53:19Z</time>
      </trkpt>
      <trkpt lat="43.21716" lon="5.44939">
        <ele>196.25</ele>
        <time>2014-05-10T06:53:37Z</time>
      </trkpt>
      <trkpt lat="43.217" lon="5.44954">
        <ele>196.25</ele>
        <time>2014-05-10T06:53:53Z</time>
      </trkpt>
      <trkpt lat="43.21686" lon="5.44977">
        <ele>196.25</ele>
        <time>2014-05-10T06:54:12Z</time>
      </trkpt>
      <trkpt lat="43.21677" lon="5.45005">
        <ele>195.28</ele>
        <time>2014-05-10T06:54:29Z</time>
      </trkpt>
      <trkpt lat="43.21677" lon="5.45036">
        <ele>194.8</ele>
        <time>2014-05-10T06:54:47Z</time>
      </trkpt>
      <trkpt lat="43.21694" lon="5.45057">
        <ele>194.32</ele>
        <time>2014-05-10T06:55:07Z</time>
      </trkpt>
      <trkpt lat="43.21708" lon="5.45084">
        <ele>195.77</ele>
        <time>2014-05-10T06:55:26Z</time>
      </trkpt>
      <trkpt lat="43.21717" lon="5.45108">
        <ele>195.77</ele>
        <time>2014-05-10T06:55:43Z</time>
      </trkpt>
      <trkpt lat="43.21716" lon="5.45135">
        <ele>196.25</ele>
        <time>2014-05-10T06:55:59Z</time>
      </trkpt>
      <trkpt lat="43.21716" lon="5.45162">
        <ele>197.21</ele>
        <time>2014-05-10T06:56:16Z</time>
      </trkpt>
      <trkpt lat="43.21719" lon="5.45185">
        <ele>198.17</ele>
        <time>2014-05-10T06:56:31Z</time>
      </trkpt>
      <trkpt lat="43.21723" lon="5.45214">
        <ele>198.65</ele>
        <time>2014-05-10T06:56:48Z</time>
      </trkpt>
      <trkpt lat="43.21727" lon="5.45232">
        <ele>199.13</ele>
        <time>2014-05-10T06:56:58Z</time>
      </trkpt>
      <trkpt lat="43.21729" lon="5.45241">
        <ele>199.13</ele>
        <time>2014-05-10T06:57:04Z</time>
      </trkpt>
      <trkpt lat="43.21732" lon="5.45264">
        <ele>200.57</ele>
        <time>2014-05-10T06:57:17Z</time>
      </trkpt>
      <trkpt lat="43.21727" lon="5.45285">
        <ele>201.05</ele>
        <time>2014-05-10T06:57:31Z</time>
      </trkpt>
      <trkpt lat="43.21724" lon="5.45287">
        <ele>201.05</ele>
        <time>2014-05-10T06:57:34Z</time>
      </trkpt>
      <trkpt lat="43.21723" lon="5.45288">
        <ele>201.05</ele>
        <time>2014-05-10T06:57:35Z</time>
      </trkpt>
      <trkpt lat="43.21707" lon="5.45285">
        <ele>202.01</ele>
        <time>2014-05-10T06:57:50Z</time>
      </trkpt>
      <trkpt lat="43.21688" lon="5.45273">
        <ele>202.49</ele>
        <time>2014-05-10T06:58:08Z</time>
      </trkpt>
      <trkpt lat="43.2168" lon="5.45269">
        <ele>202.49</ele>
        <time>2014-05-10T06:58:15Z</time>
      </trkpt>
      <trkpt lat="43.21659" lon="5.45248">
        <ele>202.49</ele>
        <time>2014-05-10T06:58:37Z</time>
      </trkpt>
      <trkpt lat="43.21639" lon="5.45231">
        <ele>203.94</ele>
        <time>2014-05-10T06:58:56Z</time>
      </trkpt>
      <trkpt lat="43.21619" lon="5.45219">
        <ele>204.9</ele>
        <time>2014-05-10T06:59:15Z</time>
      </trkpt>
      <trkpt lat="43.21614" lon="5.45216">
        <ele>205.38</ele>
        <time>2014-05-10T06:59:29Z</time>
      </trkpt>
      <trkpt lat="43.21604" lon="5.45205">
        <ele>205.38</ele>
        <time>2014-05-10T06:59:48Z</time>
      </trkpt>
      <trkpt lat="43.2159" lon="5.45198">
        <ele>205.38</ele>
        <time>2014-05-10T07:00:04Z</time>
      </trkpt>
      <trkpt lat="43.21568" lon="5.45195">
        <ele>203.94</ele>
        <time>2014-05-10T07:00:22Z</time>
      </trkpt>
      <trkpt lat="43.2155" lon="5.45196">
        <ele>202.49</ele>
        <time>2014-05-10T07:00:35Z</time>
      </trkpt>
      <trkpt lat="43.21549" lon="5.45197">
        <ele>202.01</ele>
        <time>2014-05-10T07:00:36Z</time>
      </trkpt>
      <trkpt lat="43.21547" lon="5.45197">
        <ele>202.01</ele>
        <time>2014-05-10T07:00:37Z</time>
      </trkpt>
      <trkpt lat="43.21546" lon="5.45196">
        <ele>202.01</ele>
        <time>2014-05-10T07:00:38Z</time>
      </trkpt>
      <trkpt lat="43.21545" lon="5.45196">
        <ele>202.01</ele>
        <time>2014-05-10T07:00:39Z</time>
      </trkpt>
      <trkpt lat="43.21544" lon="5.45196">
        <ele>202.01</ele>
        <time>2014-05-10T07:00:40Z</time>
      </trkpt>
      <trkpt lat="43.21542" lon="5.45196">
        <ele>202.01</ele>
        <time>2014-05-10T07:00:41Z</time>
      </trkpt>
      <trkpt lat="43.21534" lon="5.45197">
        <ele>201.53</ele>
        <time>2014-05-10T07:00:47Z</time>
      </trkpt>
      <trkpt lat="43.21533" lon="5.45197">
        <ele>201.05</ele>
        <time>2014-05-10T07:00:48Z</time>
      </trkpt>
      <trkpt lat="43.21513" lon="5.45194">
        <ele>201.05</ele>
        <time>2014-05-10T07:01:04Z</time>
      </trkpt>
      <trkpt lat="43.21489" lon="5.45196">
        <ele>200.57</ele>
        <time>2014-05-10T07:01:23Z</time>
      </trkpt>
      <trkpt lat="43.21471" lon="5.45209">
        <ele>199.13</ele>
        <time>2014-05-10T07:01:41Z</time>
      </trkpt>
      <trkpt lat="43.21455" lon="5.45212">
        <ele>197.69</ele>
        <time>2014-05-10T07:01:57Z</time>
      </trkpt>
      <trkpt lat="43.21452" lon="5.4522">
        <ele>197.21</ele>
        <time>2014-05-10T07:02:09Z</time>
      </trkpt>
      <trkpt lat="43.21451" lon="5.45222">
        <ele>197.21</ele>
        <time>2014-05-10T07:02:11Z</time>
      </trkpt>
      <trkpt lat="43.2145" lon="5.45223">
        <ele>197.21</ele>
        <time>2014-05-10T07:02:12Z</time>
      </trkpt>
      <trkpt lat="43.21442" lon="5.45241">
        <ele>195.28</ele>
        <time>2014-05-10T07:02:28Z</time>
      </trkpt>
      <trkpt lat="43.21434" lon="5.45252">
        <ele>193.36</ele>
        <time>2014-05-10T07:02:41Z</time>
      </trkpt>
      <trkpt lat="43.21433" lon="5.45254">
        <ele>193.36</ele>
        <time>2014-05-10T07:03:04Z</time>
      </trkpt>
      <trkpt lat="43.21433" lon="5.45254">
        <ele>193.36</ele>
        <time>2014-05-10T07:03:23Z</time>
      </trkpt>
      <trkpt lat="43.21433" lon="5.45253">
        <ele>192.4</ele>
        <time>2014-05-10T07:03:42Z</time>
      </trkpt>
      <trkpt lat="43.21434" lon="5.45253">
        <ele>192.4</ele>
        <time>2014-05-10T07:04:10Z</time>
      </trkpt>
      <trkpt lat="43.21433" lon="5.45252">
        <ele>192.4</ele>
        <time>2014-05-10T07:04:45Z</time>
      </trkpt>
      <trkpt lat="43.21435" lon="5.45254">
        <ele>192.4</ele>
        <time>2014-05-10T07:05:27Z</time>
      </trkpt>
      <trkpt lat="43.21435" lon="5.45255">
        <ele>192.4</ele>
        <time>2014-05-10T07:06:04Z</time>
      </trkpt>
      <trkpt lat="43.21436" lon="5.45255">
        <ele>192.88</ele>
        <time>2014-05-10T07:06:45Z</time>
      </trkpt>
      <trkpt lat="43.21434" lon="5.45254">
        <ele>192.4</ele>
        <time>2014-05-10T07:07:11Z</time>
      </trkpt>
      <trkpt lat="43.21435" lon="5.45253">
        <ele>192.88</ele>
        <time>2014-05-10T07:07:53Z</time>
      </trkpt>
      <trkpt lat="43.21435" lon="5.45253">
        <ele>194.32</ele>
        <time>2014-05-10T07:08:21Z</time>
      </trkpt>
      <trkpt lat="43.21435" lon="5.45253">
        <ele>195.28</ele>
        <time>2014-05-10T07:08:43Z</time>
      </trkpt>
      <trkpt lat="43.21435" lon="5.45262">
        <ele>193.84</ele>
        <time>2014-05-10T07:08:57Z</time>
      </trkpt>
      <trkpt lat="43.21435" lon="5.45263">
        <ele>193.84</ele>
        <time>2014-05-10T07:08:58Z</time>
      </trkpt>
      <trkpt lat="43.21431" lon="5.45275">
        <ele>192.88</ele>
        <time>2014-05-10T07:09:12Z</time>
      </trkpt>
      <trkpt lat="43.21429" lon="5.45287">
        <ele>190.48</ele>
        <time>2014-05-10T07:09:26Z</time>
      </trkpt>
      <trkpt lat="43.21427" lon="5.45302">
        <ele>188.08</ele>
        <time>2014-05-10T07:09:41Z</time>
      </trkpt>
      <trkpt lat="43.21425" lon="5.45321">
        <ele>185.19</ele>
        <time>2014-05-10T07:09:56Z</time>
      </trkpt>
      <trkpt lat="43.21424" lon="5.45332">
        <ele>184.23</ele>
        <time>2014-05-10T07:10:06Z</time>
      </trkpt>
      <trkpt lat="43.21427" lon="5.45349">
        <ele>182.31</ele>
        <time>2014-05-10T07:10:20Z</time>
      </trkpt>
      <trkpt lat="43.21429" lon="5.45362">
        <ele>181.35</ele>
        <time>2014-05-10T07:10:35Z</time>
      </trkpt>
      <trkpt lat="43.21431" lon="5.4537">
        <ele>179.9</ele>
        <time>2014-05-10T07:10:43Z</time>
      </trkpt>
      <trkpt lat="43.2143" lon="5.4539">
        <ele>177.98</ele>
        <time>2014-05-10T07:10:58Z</time>
      </trkpt>
      <trkpt lat="43.21424" lon="5.45408">
        <ele>176.06</ele>
        <time>2014-05-10T07:11:13Z</time>
      </trkpt>
      <trkpt lat="43.21423" lon="5.45417">
        <ele>175.1</ele>
        <time>2014-05-10T07:11:20Z</time>
      </trkpt>
      <trkpt lat="43.21421" lon="5.45433">
        <ele>173.66</ele>
        <time>2014-05-10T07:11:33Z</time>
      </trkpt>
      <trkpt lat="43.21419" lon="5.45444">
        <ele>172.21</ele>
        <time>2014-05-10T07:11:41Z</time>
      </trkpt>
      <trkpt lat="43.21417" lon="5.45467">
        <ele>170.29</ele>
        <time>2014-05-10T07:11:59Z</time>
      </trkpt>
      <trkpt lat="43.21414" lon="5.45482">
        <ele>169.81</ele>
        <time>2014-05-10T07:12:09Z</time>
      </trkpt>
      <trkpt lat="43.21413" lon="5.45485">
        <ele>169.33</ele>
        <time>2014-05-10T07:12:11Z</time>
      </trkpt>
      <trkpt lat="43.21407" lon="5.45503">
        <ele>166.93</ele>
        <time>2014-05-10T07:12:26Z</time>
      </trkpt>
      <trkpt lat="43.21402" lon="5.45518">
        <ele>164.04</ele>
        <time>2014-05-10T07:12:42Z</time>
      </trkpt>
      <trkpt lat="43.21398" lon="5.45527">
        <ele>162.12</ele>
        <time>2014-05-10T07:12:55Z</time>
      </trkpt>
      <trkpt lat="43.21397" lon="5.45539">
        <ele>160.68</ele>
        <time>2014-05-10T07:13:08Z</time>
      </trkpt>
      <trkpt lat="43.21401" lon="5.45557">
        <ele>159.72</ele>
        <time>2014-05-10T07:13:24Z</time>
      </trkpt>
      <trkpt lat="43.21402" lon="5.45577">
        <ele>158.75</ele>
        <time>2014-05-10T07:13:40Z</time>
      </trkpt>
      <trkpt lat="43.21407" lon="5.45591">
        <ele>157.31</ele>
        <time>2014-05-10T07:13:53Z</time>
      </trkpt>
      <trkpt lat="43.21414" lon="5.45612">
        <ele>155.39</ele>
        <time>2014-05-10T07:14:09Z</time>
      </trkpt>
      <trkpt lat="43.21418" lon="5.4563">
        <ele>154.43</ele>
        <time>2014-05-10T07:14:24Z</time>
      </trkpt>
      <trkpt lat="43.2142" lon="5.45645">
        <ele>152.51</ele>
        <time>2014-05-10T07:14:38Z</time>
      </trkpt>
      <trkpt lat="43.21416" lon="5.45664">
        <ele>150.58</ele>
        <time>2014-05-10T07:14:51Z</time>
      </trkpt>
      <trkpt lat="43.21413" lon="5.45676">
        <ele>149.14</ele>
        <time>2014-05-10T07:15:06Z</time>
      </trkpt>
      <trkpt lat="43.21404" lon="5.45686">
        <ele>146.74</ele>
        <time>2014-05-10T07:15:22Z</time>
      </trkpt>
      <trkpt lat="43.21393" lon="5.45692">
        <ele>144.82</ele>
        <time>2014-05-10T07:15:36Z</time>
      </trkpt>
      <trkpt lat="43.21378" lon="5.45695">
        <ele>141.93</ele>
        <time>2014-05-10T07:15:53Z</time>
      </trkpt>
      <trkpt lat="43.21369" lon="5.45695">
        <ele>140.49</ele>
        <time>2014-05-10T07:16:08Z</time>
      </trkpt>
      <trkpt lat="43.21367" lon="5.45696">
        <ele>140.49</ele>
        <time>2014-05-10T07:16:34Z</time>
      </trkpt>
      <trkpt lat="43.21365" lon="5.45692">
        <ele>139.53</ele>
        <time>2014-05-10T07:16:49Z</time>
      </trkpt>
      <trkpt lat="43.21359" lon="5.45691">
        <ele>137.13</ele>
        <time>2014-05-10T07:17:02Z</time>
      </trkpt>
      <trkpt lat="43.21356" lon="5.45688">
        <ele>136.16</ele>
        <time>2014-05-10T07:17:16Z</time>
      </trkpt>
      <trkpt lat="43.21349" lon="5.45683">
        <ele>132.8</ele>
        <time>2014-05-10T07:17:28Z</time>
      </trkpt>
      <trkpt lat="43.21338" lon="5.4569">
        <ele>130.4</ele>
        <time>2014-05-10T07:17:45Z</time>
      </trkpt>
      <trkpt lat="43.21334" lon="5.45697">
        <ele>129.43</ele>
        <time>2014-05-10T07:18:02Z</time>
      </trkpt>
      <trkpt lat="43.21328" lon="5.457">
        <ele>128.47</ele>
        <time>2014-05-10T07:18:17Z</time>
      </trkpt>
      <trkpt lat="43.21321" lon="5.45705">
        <ele>126.55</ele>
        <time>2014-05-10T07:18:32Z</time>
      </trkpt>
      <trkpt lat="43.21314" lon="5.45705">
        <ele>124.15</ele>
        <time>2014-05-10T07:18:47Z</time>
      </trkpt>
      <trkpt lat="43.21308" lon="5.4571">
        <ele>121.26</ele>
        <time>2014-05-10T07:18:58Z</time>
      </trkpt>
      <trkpt lat="43.21298" lon="5.45718">
        <ele>118.86</ele>
        <time>2014-05-10T07:19:14Z</time>
      </trkpt>
      <trkpt lat="43.21287" lon="5.45718">
        <ele>115.98</ele>
        <time>2014-05-10T07:19:27Z</time>
      </trkpt>
      <trkpt lat="43.21276" lon="5.4572">
        <ele>113.09</ele>
        <time>2014-05-10T07:19:41Z</time>
      </trkpt>
      <trkpt lat="43.21263" lon="5.45721">
        <ele>111.65</ele>
        <time>2014-05-10T07:19:56Z</time>
      </trkpt>
      <trkpt lat="43.21252" lon="5.45727">
        <ele>110.69</ele>
        <time>2014-05-10T07:20:10Z</time>
      </trkpt>
      <trkpt lat="43.21235" lon="5.45734">
        <ele>108.77</ele>
        <time>2014-05-10T07:20:28Z</time>
      </trkpt>
      <trkpt lat="43.21223" lon="5.45725">
        <ele>107.81</ele>
        <time>2014-05-10T07:20:45Z</time>
      </trkpt>
      <trkpt lat="43.21214" lon="5.45719">
        <ele>104.44</ele>
        <time>2014-05-10T07:21:01Z</time>
      </trkpt>
      <trkpt lat="43.212" lon="5.45716">
        <ele>102.04</ele>
        <time>2014-05-10T07:21:19Z</time>
      </trkpt>
      <trkpt lat="43.21192" lon="5.45707">
        <ele>102.04</ele>
        <time>2014-05-10T07:21:33Z</time>
      </trkpt>
      <trkpt lat="43.2119" lon="5.45705">
        <ele>103.48</ele>
        <time>2014-05-10T07:21:48Z</time>
      </trkpt>
      <trkpt lat="43.2119" lon="5.45705">
        <ele>103.48</ele>
        <time>2014-05-10T07:22:12Z</time>
      </trkpt>
      <trkpt lat="43.21201" lon="5.45701">
        <ele>103.48</ele>
        <time>2014-05-10T07:22:42Z</time>
      </trkpt>
      <trkpt lat="43.21205" lon="5.457">
        <ele>102.04</ele>
        <time>2014-05-10T07:22:52Z</time>
      </trkpt>
      <trkpt lat="43.21207" lon="5.457">
        <ele>100.6</ele>
        <time>2014-05-10T07:23:15Z</time>
      </trkpt>
      <trkpt lat="43.2119" lon="5.45701">
        <ele>102.04</ele>
        <time>2014-05-10T07:23:57Z</time>
      </trkpt>
      <trkpt lat="43.21187" lon="5.45702">
        <ele>102.04</ele>
        <time>2014-05-10T07:24:39Z</time>
      </trkpt>
      <trkpt lat="43.21187" lon="5.45701">
        <ele>102.52</ele>
        <time>2014-05-10T07:25:23Z</time>
      </trkpt>
      <trkpt lat="43.21188" lon="5.45701">
        <ele>102.52</ele>
        <time>2014-05-10T07:26:02Z</time>
      </trkpt>
      <trkpt lat="43.21189" lon="5.45701">
        <ele>103</ele>
        <time>2014-05-10T07:26:21Z</time>
      </trkpt>
      <trkpt lat="43.21191" lon="5.457">
        <ele>103</ele>
        <time>2014-05-10T07:26:35Z</time>
      </trkpt>
      <trkpt lat="43.21192" lon="5.45701">
        <ele>103</ele>
        <time>2014-05-10T07:26:57Z</time>
      </trkpt>
      <trkpt lat="43.21199" lon="5.45696">
        <ele>103.96</ele>
        <time>2014-05-10T07:27:15Z</time>
      </trkpt>
      <trkpt lat="43.21205" lon="5.45707">
        <ele>103.96</ele>
        <time>2014-05-10T07:27:52Z</time>
      </trkpt>
      <trkpt lat="43.21198" lon="5.45703">
        <ele>103.96</ele>
        <time>2014-05-10T07:28:07Z</time>
      </trkpt>
      <trkpt lat="43.21195" lon="5.45704">
        <ele>103.96</ele>
        <time>2014-05-10T07:28:29Z</time>
      </trkpt>
      <trkpt lat="43.21193" lon="5.45701">
        <ele>103.96</ele>
        <time>2014-05-10T07:28:54Z</time>
      </trkpt>
      <trkpt lat="43.2119" lon="5.45702">
        <ele>102.52</ele>
        <time>2014-05-10T07:29:14Z</time>
      </trkpt>
      <trkpt lat="43.21194" lon="5.45706">
        <ele>103</ele>
        <time>2014-05-10T07:29:29Z</time>
      </trkpt>
      <trkpt lat="43.21201" lon="5.45713">
        <ele>102.04</ele>
        <time>2014-05-10T07:29:39Z</time>
      </trkpt>
      <trkpt lat="43.21208" lon="5.45718">
        <ele>102.52</ele>
        <time>2014-05-10T07:29:47Z</time>
      </trkpt>
      <trkpt lat="43.21213" lon="5.45724">
        <ele>103.48</ele>
        <time>2014-05-10T07:29:54Z</time>
      </trkpt>
      <trkpt lat="43.21217" lon="5.4573">
        <ele>104.44</ele>
        <time>2014-05-10T07:30:00Z</time>
      </trkpt>
      <trkpt lat="43.21219" lon="5.4573">
        <ele>104.92</ele>
        <time>2014-05-10T07:30:02Z</time>
      </trkpt>
      <trkpt lat="43.2123" lon="5.45734">
        <ele>107.32</ele>
        <time>2014-05-10T07:30:15Z</time>
      </trkpt>
      <trkpt lat="43.21232" lon="5.45733">
        <ele>107.32</ele>
        <time>2014-05-10T07:30:17Z</time>
      </trkpt>
      <trkpt lat="43.2124" lon="5.45731">
        <ele>108.77</ele>
        <time>2014-05-10T07:30:24Z</time>
      </trkpt>
      <trkpt lat="43.21258" lon="5.45725">
        <ele>110.69</ele>
        <time>2014-05-10T07:30:41Z</time>
      </trkpt>
      <trkpt lat="43.21275" lon="5.45722">
        <ele>112.13</ele>
        <time>2014-05-10T07:30:56Z</time>
      </trkpt>
      <trkpt lat="43.21282" lon="5.45728">
        <ele>112.61</ele>
        <time>2014-05-10T07:31:05Z</time>
      </trkpt>
      <trkpt lat="43.21296" lon="5.45747">
        <ele>114.05</ele>
        <time>2014-05-10T07:31:21Z</time>
      </trkpt>
      <trkpt lat="43.21304" lon="5.45765">
        <ele>115.5</ele>
        <time>2014-05-10T07:31:35Z</time>
      </trkpt>
      <trkpt lat="43.21315" lon="5.45782">
        <ele>115.98</ele>
        <time>2014-05-10T07:31:51Z</time>
      </trkpt>
      <trkpt lat="43.2132" lon="5.45793">
        <ele>116.46</ele>
        <time>2014-05-10T07:32:01Z</time>
      </trkpt>
      <trkpt lat="43.21321" lon="5.45808">
        <ele>116.94</ele>
        <time>2014-05-10T07:32:11Z</time>
      </trkpt>
      <trkpt lat="43.21313" lon="5.45831">
        <ele>117.42</ele>
        <time>2014-05-10T07:32:26Z</time>
      </trkpt>
      <trkpt lat="43.21312" lon="5.45842">
        <ele>117.9</ele>
        <time>2014-05-10T07:32:38Z</time>
      </trkpt>
      <trkpt lat="43.21314" lon="5.45842">
        <ele>117.9</ele>
        <time>2014-05-10T07:33:05Z</time>
      </trkpt>
      <trkpt lat="43.21313" lon="5.45843">
        <ele>117.9</ele>
        <time>2014-05-10T07:33:30Z</time>
      </trkpt>
      <trkpt lat="43.21313" lon="5.4584">
        <ele>117.9</ele>
        <time>2014-05-10T07:34:06Z</time>
      </trkpt>
      <trkpt lat="43.21311" lon="5.45838">
        <ele>118.38</ele>
        <time>2014-05-10T07:34:42Z</time>
      </trkpt>
      <trkpt lat="43.21312" lon="5.45837">
        <ele>118.38</ele>
        <time>2014-05-10T07:35:11Z</time>
      </trkpt>
      <trkpt lat="43.21311" lon="5.45835">
        <ele>118.86</ele>
        <time>2014-05-10T07:35:43Z</time>
      </trkpt>
      <trkpt lat="43.2131" lon="5.45836">
        <ele>118.86</ele>
        <time>2014-05-10T07:36:10Z</time>
      </trkpt>
      <trkpt lat="43.21309" lon="5.45837">
        <ele>119.34</ele>
        <time>2014-05-10T07:36:39Z</time>
      </trkpt>
      <trkpt lat="43.2131" lon="5.45836">
        <ele>119.34</ele>
        <time>2014-05-10T07:37:00Z</time>
      </trkpt>
      <trkpt lat="43.21311" lon="5.45832">
        <ele>119.34</ele>
        <time>2014-05-10T07:37:28Z</time>
      </trkpt>
      <trkpt lat="43.21307" lon="5.4584">
        <ele>118.38</ele>
        <time>2014-05-10T07:37:48Z</time>
      </trkpt>
      <trkpt lat="43.213" lon="5.45859">
        <ele>116.46</ele>
        <time>2014-05-10T07:38:03Z</time>
      </trkpt>
      <trkpt lat="43.21293" lon="5.4588">
        <ele>115.01</ele>
        <time>2014-05-10T07:38:20Z</time>
      </trkpt>
      <trkpt lat="43.21283" lon="5.459">
        <ele>113.09</ele>
        <time>2014-05-10T07:38:37Z</time>
      </trkpt>
      <trkpt lat="43.21275" lon="5.45912">
        <ele>111.65</ele>
        <time>2014-05-10T07:38:48Z</time>
      </trkpt>
      <trkpt lat="43.21266" lon="5.45935">
        <ele>109.73</ele>
        <time>2014-05-10T07:39:06Z</time>
      </trkpt>
      <trkpt lat="43.21258" lon="5.45951">
        <ele>108.77</ele>
        <time>2014-05-10T07:39:21Z</time>
      </trkpt>
      <trkpt lat="43.21252" lon="5.45953">
        <ele>107.81</ele>
        <time>2014-05-10T07:39:27Z</time>
      </trkpt>
      <trkpt lat="43.21245" lon="5.45965">
        <ele>106.36</ele>
        <time>2014-05-10T07:39:41Z</time>
      </trkpt>
      <trkpt lat="43.21235" lon="5.45981">
        <ele>105.88</ele>
        <time>2014-05-10T07:39:57Z</time>
      </trkpt>
      <trkpt lat="43.21234" lon="5.45981">
        <ele>105.88</ele>
        <time>2014-05-10T07:39:58Z</time>
      </trkpt>
      <trkpt lat="43.2122" lon="5.45986">
        <ele>104.44</ele>
        <time>2014-05-10T07:40:12Z</time>
      </trkpt>
      <trkpt lat="43.21204" lon="5.45998">
        <ele>103</ele>
        <time>2014-05-10T07:40:31Z</time>
      </trkpt>
      <trkpt lat="43.21195" lon="5.46011">
        <ele>98.67</ele>
        <time>2014-05-10T07:40:46Z</time>
      </trkpt>
      <trkpt lat="43.21196" lon="5.46011">
        <ele>103.48</ele>
        <time>2014-05-10T07:40:47Z</time>
      </trkpt>
      <trkpt lat="43.21199" lon="5.46013">
        <ele>102.04</ele>
        <time>2014-05-10T07:41:05Z</time>
      </trkpt>
      <trkpt lat="43.21196" lon="5.46016">
        <ele>102.04</ele>
        <time>2014-05-10T07:41:21Z</time>
      </trkpt>
      <trkpt lat="43.21192" lon="5.46016">
        <ele>102.04</ele>
        <time>2014-05-10T07:41:42Z</time>
      </trkpt>
      <trkpt lat="43.21189" lon="5.46018">
        <ele>101.56</ele>
        <time>2014-05-10T07:41:51Z</time>
      </trkpt>
      <trkpt lat="43.21174" lon="5.46031">
        <ele>100.6</ele>
        <time>2014-05-10T07:42:07Z</time>
      </trkpt>
      <trkpt lat="43.2117" lon="5.46038">
        <ele>100.11</ele>
        <time>2014-05-10T07:42:15Z</time>
      </trkpt>
      <trkpt lat="43.21168" lon="5.46036">
        <ele>99.63</ele>
        <time>2014-05-10T07:42:32Z</time>
      </trkpt>
      <trkpt lat="43.21169" lon="5.46036">
        <ele>99.63</ele>
        <time>2014-05-10T07:42:58Z</time>
      </trkpt>
      <trkpt lat="43.21168" lon="5.46037">
        <ele>99.63</ele>
        <time>2014-05-10T07:43:13Z</time>
      </trkpt>
      <trkpt lat="43.21168" lon="5.46037">
        <ele>99.63</ele>
        <time>2014-05-10T07:43:26Z</time>
      </trkpt>
      <trkpt lat="43.21155" lon="5.46056">
        <ele>99.63</ele>
        <time>2014-05-10T07:43:43Z</time>
      </trkpt>
      <trkpt lat="43.21148" lon="5.4607">
        <ele>101.08</ele>
        <time>2014-05-10T07:43:54Z</time>
      </trkpt>
      <trkpt lat="43.21145" lon="5.46075">
        <ele>101.56</ele>
        <time>2014-05-10T07:43:59Z</time>
      </trkpt>
      <trkpt lat="43.21134" lon="5.46092">
        <ele>103.48</ele>
        <time>2014-05-10T07:44:17Z</time>
      </trkpt>
      <trkpt lat="43.21131" lon="5.46108">
        <ele>104.92</ele>
        <time>2014-05-10T07:44:31Z</time>
      </trkpt>
      <trkpt lat="43.21124" lon="5.46129">
        <ele>104.92</ele>
        <time>2014-05-10T07:44:49Z</time>
      </trkpt>
      <trkpt lat="43.2112" lon="5.46133">
        <ele>104.92</ele>
        <time>2014-05-10T07:44:54Z</time>
      </trkpt>
      <trkpt lat="43.21116" lon="5.46145">
        <ele>103</ele>
        <time>2014-05-10T07:45:08Z</time>
      </trkpt>
      <trkpt lat="43.21118" lon="5.46145">
        <ele>103</ele>
        <time>2014-05-10T07:45:19Z</time>
      </trkpt>
      <trkpt lat="43.21117" lon="5.46148">
        <ele>103</ele>
        <time>2014-05-10T07:45:26Z</time>
      </trkpt>
      <trkpt lat="43.21116" lon="5.46155">
        <ele>103</ele>
        <time>2014-05-10T07:45:30Z</time>
      </trkpt>
      <trkpt lat="43.21114" lon="5.46174">
        <ele>101.56</ele>
        <time>2014-05-10T07:45:43Z</time>
      </trkpt>
      <trkpt lat="43.21114" lon="5.46178">
        <ele>101.08</ele>
        <time>2014-05-10T07:45:45Z</time>
      </trkpt>
      <trkpt lat="43.21118" lon="5.4619">
        <ele>99.63</ele>
        <time>2014-05-10T07:45:55Z</time>
      </trkpt>
      <trkpt lat="43.21112" lon="5.46211">
        <ele>98.67</ele>
        <time>2014-05-10T07:46:09Z</time>
      </trkpt>
      <trkpt lat="43.21107" lon="5.46227">
        <ele>96.75</ele>
        <time>2014-05-10T07:46:22Z</time>
      </trkpt>
      <trkpt lat="43.211" lon="5.46235">
        <ele>96.75</ele>
        <time>2014-05-10T07:46:39Z</time>
      </trkpt>
      <trkpt lat="43.21093" lon="5.46245">
        <ele>95.79</ele>
        <time>2014-05-10T07:46:57Z</time>
      </trkpt>
      <trkpt lat="43.21087" lon="5.46261">
        <ele>92.9</ele>
        <time>2014-05-10T07:47:14Z</time>
      </trkpt>
      <trkpt lat="43.21085" lon="5.46273">
        <ele>90.98</ele>
        <time>2014-05-10T07:47:28Z</time>
      </trkpt>
      <trkpt lat="43.21081" lon="5.46278">
        <ele>89.06</ele>
        <time>2014-05-10T07:47:43Z</time>
      </trkpt>
      <trkpt lat="43.21081" lon="5.46283">
        <ele>88.1</ele>
        <time>2014-05-10T07:47:58Z</time>
      </trkpt>
      <trkpt lat="43.21079" lon="5.46289">
        <ele>86.18</ele>
        <time>2014-05-10T07:48:14Z</time>
      </trkpt>
      <trkpt lat="43.21074" lon="5.46289">
        <ele>84.25</ele>
        <time>2014-05-10T07:48:26Z</time>
      </trkpt>
      <trkpt lat="43.21067" lon="5.4629">
        <ele>82.33</ele>
        <time>2014-05-10T07:48:40Z</time>
      </trkpt>
      <trkpt lat="43.21062" lon="5.46292">
        <ele>80.41</ele>
        <time>2014-05-10T07:48:56Z</time>
      </trkpt>
      <trkpt lat="43.2106" lon="5.46299">
        <ele>78.97</ele>
        <time>2014-05-10T07:49:17Z</time>
      </trkpt>
      <trkpt lat="43.21052" lon="5.46301">
        <ele>76.56</ele>
        <time>2014-05-10T07:49:33Z</time>
      </trkpt>
      <trkpt lat="43.21046" lon="5.46302">
        <ele>75.6</ele>
        <time>2014-05-10T07:49:46Z</time>
      </trkpt>
      <trkpt lat="43.21044" lon="5.46307">
        <ele>74.64</ele>
        <time>2014-05-10T07:50:04Z</time>
      </trkpt>
      <trkpt lat="43.2104" lon="5.46309">
        <ele>73.2</ele>
        <time>2014-05-10T07:50:18Z</time>
      </trkpt>
      <trkpt lat="43.21032" lon="5.46317">
        <ele>70.31</ele>
        <time>2014-05-10T07:50:34Z</time>
      </trkpt>
      <trkpt lat="43.21029" lon="5.46327">
        <ele>67.91</ele>
        <time>2014-05-10T07:50:49Z</time>
      </trkpt>
      <trkpt lat="43.21026" lon="5.46333">
        <ele>66.47</ele>
        <time>2014-05-10T07:51:04Z</time>
      </trkpt>
      <trkpt lat="43.21022" lon="5.4634">
        <ele>64.55</ele>
        <time>2014-05-10T07:51:21Z</time>
      </trkpt>
      <trkpt lat="43.21019" lon="5.46348">
        <ele>62.62</ele>
        <time>2014-05-10T07:51:35Z</time>
      </trkpt>
      <trkpt lat="43.21009" lon="5.46351">
        <ele>60.7</ele>
        <time>2014-05-10T07:51:51Z</time>
      </trkpt>
      <trkpt lat="43.21003" lon="5.46357">
        <ele>59.74</ele>
        <time>2014-05-10T07:52:04Z</time>
      </trkpt>
      <trkpt lat="43.20994" lon="5.46364">
        <ele>57.82</ele>
        <time>2014-05-10T07:52:21Z</time>
      </trkpt>
      <trkpt lat="43.20993" lon="5.46368">
        <ele>57.82</ele>
        <time>2014-05-10T07:52:47Z</time>
      </trkpt>
      <trkpt lat="43.2099" lon="5.46367">
        <ele>57.82</ele>
        <time>2014-05-10T07:53:07Z</time>
      </trkpt>
      <trkpt lat="43.20985" lon="5.46375">
        <ele>57.82</ele>
        <time>2014-05-10T07:53:22Z</time>
      </trkpt>
      <trkpt lat="43.20977" lon="5.46385">
        <ele>56.86</ele>
        <time>2014-05-10T07:53:38Z</time>
      </trkpt>
      <trkpt lat="43.20971" lon="5.46385">
        <ele>55.89</ele>
        <time>2014-05-10T07:53:44Z</time>
      </trkpt>
      <trkpt lat="43.20967" lon="5.46389">
        <ele>55.41</ele>
        <time>2014-05-10T07:53:49Z</time>
      </trkpt>
      <trkpt lat="43.20964" lon="5.46401">
        <ele>56.86</ele>
        <time>2014-05-10T07:54:02Z</time>
      </trkpt>
      <trkpt lat="43.20962" lon="5.46413">
        <ele>57.34</ele>
        <time>2014-05-10T07:54:19Z</time>
      </trkpt>
      <trkpt lat="43.20962" lon="5.46414">
        <ele>57.34</ele>
        <time>2014-05-10T07:54:24Z</time>
      </trkpt>
      <trkpt lat="43.20961" lon="5.46423">
        <ele>58.78</ele>
        <time>2014-05-10T07:54:38Z</time>
      </trkpt>
      <trkpt lat="43.20958" lon="5.4643">
        <ele>58.78</ele>
        <time>2014-05-10T07:54:53Z</time>
      </trkpt>
      <trkpt lat="43.20955" lon="5.46432">
        <ele>58.78</ele>
        <time>2014-05-10T07:55:25Z</time>
      </trkpt>
      <trkpt lat="43.20954" lon="5.46434">
        <ele>58.78</ele>
        <time>2014-05-10T07:55:41Z</time>
      </trkpt>
      <trkpt lat="43.20953" lon="5.46433">
        <ele>59.26</ele>
        <time>2014-05-10T07:55:58Z</time>
      </trkpt>
      <trkpt lat="43.20956" lon="5.46442">
        <ele>60.22</ele>
        <time>2014-05-10T07:56:11Z</time>
      </trkpt>
      <trkpt lat="43.20956" lon="5.46448">
        <ele>61.18</ele>
        <time>2014-05-10T07:56:25Z</time>
      </trkpt>
      <trkpt lat="43.20953" lon="5.46449">
        <ele>61.66</ele>
        <time>2014-05-10T07:56:41Z</time>
      </trkpt>
      <trkpt lat="43.20952" lon="5.46449">
        <ele>61.66</ele>
        <time>2014-05-10T07:56:42Z</time>
      </trkpt>
      <trkpt lat="43.20951" lon="5.46449">
        <ele>61.66</ele>
        <time>2014-05-10T07:56:44Z</time>
      </trkpt>
      <trkpt lat="43.20948" lon="5.46463">
        <ele>62.62</ele>
        <time>2014-05-10T07:56:58Z</time>
      </trkpt>
      <trkpt lat="43.20938" lon="5.46473">
        <ele>63.58</ele>
        <time>2014-05-10T07:57:13Z</time>
      </trkpt>
      <trkpt lat="43.20937" lon="5.46481">
        <ele>63.58</ele>
        <time>2014-05-10T07:57:30Z</time>
      </trkpt>
      <trkpt lat="43.20934" lon="5.46483">
        <ele>63.58</ele>
        <time>2014-05-10T07:57:52Z</time>
      </trkpt>
      <trkpt lat="43.2093" lon="5.46487">
        <ele>62.14</ele>
        <time>2014-05-10T07:58:04Z</time>
      </trkpt>
      <trkpt lat="43.20932" lon="5.46502">
        <ele>61.18</ele>
        <time>2014-05-10T07:58:20Z</time>
      </trkpt>
      <trkpt lat="43.2093" lon="5.4651">
        <ele>61.66</ele>
        <time>2014-05-10T07:58:33Z</time>
      </trkpt>
      <trkpt lat="43.20928" lon="5.46518">
        <ele>61.18</ele>
        <time>2014-05-10T07:58:44Z</time>
      </trkpt>
      <trkpt lat="43.20931" lon="5.46532">
        <ele>61.66</ele>
        <time>2014-05-10T07:58:57Z</time>
      </trkpt>
      <trkpt lat="43.20933" lon="5.46542">
        <ele>61.66</ele>
        <time>2014-05-10T07:59:12Z</time>
      </trkpt>
      <trkpt lat="43.20933" lon="5.46543">
        <ele>61.66</ele>
        <time>2014-05-10T07:59:13Z</time>
      </trkpt>
      <trkpt lat="43.2093" lon="5.46558">
        <ele>60.7</ele>
        <time>2014-05-10T07:59:28Z</time>
      </trkpt>
      <trkpt lat="43.20931" lon="5.4656">
        <ele>60.7</ele>
        <time>2014-05-10T07:59:40Z</time>
      </trkpt>
      <trkpt lat="43.20932" lon="5.46568">
        <ele>60.7</ele>
        <time>2014-05-10T07:59:57Z</time>
      </trkpt>
      <trkpt lat="43.20938" lon="5.46573">
        <ele>63.1</ele>
        <time>2014-05-10T08:00:12Z</time>
      </trkpt>
      <trkpt lat="43.20935" lon="5.46589">
        <ele>63.58</ele>
        <time>2014-05-10T08:00:26Z</time>
      </trkpt>
      <trkpt lat="43.20932" lon="5.46607">
        <ele>64.07</ele>
        <time>2014-05-10T08:00:41Z</time>
      </trkpt>
      <trkpt lat="43.20933" lon="5.46615">
        <ele>64.07</ele>
        <time>2014-05-10T08:00:53Z</time>
      </trkpt>
      <trkpt lat="43.2093" lon="5.46622">
        <ele>62.62</ele>
        <time>2014-05-10T08:01:02Z</time>
      </trkpt>
      <trkpt lat="43.20933" lon="5.46632">
        <ele>62.62</ele>
        <time>2014-05-10T08:01:20Z</time>
      </trkpt>
      <trkpt lat="43.20932" lon="5.46635">
        <ele>62.62</ele>
        <time>2014-05-10T08:01:38Z</time>
      </trkpt>
      <trkpt lat="43.20932" lon="5.46641">
        <ele>61.18</ele>
        <time>2014-05-10T08:01:44Z</time>
      </trkpt>
      <trkpt lat="43.20933" lon="5.46653">
        <ele>60.22</ele>
        <time>2014-05-10T08:01:57Z</time>
      </trkpt>
      <trkpt lat="43.20931" lon="5.46659">
        <ele>59.74</ele>
        <time>2014-05-10T08:02:12Z</time>
      </trkpt>
      <trkpt lat="43.20936" lon="5.46657">
        <ele>59.26</ele>
        <time>2014-05-10T08:02:23Z</time>
      </trkpt>
      <trkpt lat="43.20936" lon="5.46653">
        <ele>59.26</ele>
        <time>2014-05-10T08:02:26Z</time>
      </trkpt>
      <trkpt lat="43.20936" lon="5.46648">
        <ele>60.7</ele>
        <time>2014-05-10T08:02:30Z</time>
      </trkpt>
      <trkpt lat="43.20931" lon="5.46647">
        <ele>60.22</ele>
        <time>2014-05-10T08:02:53Z</time>
      </trkpt>
      <trkpt lat="43.20933" lon="5.46648">
        <ele>60.7</ele>
        <time>2014-05-10T08:03:08Z</time>
      </trkpt>
      <trkpt lat="43.20932" lon="5.46646">
        <ele>60.7</ele>
        <time>2014-05-10T08:03:21Z</time>
      </trkpt>
      <trkpt lat="43.20932" lon="5.46648">
        <ele>61.18</ele>
        <time>2014-05-10T08:03:35Z</time>
      </trkpt>
      <trkpt lat="43.20929" lon="5.46657">
        <ele>57.82</ele>
        <time>2014-05-10T08:03:44Z</time>
      </trkpt>
      <trkpt lat="43.20928" lon="5.46662">
        <ele>54.45</ele>
        <time>2014-05-10T08:03:56Z</time>
      </trkpt>
      <trkpt lat="43.20927" lon="5.46669">
        <ele>52.05</ele>
        <time>2014-05-10T08:04:08Z</time>
      </trkpt>
      <trkpt lat="43.20925" lon="5.46678">
        <ele>49.65</ele>
        <time>2014-05-10T08:04:22Z</time>
      </trkpt>
      <trkpt lat="43.20925" lon="5.4668">
        <ele>48.68</ele>
        <time>2014-05-10T08:04:35Z</time>
      </trkpt>
      <trkpt lat="43.20925" lon="5.46688">
        <ele>46.28</ele>
        <time>2014-05-10T08:04:51Z</time>
      </trkpt>
      <trkpt lat="43.20927" lon="5.46696">
        <ele>44.36</ele>
        <time>2014-05-10T08:05:06Z</time>
      </trkpt>
      <trkpt lat="43.20924" lon="5.46702">
        <ele>42.92</ele>
        <time>2014-05-10T08:05:20Z</time>
      </trkpt>
      <trkpt lat="43.20925" lon="5.4671">
        <ele>41.95</ele>
        <time>2014-05-10T08:05:36Z</time>
      </trkpt>
      <trkpt lat="43.20926" lon="5.46714">
        <ele>41.95</ele>
        <time>2014-05-10T08:06:01Z</time>
      </trkpt>
      <trkpt lat="43.20925" lon="5.46712">
        <ele>41.95</ele>
        <time>2014-05-10T08:06:29Z</time>
      </trkpt>
      <trkpt lat="43.20923" lon="5.46712">
        <ele>41.47</ele>
        <time>2014-05-10T08:06:49Z</time>
      </trkpt>
      <trkpt lat="43.20923" lon="5.46717">
        <ele>40.99</ele>
        <time>2014-05-10T08:07:11Z</time>
      </trkpt>
      <trkpt lat="43.20923" lon="5.4672">
        <ele>40.51</ele>
        <time>2014-05-10T08:07:29Z</time>
      </trkpt>
      <trkpt lat="43.20922" lon="5.46721">
        <ele>38.59</ele>
        <time>2014-05-10T08:07:42Z</time>
      </trkpt>
      <trkpt lat="43.20923" lon="5.46723">
        <ele>38.11</ele>
        <time>2014-05-10T08:07:45Z</time>
      </trkpt>
      <trkpt lat="43.20926" lon="5.46735">
        <ele>38.11</ele>
        <time>2014-05-10T08:07:58Z</time>
      </trkpt>
      <trkpt lat="43.20929" lon="5.46753">
        <ele>38.59</ele>
        <time>2014-05-10T08:08:11Z</time>
      </trkpt>
      <trkpt lat="43.20927" lon="5.46768">
        <ele>36.19</ele>
        <time>2014-05-10T08:08:26Z</time>
      </trkpt>
      <trkpt lat="43.20922" lon="5.46776">
        <ele>34.26</ele>
        <time>2014-05-10T08:08:40Z</time>
      </trkpt>
      <trkpt lat="43.20922" lon="5.46783">
        <ele>32.82</ele>
        <time>2014-05-10T08:08:52Z</time>
      </trkpt>
      <trkpt lat="43.20925" lon="5.46791">
        <ele>31.38</ele>
        <time>2014-05-10T08:09:07Z</time>
      </trkpt>
      <trkpt lat="43.20924" lon="5.46797">
        <ele>29.46</ele>
        <time>2014-05-10T08:09:23Z</time>
      </trkpt>
      <trkpt lat="43.20926" lon="5.46804">
        <ele>28.5</ele>
        <time>2014-05-10T08:09:36Z</time>
      </trkpt>
      <trkpt lat="43.20926" lon="5.46812">
        <ele>26.57</ele>
        <time>2014-05-10T08:09:49Z</time>
      </trkpt>
      <trkpt lat="43.20927" lon="5.46817">
        <ele>25.61</ele>
        <time>2014-05-10T08:10:10Z</time>
      </trkpt>
      <trkpt lat="43.20925" lon="5.46821">
        <ele>23.69</ele>
        <time>2014-05-10T08:10:21Z</time>
      </trkpt>
      <trkpt lat="43.20925" lon="5.46823">
        <ele>22.73</ele>
        <time>2014-05-10T08:10:22Z</time>
      </trkpt>
      <trkpt lat="43.20924" lon="5.46833">
        <ele>20.32</ele>
        <time>2014-05-10T08:10:37Z</time>
      </trkpt>
      <trkpt lat="43.20924" lon="5.46839">
        <ele>17.92</ele>
        <time>2014-05-10T08:10:55Z</time>
      </trkpt>
      <trkpt lat="43.20923" lon="5.46854">
        <ele>16.48</ele>
        <time>2014-05-10T08:11:07Z</time>
      </trkpt>
      <trkpt lat="43.20925" lon="5.46872">
        <ele>16</ele>
        <time>2014-05-10T08:11:22Z</time>
      </trkpt>
      <trkpt lat="43.20927" lon="5.4688">
        <ele>16</ele>
        <time>2014-05-10T08:11:36Z</time>
      </trkpt>
      <trkpt lat="43.20931" lon="5.4689">
        <ele>16.96</ele>
        <time>2014-05-10T08:11:50Z</time>
      </trkpt>
      <trkpt lat="43.20935" lon="5.46905">
        <ele>16.96</ele>
        <time>2014-05-10T08:12:03Z</time>
      </trkpt>
      <trkpt lat="43.20935" lon="5.46919">
        <ele>16.96</ele>
        <time>2014-05-10T08:12:19Z</time>
      </trkpt>
      <trkpt lat="43.20927" lon="5.46927">
        <ele>17.92</ele>
        <time>2014-05-10T08:12:32Z</time>
      </trkpt>
      <trkpt lat="43.20926" lon="5.46929">
        <ele>16.48</ele>
        <time>2014-05-10T08:12:35Z</time>
      </trkpt>
      <trkpt lat="43.20927" lon="5.46929">
        <ele>16.48</ele>
        <time>2014-05-10T08:13:00Z</time>
      </trkpt>
      <trkpt lat="43.20927" lon="5.46933">
        <ele>16.48</ele>
        <time>2014-05-10T08:13:28Z</time>
      </trkpt>
      <trkpt lat="43.20924" lon="5.46935">
        <ele>17.92</ele>
        <time>2014-05-10T08:13:32Z</time>
      </trkpt>
      <trkpt lat="43.2092" lon="5.46944">
        <ele>18.88</ele>
        <time>2014-05-10T08:13:51Z</time>
      </trkpt>
      <trkpt lat="43.20919" lon="5.4695">
        <ele>19.36</ele>
        <time>2014-05-10T08:14:05Z</time>
      </trkpt>
      <trkpt lat="43.20917" lon="5.46957">
        <ele>21.77</ele>
        <time>2014-05-10T08:14:17Z</time>
      </trkpt>
      <trkpt lat="43.2092" lon="5.46961">
        <ele>23.21</ele>
        <time>2014-05-10T08:14:31Z</time>
      </trkpt>
      <trkpt lat="43.2092" lon="5.46968">
        <ele>26.09</ele>
        <time>2014-05-10T08:14:43Z</time>
      </trkpt>
      <trkpt lat="43.20918" lon="5.46977">
        <ele>28.02</ele>
        <time>2014-05-10T08:14:56Z</time>
      </trkpt>
      <trkpt lat="43.20917" lon="5.46986">
        <ele>29.94</ele>
        <time>2014-05-10T08:15:09Z</time>
      </trkpt>
      <trkpt lat="43.20915" lon="5.46994">
        <ele>32.82</ele>
        <time>2014-05-10T08:15:25Z</time>
      </trkpt>
      <trkpt lat="43.20915" lon="5.46996">
        <ele>33.3</ele>
        <time>2014-05-10T08:15:41Z</time>
      </trkpt>
      <trkpt lat="43.20914" lon="5.46997">
        <ele>33.78</ele>
        <time>2014-05-10T08:16:00Z</time>
      </trkpt>
      <trkpt lat="43.20913" lon="5.47">
        <ele>36.19</ele>
        <time>2014-05-10T08:16:14Z</time>
      </trkpt>
      <trkpt lat="43.20913" lon="5.46999">
        <ele>36.67</ele>
        <time>2014-05-10T08:16:34Z</time>
      </trkpt>
      <trkpt lat="43.20911" lon="5.47">
        <ele>38.11</ele>
        <time>2014-05-10T08:16:47Z</time>
      </trkpt>
      <trkpt lat="43.20909" lon="5.47003">
        <ele>40.03</ele>
        <time>2014-05-10T08:16:58Z</time>
      </trkpt>
      <trkpt lat="43.20904" lon="5.47004">
        <ele>42.92</ele>
        <time>2014-05-10T08:17:13Z</time>
      </trkpt>
      <trkpt lat="43.209" lon="5.47006">
        <ele>43.4</ele>
        <time>2014-05-10T08:17:36Z</time>
      </trkpt>
      <trkpt lat="43.20901" lon="5.47007">
        <ele>43.4</ele>
        <time>2014-05-10T08:18:00Z</time>
      </trkpt>
      <trkpt lat="43.20899" lon="5.47007">
        <ele>44.84</ele>
        <time>2014-05-10T08:18:14Z</time>
      </trkpt>
      <trkpt lat="43.20899" lon="5.4701">
        <ele>46.76</ele>
        <time>2014-05-10T08:18:31Z</time>
      </trkpt>
      <trkpt lat="43.20896" lon="5.47009">
        <ele>48.2</ele>
        <time>2014-05-10T08:18:49Z</time>
      </trkpt>
      <trkpt lat="43.20895" lon="5.4701">
        <ele>49.16</ele>
        <time>2014-05-10T08:19:05Z</time>
      </trkpt>
      <trkpt lat="43.20896" lon="5.47009">
        <ele>49.65</ele>
        <time>2014-05-10T08:19:21Z</time>
      </trkpt>
      <trkpt lat="43.20896" lon="5.47008">
        <ele>51.09</ele>
        <time>2014-05-10T08:19:51Z</time>
      </trkpt>
      <trkpt lat="43.20897" lon="5.4701">
        <ele>52.53</ele>
        <time>2014-05-10T08:20:10Z</time>
      </trkpt>
      <trkpt lat="43.20893" lon="5.47012">
        <ele>55.41</ele>
        <time>2014-05-10T08:20:26Z</time>
      </trkpt>
      <trkpt lat="43.2089" lon="5.47006">
        <ele>58.3</ele>
        <time>2014-05-10T08:20:40Z</time>
      </trkpt>
      <trkpt lat="43.20879" lon="5.47007">
        <ele>61.66</ele>
        <time>2014-05-10T08:20:54Z</time>
      </trkpt>
      <trkpt lat="43.20882" lon="5.47019">
        <ele>63.1</ele>
        <time>2014-05-10T08:21:09Z</time>
      </trkpt>
      <trkpt lat="43.20882" lon="5.47027">
        <ele>65.51</ele>
        <time>2014-05-10T08:21:23Z</time>
      </trkpt>
      <trkpt lat="43.20883" lon="5.47031">
        <ele>66.95</ele>
        <time>2014-05-10T08:21:38Z</time>
      </trkpt>
      <trkpt lat="43.20884" lon="5.47033">
        <ele>69.35</ele>
        <time>2014-05-10T08:21:56Z</time>
      </trkpt>
      <trkpt lat="43.20883" lon="5.47038">
        <ele>70.79</ele>
        <time>2014-05-10T08:22:15Z</time>
      </trkpt>
      <trkpt lat="43.20887" lon="5.47042">
        <ele>71.76</ele>
        <time>2014-05-10T08:22:34Z</time>
      </trkpt>
      <trkpt lat="43.20882" lon="5.47038">
        <ele>72.24</ele>
        <time>2014-05-10T08:23:02Z</time>
      </trkpt>
      <trkpt lat="43.20883" lon="5.47038">
        <ele>72.24</ele>
        <time>2014-05-10T08:23:34Z</time>
      </trkpt>
      <trkpt lat="43.20883" lon="5.47033">
        <ele>72.24</ele>
        <time>2014-05-10T08:23:59Z</time>
      </trkpt>
      <trkpt lat="43.20883" lon="5.47039">
        <ele>73.2</ele>
        <time>2014-05-10T08:24:17Z</time>
      </trkpt>
      <trkpt lat="43.20884" lon="5.47041">
        <ele>76.08</ele>
        <time>2014-05-10T08:24:31Z</time>
      </trkpt>
      <trkpt lat="43.20887" lon="5.47043">
        <ele>78</ele>
        <time>2014-05-10T08:24:41Z</time>
      </trkpt>
      <trkpt lat="43.20895" lon="5.47041">
        <ele>79.45</ele>
        <time>2014-05-10T08:24:54Z</time>
      </trkpt>
      <trkpt lat="43.20898" lon="5.47041">
        <ele>79.45</ele>
        <time>2014-05-10T08:25:11Z</time>
      </trkpt>
      <trkpt lat="43.20895" lon="5.47042">
        <ele>79.45</ele>
        <time>2014-05-10T08:25:30Z</time>
      </trkpt>
      <trkpt lat="43.20894" lon="5.47042">
        <ele>77.52</ele>
        <time>2014-05-10T08:25:36Z</time>
      </trkpt>
      <trkpt lat="43.20892" lon="5.47045">
        <ele>77.52</ele>
        <time>2014-05-10T08:26:11Z</time>
      </trkpt>
      <trkpt lat="43.20894" lon="5.47041">
        <ele>77.04</ele>
        <time>2014-05-10T08:26:29Z</time>
      </trkpt>
      <trkpt lat="43.20892" lon="5.47036">
        <ele>77.04</ele>
        <time>2014-05-10T08:27:06Z</time>
      </trkpt>
      <trkpt lat="43.20892" lon="5.47034">
        <ele>77.52</ele>
        <time>2014-05-10T08:27:33Z</time>
      </trkpt>
      <trkpt lat="43.20895" lon="5.47038">
        <ele>77.52</ele>
        <time>2014-05-10T08:28:04Z</time>
      </trkpt>
      <trkpt lat="43.20894" lon="5.47038">
        <ele>78.97</ele>
        <time>2014-05-10T08:28:13Z</time>
      </trkpt>
      <trkpt lat="43.20893" lon="5.47045">
        <ele>78.97</ele>
        <time>2014-05-10T08:28:28Z</time>
      </trkpt>
      <trkpt lat="43.20894" lon="5.47044">
        <ele>78.97</ele>
        <time>2014-05-10T08:28:46Z</time>
      </trkpt>
      <trkpt lat="43.20891" lon="5.4705">
        <ele>78.97</ele>
        <time>2014-05-10T08:29:08Z</time>
      </trkpt>
      <trkpt lat="43.20894" lon="5.47046">
        <ele>78.97</ele>
        <time>2014-05-10T08:29:22Z</time>
      </trkpt>
      <trkpt lat="43.20894" lon="5.47044">
        <ele>78.97</ele>
        <time>2014-05-10T08:29:37Z</time>
      </trkpt>
      <trkpt lat="43.20898" lon="5.47045">
        <ele>77.52</ele>
        <time>2014-05-10T08:29:58Z</time>
      </trkpt>
      <trkpt lat="43.20897" lon="5.47046">
        <ele>78.97</ele>
        <time>2014-05-10T08:30:00Z</time>
      </trkpt>
      <trkpt lat="43.20897" lon="5.47046">
        <ele>79.45</ele>
        <time>2014-05-10T08:30:19Z</time>
      </trkpt>
      <trkpt lat="43.20906" lon="5.47047">
        <ele>79.45</ele>
        <time>2014-05-10T08:30:33Z</time>
      </trkpt>
      <trkpt lat="43.20915" lon="5.47047">
        <ele>81.37</ele>
        <time>2014-05-10T08:30:49Z</time>
      </trkpt>
      <trkpt lat="43.20919" lon="5.47049">
        <ele>81.85</ele>
        <time>2014-05-10T08:31:08Z</time>
      </trkpt>
      <trkpt lat="43.20925" lon="5.47052">
        <ele>82.81</ele>
        <time>2014-05-10T08:31:26Z</time>
      </trkpt>
      <trkpt lat="43.20926" lon="5.47057">
        <ele>82.81</ele>
        <time>2014-05-10T08:31:42Z</time>
      </trkpt>
      <trkpt lat="43.20931" lon="5.47065">
        <ele>82.33</ele>
        <time>2014-05-10T08:32:08Z</time>
      </trkpt>
      <trkpt lat="43.20937" lon="5.47069">
        <ele>82.33</ele>
        <time>2014-05-10T08:32:36Z</time>
      </trkpt>
      <trkpt lat="43.20931" lon="5.47058">
        <ele>82.33</ele>
        <time>2014-05-10T08:32:53Z</time>
      </trkpt>
      <trkpt lat="43.20931" lon="5.47057">
        <ele>83.77</ele>
        <time>2014-05-10T08:33:10Z</time>
      </trkpt>
      <trkpt lat="43.20927" lon="5.47056">
        <ele>84.25</ele>
        <time>2014-05-10T08:33:29Z</time>
      </trkpt>
      <trkpt lat="43.20926" lon="5.47051">
        <ele>84.73</ele>
        <time>2014-05-10T08:33:48Z</time>
      </trkpt>
      <trkpt lat="43.20926" lon="5.47048">
        <ele>84.73</ele>
        <time>2014-05-10T08:34:13Z</time>
      </trkpt>
      <trkpt lat="43.20926" lon="5.47049">
        <ele>84.73</ele>
        <time>2014-05-10T08:34:39Z</time>
      </trkpt>
      <trkpt lat="43.20928" lon="5.47046">
        <ele>85.69</ele>
        <time>2014-05-10T08:34:58Z</time>
      </trkpt>
      <trkpt lat="43.20936" lon="5.47046">
        <ele>86.18</ele>
        <time>2014-05-10T08:35:19Z</time>
      </trkpt>
      <trkpt lat="43.20942" lon="5.47049">
        <ele>86.18</ele>
        <time>2014-05-10T08:35:40Z</time>
      </trkpt>
      <trkpt lat="43.2095" lon="5.4705">
        <ele>86.18</ele>
        <time>2014-05-10T08:35:58Z</time>
      </trkpt>
      <trkpt lat="43.20941" lon="5.47042">
        <ele>86.18</ele>
        <time>2014-05-10T08:36:16Z</time>
      </trkpt>
      <trkpt lat="43.20934" lon="5.47047">
        <ele>87.62</ele>
        <time>2014-05-10T08:36:38Z</time>
      </trkpt>
      <trkpt lat="43.20929" lon="5.47046">
        <ele>88.58</ele>
        <time>2014-05-10T08:37:00Z</time>
      </trkpt>
      <trkpt lat="43.20926" lon="5.47044">
        <ele>89.06</ele>
        <time>2014-05-10T08:37:20Z</time>
      </trkpt>
      <trkpt lat="43.20928" lon="5.47046">
        <ele>90.5</ele>
        <time>2014-05-10T08:37:36Z</time>
      </trkpt>
      <trkpt lat="43.20927" lon="5.47045">
        <ele>91.94</ele>
        <time>2014-05-10T08:37:55Z</time>
      </trkpt>
      <trkpt lat="43.20926" lon="5.47045">
        <ele>91.94</ele>
        <time>2014-05-10T08:38:20Z</time>
      </trkpt>
      <trkpt lat="43.20921" lon="5.4704">
        <ele>92.42</ele>
        <time>2014-05-10T08:38:39Z</time>
      </trkpt>
      <trkpt lat="43.20925" lon="5.47043">
        <ele>92.42</ele>
        <time>2014-05-10T08:38:59Z</time>
      </trkpt>
      <trkpt lat="43.20923" lon="5.47039">
        <ele>92.9</ele>
        <time>2014-05-10T08:39:16Z</time>
      </trkpt>
      <trkpt lat="43.20926" lon="5.47031">
        <ele>92.9</ele>
        <time>2014-05-10T08:39:39Z</time>
      </trkpt>
      <trkpt lat="43.20928" lon="5.47032">
        <ele>94.35</ele>
        <time>2014-05-10T08:40:07Z</time>
      </trkpt>
      <trkpt lat="43.20932" lon="5.47038">
        <ele>96.27</ele>
        <time>2014-05-10T08:40:19Z</time>
      </trkpt>
      <trkpt lat="43.20926" lon="5.47038">
        <ele>98.19</ele>
        <time>2014-05-10T08:40:33Z</time>
      </trkpt>
      <trkpt lat="43.20926" lon="5.47039">
        <ele>100.11</ele>
        <time>2014-05-10T08:40:49Z</time>
      </trkpt>
      <trkpt lat="43.2093" lon="5.47043">
        <ele>102.04</ele>
        <time>2014-05-10T08:41:07Z</time>
      </trkpt>
      <trkpt lat="43.20928" lon="5.47058">
        <ele>103.96</ele>
        <time>2014-05-10T08:41:19Z</time>
      </trkpt>
      <trkpt lat="43.2093" lon="5.47064">
        <ele>105.4</ele>
        <time>2014-05-10T08:41:37Z</time>
      </trkpt>
      <trkpt lat="43.20935" lon="5.47067">
        <ele>108.29</ele>
        <time>2014-05-10T08:41:51Z</time>
      </trkpt>
      <trkpt lat="43.20946" lon="5.47073">
        <ele>111.17</ele>
        <time>2014-05-10T08:42:00Z</time>
      </trkpt>
      <trkpt lat="43.20952" lon="5.47073">
        <ele>113.57</ele>
        <time>2014-05-10T08:42:19Z</time>
      </trkpt>
      <trkpt lat="43.20949" lon="5.47072">
        <ele>114.05</ele>
        <time>2014-05-10T08:42:38Z</time>
      </trkpt>
      <trkpt lat="43.2095" lon="5.47073">
        <ele>114.05</ele>
        <time>2014-05-10T08:42:59Z</time>
      </trkpt>
      <trkpt lat="43.20948" lon="5.47069">
        <ele>114.05</ele>
        <time>2014-05-10T08:43:19Z</time>
      </trkpt>
      <trkpt lat="43.20947" lon="5.4707">
        <ele>114.05</ele>
        <time>2014-05-10T08:43:41Z</time>
      </trkpt>
      <trkpt lat="43.20949" lon="5.47072">
        <ele>114.05</ele>
        <time>2014-05-10T08:44:01Z</time>
      </trkpt>
      <trkpt lat="43.20948" lon="5.47074">
        <ele>114.53</ele>
        <time>2014-05-10T08:44:25Z</time>
      </trkpt>
      <trkpt lat="43.20945" lon="5.47066">
        <ele>114.53</ele>
        <time>2014-05-10T08:44:51Z</time>
      </trkpt>
      <trkpt lat="43.20946" lon="5.47066">
        <ele>114.53</ele>
        <time>2014-05-10T08:45:12Z</time>
      </trkpt>
      <trkpt lat="43.2095" lon="5.4707">
        <ele>114.53</ele>
        <time>2014-05-10T08:45:37Z</time>
      </trkpt>
      <trkpt lat="43.20949" lon="5.47075">
        <ele>114.53</ele>
        <time>2014-05-10T08:46:01Z</time>
      </trkpt>
      <trkpt lat="43.20947" lon="5.4707">
        <ele>114.53</ele>
        <time>2014-05-10T08:46:24Z</time>
      </trkpt>
      <trkpt lat="43.20945" lon="5.47068">
        <ele>115.01</ele>
        <time>2014-05-10T08:46:47Z</time>
      </trkpt>
      <trkpt lat="43.20951" lon="5.47071">
        <ele>116.94</ele>
        <time>2014-05-10T08:47:04Z</time>
      </trkpt>
      <trkpt lat="43.20956" lon="5.4707">
        <ele>119.34</ele>
        <time>2014-05-10T08:47:21Z</time>
      </trkpt>
      <trkpt lat="43.20967" lon="5.47077">
        <ele>121.74</ele>
        <time>2014-05-10T08:47:36Z</time>
      </trkpt>
      <trkpt lat="43.20973" lon="5.47075">
        <ele>124.15</ele>
        <time>2014-05-10T08:47:51Z</time>
      </trkpt>
      <trkpt lat="43.20978" lon="5.47071">
        <ele>126.55</ele>
        <time>2014-05-10T08:48:09Z</time>
      </trkpt>
      <trkpt lat="43.20983" lon="5.47072">
        <ele>128.47</ele>
        <time>2014-05-10T08:48:26Z</time>
      </trkpt>
      <trkpt lat="43.20987" lon="5.47071">
        <ele>130.4</ele>
        <time>2014-05-10T08:48:42Z</time>
      </trkpt>
      <trkpt lat="43.20994" lon="5.47067">
        <ele>133.28</ele>
        <time>2014-05-10T08:48:58Z</time>
      </trkpt>
      <trkpt lat="43.21002" lon="5.47071">
        <ele>135.68</ele>
        <time>2014-05-10T08:49:12Z</time>
      </trkpt>
      <trkpt lat="43.21008" lon="5.47071">
        <ele>137.61</ele>
        <time>2014-05-10T08:49:27Z</time>
      </trkpt>
      <trkpt lat="43.21012" lon="5.47073">
        <ele>139.53</ele>
        <time>2014-05-10T08:49:43Z</time>
      </trkpt>
      <trkpt lat="43.21016" lon="5.47071">
        <ele>141.93</ele>
        <time>2014-05-10T08:50:01Z</time>
      </trkpt>
      <trkpt lat="43.21019" lon="5.47074">
        <ele>143.37</ele>
        <time>2014-05-10T08:50:15Z</time>
      </trkpt>
      <trkpt lat="43.21023" lon="5.47069">
        <ele>145.78</ele>
        <time>2014-05-10T08:50:31Z</time>
      </trkpt>
      <trkpt lat="43.21028" lon="5.47065">
        <ele>147.7</ele>
        <time>2014-05-10T08:50:48Z</time>
      </trkpt>
      <trkpt lat="43.21034" lon="5.4706">
        <ele>149.62</ele>
        <time>2014-05-10T08:51:03Z</time>
      </trkpt>
      <trkpt lat="43.21041" lon="5.47055">
        <ele>150.1</ele>
        <time>2014-05-10T08:51:15Z</time>
      </trkpt>
      <trkpt lat="43.2105" lon="5.47052">
        <ele>151.54</ele>
        <time>2014-05-10T08:51:32Z</time>
      </trkpt>
      <trkpt lat="43.21055" lon="5.47052">
        <ele>153.47</ele>
        <time>2014-05-10T08:51:48Z</time>
      </trkpt>
      <trkpt lat="43.21061" lon="5.4705">
        <ele>155.39</ele>
        <time>2014-05-10T08:52:05Z</time>
      </trkpt>
      <trkpt lat="43.21066" lon="5.47039">
        <ele>157.31</ele>
        <time>2014-05-10T08:52:19Z</time>
      </trkpt>
      <trkpt lat="43.21068" lon="5.47026">
        <ele>157.79</ele>
        <time>2014-05-10T08:52:37Z</time>
      </trkpt>
      <trkpt lat="43.21068" lon="5.47023">
        <ele>159.72</ele>
        <time>2014-05-10T08:52:57Z</time>
      </trkpt>
      <trkpt lat="43.21068" lon="5.47024">
        <ele>161.16</ele>
        <time>2014-05-10T08:52:59Z</time>
      </trkpt>
      <trkpt lat="43.2107" lon="5.47024">
        <ele>162.6</ele>
        <time>2014-05-10T08:53:13Z</time>
      </trkpt>
      <trkpt lat="43.21075" lon="5.47024">
        <ele>164.04</ele>
        <time>2014-05-10T08:53:25Z</time>
      </trkpt>
      <trkpt lat="43.2108" lon="5.47017">
        <ele>165.96</ele>
        <time>2014-05-10T08:53:42Z</time>
      </trkpt>
      <trkpt lat="43.2108" lon="5.47014">
        <ele>167.41</ele>
        <time>2014-05-10T08:53:59Z</time>
      </trkpt>
      <trkpt lat="43.21077" lon="5.47015">
        <ele>167.89</ele>
        <time>2014-05-10T08:54:16Z</time>
      </trkpt>
      <trkpt lat="43.21078" lon="5.47018">
        <ele>170.29</ele>
        <time>2014-05-10T08:54:33Z</time>
      </trkpt>
      <trkpt lat="43.21082" lon="5.4701">
        <ele>172.21</ele>
        <time>2014-05-10T08:54:46Z</time>
      </trkpt>
      <trkpt lat="43.21086" lon="5.47013">
        <ele>174.14</ele>
        <time>2014-05-10T08:55:01Z</time>
      </trkpt>
      <trkpt lat="43.21087" lon="5.47013">
        <ele>175.1</ele>
        <time>2014-05-10T08:55:21Z</time>
      </trkpt>
      <trkpt lat="43.21091" lon="5.47015">
        <ele>177.02</ele>
        <time>2014-05-10T08:55:39Z</time>
      </trkpt>
      <trkpt lat="43.21096" lon="5.47006">
        <ele>177.02</ele>
        <time>2014-05-10T08:56:03Z</time>
      </trkpt>
      <trkpt lat="43.21095" lon="5.47007">
        <ele>179.42</ele>
        <time>2014-05-10T08:56:20Z</time>
      </trkpt>
      <trkpt lat="43.21096" lon="5.47009">
        <ele>180.87</ele>
        <time>2014-05-10T08:56:35Z</time>
      </trkpt>
      <trkpt lat="43.21097" lon="5.47004">
        <ele>181.35</ele>
        <time>2014-05-10T08:56:52Z</time>
      </trkpt>
      <trkpt lat="43.21096" lon="5.47004">
        <ele>182.31</ele>
        <time>2014-05-10T08:57:11Z</time>
      </trkpt>
      <trkpt lat="43.211" lon="5.47008">
        <ele>182.79</ele>
        <time>2014-05-10T08:57:29Z</time>
      </trkpt>
      <trkpt lat="43.211" lon="5.4701">
        <ele>184.23</ele>
        <time>2014-05-10T08:57:50Z</time>
      </trkpt>
      <trkpt lat="43.211" lon="5.4701">
        <ele>184.71</ele>
        <time>2014-05-10T08:58:15Z</time>
      </trkpt>
      <trkpt lat="43.21101" lon="5.47012">
        <ele>187.11</ele>
        <time>2014-05-10T08:58:29Z</time>
      </trkpt>
      <trkpt lat="43.21101" lon="5.47017">
        <ele>190.48</ele>
        <time>2014-05-10T08:58:42Z</time>
      </trkpt>
      <trkpt lat="43.21105" lon="5.47021">
        <ele>192.4</ele>
        <time>2014-05-10T08:58:57Z</time>
      </trkpt>
      <trkpt lat="43.21109" lon="5.47023">
        <ele>194.8</ele>
        <time>2014-05-10T08:59:13Z</time>
      </trkpt>
      <trkpt lat="43.21111" lon="5.47028">
        <ele>196.25</ele>
        <time>2014-05-10T08:59:27Z</time>
      </trkpt>
      <trkpt lat="43.21115" lon="5.47029">
        <ele>197.69</ele>
        <time>2014-05-10T08:59:42Z</time>
      </trkpt>
      <trkpt lat="43.21118" lon="5.47024">
        <ele>197.69</ele>
        <time>2014-05-10T09:00:00Z</time>
      </trkpt>
      <trkpt lat="43.2112" lon="5.47023">
        <ele>199.61</ele>
        <time>2014-05-10T09:00:15Z</time>
      </trkpt>
      <trkpt lat="43.21121" lon="5.47023">
        <ele>201.05</ele>
        <time>2014-05-10T09:00:27Z</time>
      </trkpt>
      <trkpt lat="43.21123" lon="5.47024">
        <ele>202.98</ele>
        <time>2014-05-10T09:00:44Z</time>
      </trkpt>
      <trkpt lat="43.21125" lon="5.47024">
        <ele>203.46</ele>
        <time>2014-05-10T09:01:03Z</time>
      </trkpt>
      <trkpt lat="43.21128" lon="5.47024">
        <ele>206.34</ele>
        <time>2014-05-10T09:01:18Z</time>
      </trkpt>
      <trkpt lat="43.21131" lon="5.47027">
        <ele>208.74</ele>
        <time>2014-05-10T09:01:32Z</time>
      </trkpt>
      <trkpt lat="43.21136" lon="5.47028">
        <ele>210.67</ele>
        <time>2014-05-10T09:01:47Z</time>
      </trkpt>
      <trkpt lat="43.2114" lon="5.4703">
        <ele>212.11</ele>
        <time>2014-05-10T09:02:01Z</time>
      </trkpt>
      <trkpt lat="43.21142" lon="5.47028">
        <ele>213.55</ele>
        <time>2014-05-10T09:02:15Z</time>
      </trkpt>
      <trkpt lat="43.21145" lon="5.47025">
        <ele>215.47</ele>
        <time>2014-05-10T09:02:30Z</time>
      </trkpt>
      <trkpt lat="43.21148" lon="5.47023">
        <ele>217.4</ele>
        <time>2014-05-10T09:02:47Z</time>
      </trkpt>
      <trkpt lat="43.21151" lon="5.47022">
        <ele>219.32</ele>
        <time>2014-05-10T09:03:03Z</time>
      </trkpt>
      <trkpt lat="43.21153" lon="5.47026">
        <ele>220.76</ele>
        <time>2014-05-10T09:03:16Z</time>
      </trkpt>
      <trkpt lat="43.21156" lon="5.47029">
        <ele>223.16</ele>
        <time>2014-05-10T09:03:30Z</time>
      </trkpt>
      <trkpt lat="43.21161" lon="5.47028">
        <ele>224.12</ele>
        <time>2014-05-10T09:03:45Z</time>
      </trkpt>
      <trkpt lat="43.21165" lon="5.47025">
        <ele>226.05</ele>
        <time>2014-05-10T09:04:00Z</time>
      </trkpt>
      <trkpt lat="43.21168" lon="5.47023">
        <ele>227.97</ele>
        <time>2014-05-10T09:04:17Z</time>
      </trkpt>
      <trkpt lat="43.2117" lon="5.47019">
        <ele>227.97</ele>
        <time>2014-05-10T09:04:36Z</time>
      </trkpt>
      <trkpt lat="43.21174" lon="5.47018">
        <ele>229.41</ele>
        <time>2014-05-10T09:04:48Z</time>
      </trkpt>
      <trkpt lat="43.21178" lon="5.47021">
        <ele>231.33</ele>
        <time>2014-05-10T09:05:01Z</time>
      </trkpt>
      <trkpt lat="43.21181" lon="5.4702">
        <ele>233.26</ele>
        <time>2014-05-10T09:05:15Z</time>
      </trkpt>
      <trkpt lat="43.21184" lon="5.4702">
        <ele>234.7</ele>
        <time>2014-05-10T09:05:31Z</time>
      </trkpt>
      <trkpt lat="43.21187" lon="5.47016">
        <ele>237.1</ele>
        <time>2014-05-10T09:05:45Z</time>
      </trkpt>
      <trkpt lat="43.21189" lon="5.47017">
        <ele>238.54</ele>
        <time>2014-05-10T09:05:59Z</time>
      </trkpt>
      <trkpt lat="43.21193" lon="5.47017">
        <ele>239.99</ele>
        <time>2014-05-10T09:06:11Z</time>
      </trkpt>
      <trkpt lat="43.21192" lon="5.4701">
        <ele>240.95</ele>
        <time>2014-05-10T09:06:25Z</time>
      </trkpt>
      <trkpt lat="43.21192" lon="5.47014">
        <ele>241.43</ele>
        <time>2014-05-10T09:06:43Z</time>
      </trkpt>
      <trkpt lat="43.21191" lon="5.47011">
        <ele>242.87</ele>
        <time>2014-05-10T09:06:54Z</time>
      </trkpt>
      <trkpt lat="43.21194" lon="5.47009">
        <ele>245.75</ele>
        <time>2014-05-10T09:07:09Z</time>
      </trkpt>
      <trkpt lat="43.21195" lon="5.47005">
        <ele>248.16</ele>
        <time>2014-05-10T09:07:24Z</time>
      </trkpt>
      <trkpt lat="43.21201" lon="5.47011">
        <ele>250.56</ele>
        <time>2014-05-10T09:07:38Z</time>
      </trkpt>
      <trkpt lat="43.21203" lon="5.47018">
        <ele>252.96</ele>
        <time>2014-05-10T09:07:51Z</time>
      </trkpt>
      <trkpt lat="43.21203" lon="5.47037">
        <ele>254.41</ele>
        <time>2014-05-10T09:08:08Z</time>
      </trkpt>
      <trkpt lat="43.21206" lon="5.47039">
        <ele>255.85</ele>
        <time>2014-05-10T09:08:28Z</time>
      </trkpt>
      <trkpt lat="43.21207" lon="5.47026">
        <ele>257.77</ele>
        <time>2014-05-10T09:08:44Z</time>
      </trkpt>
      <trkpt lat="43.21208" lon="5.47024">
        <ele>259.69</ele>
        <time>2014-05-10T09:08:56Z</time>
      </trkpt>
      <trkpt lat="43.21209" lon="5.47026">
        <ele>260.17</ele>
        <time>2014-05-10T09:09:13Z</time>
      </trkpt>
      <trkpt lat="43.21212" lon="5.47022">
        <ele>263.06</ele>
        <time>2014-05-10T09:09:28Z</time>
      </trkpt>
      <trkpt lat="43.21213" lon="5.47017">
        <ele>265.94</ele>
        <time>2014-05-10T09:09:44Z</time>
      </trkpt>
      <trkpt lat="43.21218" lon="5.47005">
        <ele>268.83</ele>
        <time>2014-05-10T09:10:02Z</time>
      </trkpt>
      <trkpt lat="43.21224" lon="5.47001">
        <ele>270.27</ele>
        <time>2014-05-10T09:10:16Z</time>
      </trkpt>
      <trkpt lat="43.21228" lon="5.47004">
        <ele>268.83</ele>
        <time>2014-05-10T09:10:31Z</time>
      </trkpt>
      <trkpt lat="43.21231" lon="5.4703">
        <ele>267.86</ele>
        <time>2014-05-10T09:10:45Z</time>
      </trkpt>
      <trkpt lat="43.21233" lon="5.47025">
        <ele>268.35</ele>
        <time>2014-05-10T09:11:11Z</time>
      </trkpt>
      <trkpt lat="43.21235" lon="5.47024">
        <ele>268.35</ele>
        <time>2014-05-10T09:11:28Z</time>
      </trkpt>
      <trkpt lat="43.21234" lon="5.47016">
        <ele>267.86</ele>
        <time>2014-05-10T09:11:45Z</time>
      </trkpt>
      <trkpt lat="43.21233" lon="5.47015">
        <ele>267.86</ele>
        <time>2014-05-10T09:12:17Z</time>
      </trkpt>
      <trkpt lat="43.21234" lon="5.47006">
        <ele>268.35</ele>
        <time>2014-05-10T09:12:48Z</time>
      </trkpt>
      <trkpt lat="43.21234" lon="5.47008">
        <ele>269.79</ele>
        <time>2014-05-10T09:12:54Z</time>
      </trkpt>
      <trkpt lat="43.21235" lon="5.47019">
        <ele>268.83</ele>
        <time>2014-05-10T09:13:12Z</time>
      </trkpt>
      <trkpt lat="43.21234" lon="5.47028">
        <ele>269.31</ele>
        <time>2014-05-10T09:13:35Z</time>
      </trkpt>
      <trkpt lat="43.21234" lon="5.47026">
        <ele>269.79</ele>
        <time>2014-05-10T09:14:02Z</time>
      </trkpt>
      <trkpt lat="43.21234" lon="5.4703">
        <ele>270.27</ele>
        <time>2014-05-10T09:14:31Z</time>
      </trkpt>
      <trkpt lat="43.21237" lon="5.47058">
        <ele>270.75</ele>
        <time>2014-05-10T09:15:04Z</time>
      </trkpt>
      <trkpt lat="43.21238" lon="5.47052">
        <ele>271.71</ele>
        <time>2014-05-10T09:15:30Z</time>
      </trkpt>
      <trkpt lat="43.21237" lon="5.47054">
        <ele>272.19</ele>
        <time>2014-05-10T09:16:01Z</time>
      </trkpt>
      <trkpt lat="43.21237" lon="5.47081">
        <ele>272.67</ele>
        <time>2014-05-10T09:16:20Z</time>
      </trkpt>
      <trkpt lat="43.21241" lon="5.47076">
        <ele>273.63</ele>
        <time>2014-05-10T09:16:51Z</time>
      </trkpt>
      <trkpt lat="43.21242" lon="5.4708">
        <ele>274.11</ele>
        <time>2014-05-10T09:17:14Z</time>
      </trkpt>
      <trkpt lat="43.21239" lon="5.47079">
        <ele>274.59</ele>
        <time>2014-05-10T09:17:35Z</time>
      </trkpt>
      <trkpt lat="43.21238" lon="5.47073">
        <ele>275.07</ele>
        <time>2014-05-10T09:17:47Z</time>
      </trkpt>
      <trkpt lat="43.21241" lon="5.47063">
        <ele>276.52</ele>
        <time>2014-05-10T09:18:00Z</time>
      </trkpt>
      <trkpt lat="43.21243" lon="5.4705">
        <ele>277.96</ele>
        <time>2014-05-10T09:18:17Z</time>
      </trkpt>
      <trkpt lat="43.21244" lon="5.47016">
        <ele>280.36</ele>
        <time>2014-05-10T09:18:35Z</time>
      </trkpt>
      <trkpt lat="43.21247" lon="5.4701">
        <ele>281.8</ele>
        <time>2014-05-10T09:18:49Z</time>
      </trkpt>
      <trkpt lat="43.21253" lon="5.47008">
        <ele>284.21</ele>
        <time>2014-05-10T09:19:05Z</time>
      </trkpt>
      <trkpt lat="43.21257" lon="5.47014">
        <ele>285.65</ele>
        <time>2014-05-10T09:19:22Z</time>
      </trkpt>
      <trkpt lat="43.21259" lon="5.47007">
        <ele>287.09</ele>
        <time>2014-05-10T09:19:41Z</time>
      </trkpt>
      <trkpt lat="43.21261" lon="5.47005">
        <ele>288.53</ele>
        <time>2014-05-10T09:20:00Z</time>
      </trkpt>
      <trkpt lat="43.21262" lon="5.47">
        <ele>289.49</ele>
        <time>2014-05-10T09:20:22Z</time>
      </trkpt>
      <trkpt lat="43.21263" lon="5.46998">
        <ele>290.46</ele>
        <time>2014-05-10T09:20:47Z</time>
      </trkpt>
      <trkpt lat="43.21268" lon="5.46994">
        <ele>291.42</ele>
        <time>2014-05-10T09:21:10Z</time>
      </trkpt>
      <trkpt lat="43.21269" lon="5.46993">
        <ele>292.86</ele>
        <time>2014-05-10T09:21:29Z</time>
      </trkpt>
      <trkpt lat="43.2127" lon="5.46995">
        <ele>293.82</ele>
        <time>2014-05-10T09:21:47Z</time>
      </trkpt>
      <trkpt lat="43.2127" lon="5.46997">
        <ele>294.78</ele>
        <time>2014-05-10T09:22:11Z</time>
      </trkpt>
      <trkpt lat="43.2127" lon="5.46995">
        <ele>295.74</ele>
        <time>2014-05-10T09:22:30Z</time>
      </trkpt>
      <trkpt lat="43.2127" lon="5.46988">
        <ele>297.67</ele>
        <time>2014-05-10T09:22:50Z</time>
      </trkpt>
      <trkpt lat="43.21271" lon="5.46983">
        <ele>298.15</ele>
        <time>2014-05-10T09:23:17Z</time>
      </trkpt>
      <trkpt lat="43.21273" lon="5.46981">
        <ele>298.63</ele>
        <time>2014-05-10T09:23:38Z</time>
      </trkpt>
      <trkpt lat="43.21274" lon="5.4698">
        <ele>299.59</ele>
        <time>2014-05-10T09:24:06Z</time>
      </trkpt>
      <trkpt lat="43.21273" lon="5.46982">
        <ele>299.59</ele>
        <time>2014-05-10T09:24:29Z</time>
      </trkpt>
      <trkpt lat="43.21275" lon="5.4698">
        <ele>300.07</ele>
        <time>2014-05-10T09:24:55Z</time>
      </trkpt>
      <trkpt lat="43.21275" lon="5.46969">
        <ele>301.51</ele>
        <time>2014-05-10T09:25:11Z</time>
      </trkpt>
      <trkpt lat="43.21274" lon="5.4697">
        <ele>302.95</ele>
        <time>2014-05-10T09:25:29Z</time>
      </trkpt>
      <trkpt lat="43.21276" lon="5.46971">
        <ele>304.39</ele>
        <time>2014-05-10T09:25:44Z</time>
      </trkpt>
      <trkpt lat="43.21277" lon="5.46974">
        <ele>304.88</ele>
        <time>2014-05-10T09:26:04Z</time>
      </trkpt>
      <trkpt lat="43.21277" lon="5.46983">
        <ele>304.88</ele>
        <time>2014-05-10T09:26:16Z</time>
      </trkpt>
      <trkpt lat="43.21278" lon="5.46989">
        <ele>306.32</ele>
        <time>2014-05-10T09:26:33Z</time>
      </trkpt>
      <trkpt lat="43.21278" lon="5.46988">
        <ele>306.32</ele>
        <time>2014-05-10T09:26:53Z</time>
      </trkpt>
      <trkpt lat="43.21279" lon="5.46991">
        <ele>307.76</ele>
        <time>2014-05-10T09:27:09Z</time>
      </trkpt>
      <trkpt lat="43.21279" lon="5.46993">
        <ele>308.72</ele>
        <time>2014-05-10T09:27:23Z</time>
      </trkpt>
      <trkpt lat="43.21276" lon="5.46994">
        <ele>308.72</ele>
        <time>2014-05-10T09:27:45Z</time>
      </trkpt>
      <trkpt lat="43.21274" lon="5.47032">
        <ele>310.16</ele>
        <time>2014-05-10T09:28:09Z</time>
      </trkpt>
      <trkpt lat="43.21282" lon="5.47039">
        <ele>310.64</ele>
        <time>2014-05-10T09:28:30Z</time>
      </trkpt>
      <trkpt lat="43.21286" lon="5.47048">
        <ele>311.12</ele>
        <time>2014-05-10T09:28:50Z</time>
      </trkpt>
      <trkpt lat="43.21285" lon="5.47043">
        <ele>311.6</ele>
        <time>2014-05-10T09:29:07Z</time>
      </trkpt>
      <trkpt lat="43.21284" lon="5.47031">
        <ele>313.05</ele>
        <time>2014-05-10T09:29:23Z</time>
      </trkpt>
      <trkpt lat="43.21283" lon="5.47016">
        <ele>315.45</ele>
        <time>2014-05-10T09:29:42Z</time>
      </trkpt>
      <trkpt lat="43.21285" lon="5.47022">
        <ele>315.93</ele>
        <time>2014-05-10T09:30:03Z</time>
      </trkpt>
      <trkpt lat="43.21283" lon="5.47026">
        <ele>316.41</ele>
        <time>2014-05-10T09:30:25Z</time>
      </trkpt>
      <trkpt lat="43.21285" lon="5.47043">
        <ele>318.81</ele>
        <time>2014-05-10T09:30:43Z</time>
      </trkpt>
      <trkpt lat="43.21286" lon="5.47042">
        <ele>320.26</ele>
        <time>2014-05-10T09:30:56Z</time>
      </trkpt>
      <trkpt lat="43.21287" lon="5.47041">
        <ele>321.22</ele>
        <time>2014-05-10T09:31:11Z</time>
      </trkpt>
      <trkpt lat="43.21289" lon="5.47021">
        <ele>323.14</ele>
        <time>2014-05-10T09:31:31Z</time>
      </trkpt>
      <trkpt lat="43.21291" lon="5.47003">
        <ele>323.62</ele>
        <time>2014-05-10T09:31:50Z</time>
      </trkpt>
      <trkpt lat="43.21292" lon="5.46996">
        <ele>324.1</ele>
        <time>2014-05-10T09:32:06Z</time>
      </trkpt>
      <trkpt lat="43.21295" lon="5.46993">
        <ele>324.58</ele>
        <time>2014-05-10T09:32:30Z</time>
      </trkpt>
      <trkpt lat="43.21295" lon="5.46989">
        <ele>324.58</ele>
        <time>2014-05-10T09:33:03Z</time>
      </trkpt>
      <trkpt lat="43.21296" lon="5.46987">
        <ele>324.58</ele>
        <time>2014-05-10T09:33:28Z</time>
      </trkpt>
      <trkpt lat="43.21295" lon="5.46986">
        <ele>324.1</ele>
        <time>2014-05-10T09:34:01Z</time>
      </trkpt>
      <trkpt lat="43.21296" lon="5.46986">
        <ele>324.58</ele>
        <time>2014-05-10T09:34:30Z</time>
      </trkpt>
      <trkpt lat="43.21298" lon="5.46985">
        <ele>324.58</ele>
        <time>2014-05-10T09:35:01Z</time>
      </trkpt>
      <trkpt lat="43.21297" lon="5.46984">
        <ele>324.58</ele>
        <time>2014-05-10T09:35:28Z</time>
      </trkpt>
      <trkpt lat="43.21295" lon="5.4699">
        <ele>324.58</ele>
        <time>2014-05-10T09:35:49Z</time>
      </trkpt>
      <trkpt lat="43.21293" lon="5.46987">
        <ele>324.58</ele>
        <time>2014-05-10T09:36:13Z</time>
      </trkpt>
      <trkpt lat="43.21293" lon="5.46988">
        <ele>324.58</ele>
        <time>2014-05-10T09:36:40Z</time>
      </trkpt>
      <trkpt lat="43.21294" lon="5.4698">
        <ele>324.58</ele>
        <time>2014-05-10T09:37:11Z</time>
      </trkpt>
      <trkpt lat="43.21296" lon="5.46976">
        <ele>326.99</ele>
        <time>2014-05-10T09:37:28Z</time>
      </trkpt>
      <trkpt lat="43.21295" lon="5.4698">
        <ele>327.47</ele>
        <time>2014-05-10T09:37:46Z</time>
      </trkpt>
      <trkpt lat="43.21294" lon="5.46983">
        <ele>327.47</ele>
        <time>2014-05-10T09:38:05Z</time>
      </trkpt>
      <trkpt lat="43.21295" lon="5.46974">
        <ele>327.47</ele>
        <time>2014-05-10T09:38:28Z</time>
      </trkpt>
      <trkpt lat="43.21294" lon="5.46976">
        <ele>327.47</ele>
        <time>2014-05-10T09:38:50Z</time>
      </trkpt>
      <trkpt lat="43.21294" lon="5.46974">
        <ele>327.95</ele>
        <time>2014-05-10T09:39:11Z</time>
      </trkpt>
      <trkpt lat="43.21291" lon="5.46979">
        <ele>329.87</ele>
        <time>2014-05-10T09:39:30Z</time>
      </trkpt>
      <trkpt lat="43.21293" lon="5.46985">
        <ele>329.87</ele>
        <time>2014-05-10T09:39:50Z</time>
      </trkpt>
      <trkpt lat="43.21294" lon="5.46972">
        <ele>330.35</ele>
        <time>2014-05-10T09:40:12Z</time>
      </trkpt>
      <trkpt lat="43.2129" lon="5.46977">
        <ele>331.31</ele>
        <time>2014-05-10T09:40:32Z</time>
      </trkpt>
      <trkpt lat="43.21282" lon="5.46987">
        <ele>331.31</ele>
        <time>2014-05-10T09:40:55Z</time>
      </trkpt>
      <trkpt lat="43.21281" lon="5.46997">
        <ele>332.75</ele>
        <time>2014-05-10T09:41:15Z</time>
      </trkpt>
      <trkpt lat="43.21282" lon="5.46995">
        <ele>332.75</ele>
        <time>2014-05-10T09:41:39Z</time>
      </trkpt>
      <trkpt lat="43.21289" lon="5.46993">
        <ele>333.23</ele>
        <time>2014-05-10T09:42:06Z</time>
      </trkpt>
      <trkpt lat="43.21293" lon="5.46985">
        <ele>333.23</ele>
        <time>2014-05-10T09:42:31Z</time>
      </trkpt>
      <trkpt lat="43.21291" lon="5.46986">
        <ele>333.23</ele>
        <time>2014-05-10T09:42:56Z</time>
      </trkpt>
      <trkpt lat="43.21287" lon="5.46994">
        <ele>333.23</ele>
        <time>2014-05-10T09:43:12Z</time>
      </trkpt>
      <trkpt lat="43.2129" lon="5.46993">
        <ele>333.71</ele>
        <time>2014-05-10T09:43:35Z</time>
      </trkpt>
      <trkpt lat="43.21291" lon="5.46993">
        <ele>333.71</ele>
        <time>2014-05-10T09:44:03Z</time>
      </trkpt>
      <trkpt lat="43.21289" lon="5.46998">
        <ele>333.71</ele>
        <time>2014-05-10T09:44:33Z</time>
      </trkpt>
      <trkpt lat="43.2129" lon="5.46996">
        <ele>334.2</ele>
        <time>2014-05-10T09:44:57Z</time>
      </trkpt>
      <trkpt lat="43.21287" lon="5.46996">
        <ele>334.2</ele>
        <time>2014-05-10T09:45:13Z</time>
      </trkpt>
      <trkpt lat="43.21289" lon="5.46994">
        <ele>334.2</ele>
        <time>2014-05-10T09:45:37Z</time>
      </trkpt>
      <trkpt lat="43.21289" lon="5.46993">
        <ele>334.68</ele>
        <time>2014-05-10T09:45:57Z</time>
      </trkpt>
      <trkpt lat="43.2129" lon="5.46994">
        <ele>334.68</ele>
        <time>2014-05-10T09:46:18Z</time>
      </trkpt>
      <trkpt lat="43.21289" lon="5.46994">
        <ele>334.68</ele>
        <time>2014-05-10T09:46:38Z</time>
      </trkpt>
      <trkpt lat="43.21288" lon="5.46996">
        <ele>335.16</ele>
        <time>2014-05-10T09:46:53Z</time>
      </trkpt>
      <trkpt lat="43.21287" lon="5.47">
        <ele>336.12</ele>
        <time>2014-05-10T09:47:11Z</time>
      </trkpt>
      <trkpt lat="43.21291" lon="5.46999">
        <ele>336.6</ele>
        <time>2014-05-10T09:47:30Z</time>
      </trkpt>
      <trkpt lat="43.21295" lon="5.46997">
        <ele>338.52</ele>
        <time>2014-05-10T09:47:43Z</time>
      </trkpt>
      <trkpt lat="43.21298" lon="5.46998">
        <ele>339.96</ele>
        <time>2014-05-10T09:48:03Z</time>
      </trkpt>
      <trkpt lat="43.21299" lon="5.47">
        <ele>340.92</ele>
        <time>2014-05-10T09:48:25Z</time>
      </trkpt>
      <trkpt lat="43.213" lon="5.46998">
        <ele>342.37</ele>
        <time>2014-05-10T09:48:41Z</time>
      </trkpt>
      <trkpt lat="43.21302" lon="5.46999">
        <ele>344.29</ele>
        <time>2014-05-10T09:48:56Z</time>
      </trkpt>
      <trkpt lat="43.21305" lon="5.47002">
        <ele>344.77</ele>
        <time>2014-05-10T09:49:19Z</time>
      </trkpt>
      <trkpt lat="43.21307" lon="5.47003">
        <ele>345.73</ele>
        <time>2014-05-10T09:49:40Z</time>
      </trkpt>
      <trkpt lat="43.21306" lon="5.47002">
        <ele>345.73</ele>
        <time>2014-05-10T09:50:08Z</time>
      </trkpt>
      <trkpt lat="43.21306" lon="5.47003">
        <ele>347.17</ele>
        <time>2014-05-10T09:50:39Z</time>
      </trkpt>
      <trkpt lat="43.21307" lon="5.47005">
        <ele>348.62</ele>
        <time>2014-05-10T09:50:55Z</time>
      </trkpt>
      <trkpt lat="43.21307" lon="5.47003">
        <ele>350.06</ele>
        <time>2014-05-10T09:51:19Z</time>
      </trkpt>
      <trkpt lat="43.21313" lon="5.46998">
        <ele>352.94</ele>
        <time>2014-05-10T09:51:37Z</time>
      </trkpt>
      <trkpt lat="43.21316" lon="5.46997">
        <ele>354.38</ele>
        <time>2014-05-10T09:51:52Z</time>
      </trkpt>
      <trkpt lat="43.21318" lon="5.46996">
        <ele>354.38</ele>
        <time>2014-05-10T09:52:19Z</time>
      </trkpt>
      <trkpt lat="43.21317" lon="5.46997">
        <ele>354.38</ele>
        <time>2014-05-10T09:52:41Z</time>
      </trkpt>
      <trkpt lat="43.21316" lon="5.46997">
        <ele>354.38</ele>
        <time>2014-05-10T09:53:03Z</time>
      </trkpt>
      <trkpt lat="43.21317" lon="5.46998">
        <ele>353.9</ele>
        <time>2014-05-10T09:53:34Z</time>
      </trkpt>
      <trkpt lat="43.21317" lon="5.46997">
        <ele>354.38</ele>
        <time>2014-05-10T09:54:07Z</time>
      </trkpt>
      <trkpt lat="43.21318" lon="5.46997">
        <ele>353.9</ele>
        <time>2014-05-10T09:54:29Z</time>
      </trkpt>
      <trkpt lat="43.21317" lon="5.46997">
        <ele>353.9</ele>
        <time>2014-05-10T09:54:50Z</time>
      </trkpt>
      <trkpt lat="43.21315" lon="5.46997">
        <ele>353.9</ele>
        <time>2014-05-10T09:55:14Z</time>
      </trkpt>
      <trkpt lat="43.21316" lon="5.46998">
        <ele>353.9</ele>
        <time>2014-05-10T09:55:44Z</time>
      </trkpt>
      <trkpt lat="43.21317" lon="5.46997">
        <ele>353.9</ele>
        <time>2014-05-10T09:56:19Z</time>
      </trkpt>
      <trkpt lat="43.21319" lon="5.46998">
        <ele>353.9</ele>
        <time>2014-05-10T09:56:50Z</time>
      </trkpt>
      <trkpt lat="43.21317" lon="5.46997">
        <ele>352.46</ele>
        <time>2014-05-10T09:56:57Z</time>
      </trkpt>
      <trkpt lat="43.21317" lon="5.46996">
        <ele>351.98</ele>
        <time>2014-05-10T09:57:20Z</time>
      </trkpt>
      <trkpt lat="43.21319" lon="5.46997">
        <ele>351.98</ele>
        <time>2014-05-10T09:57:51Z</time>
      </trkpt>
      <trkpt lat="43.21316" lon="5.46997">
        <ele>353.42</ele>
        <time>2014-05-10T09:58:15Z</time>
      </trkpt>
      <trkpt lat="43.21315" lon="5.46997">
        <ele>353.42</ele>
        <time>2014-05-10T09:58:30Z</time>
      </trkpt>
      <trkpt lat="43.21318" lon="5.46995">
        <ele>353.42</ele>
        <time>2014-05-10T09:58:55Z</time>
      </trkpt>
      <trkpt lat="43.21325" lon="5.46995">
        <ele>355.34</ele>
        <time>2014-05-10T09:59:11Z</time>
      </trkpt>
      <trkpt lat="43.21329" lon="5.46995">
        <ele>358.23</ele>
        <time>2014-05-10T09:59:28Z</time>
      </trkpt>
      <trkpt lat="43.21332" lon="5.46998">
        <ele>360.15</ele>
        <time>2014-05-10T09:59:43Z</time>
      </trkpt>
      <trkpt lat="43.21336" lon="5.46993">
        <ele>362.07</ele>
        <time>2014-05-10T10:00:01Z</time>
      </trkpt>
      <trkpt lat="43.21341" lon="5.4699">
        <ele>364.48</ele>
        <time>2014-05-10T10:00:19Z</time>
      </trkpt>
      <trkpt lat="43.21342" lon="5.46994">
        <ele>366.4</ele>
        <time>2014-05-10T10:00:36Z</time>
      </trkpt>
      <trkpt lat="43.21344" lon="5.46999">
        <ele>368.32</ele>
        <time>2014-05-10T10:00:52Z</time>
      </trkpt>
      <trkpt lat="43.21347" lon="5.46995">
        <ele>370.24</ele>
        <time>2014-05-10T10:01:09Z</time>
      </trkpt>
      <trkpt lat="43.21352" lon="5.46994">
        <ele>371.69</ele>
        <time>2014-05-10T10:01:29Z</time>
      </trkpt>
      <trkpt lat="43.21354" lon="5.46986">
        <ele>373.61</ele>
        <time>2014-05-10T10:01:43Z</time>
      </trkpt>
      <trkpt lat="43.21354" lon="5.46981">
        <ele>374.57</ele>
        <time>2014-05-10T10:02:04Z</time>
      </trkpt>
      <trkpt lat="43.21355" lon="5.46978">
        <ele>374.57</ele>
        <time>2014-05-10T10:02:32Z</time>
      </trkpt>
      <trkpt lat="43.21356" lon="5.46979">
        <ele>375.05</ele>
        <time>2014-05-10T10:02:53Z</time>
      </trkpt>
      <trkpt lat="43.2136" lon="5.46966">
        <ele>375.53</ele>
        <time>2014-05-10T10:03:10Z</time>
      </trkpt>
      <trkpt lat="43.21365" lon="5.46959">
        <ele>377.94</ele>
        <time>2014-05-10T10:03:26Z</time>
      </trkpt>
      <trkpt lat="43.21372" lon="5.46954">
        <ele>379.86</ele>
        <time>2014-05-10T10:03:41Z</time>
      </trkpt>
      <trkpt lat="43.21377" lon="5.46944">
        <ele>382.74</ele>
        <time>2014-05-10T10:04:00Z</time>
      </trkpt>
      <trkpt lat="43.21382" lon="5.46942">
        <ele>385.63</ele>
        <time>2014-05-10T10:04:18Z</time>
      </trkpt>
      <trkpt lat="43.21385" lon="5.4693">
        <ele>387.55</ele>
        <time>2014-05-10T10:04:33Z</time>
      </trkpt>
      <trkpt lat="43.21384" lon="5.46919">
        <ele>388.99</ele>
        <time>2014-05-10T10:04:48Z</time>
      </trkpt>
      <trkpt lat="43.21387" lon="5.46912">
        <ele>391.39</ele>
        <time>2014-05-10T10:05:02Z</time>
      </trkpt>
      <trkpt lat="43.21394" lon="5.46911">
        <ele>393.32</ele>
        <time>2014-05-10T10:05:16Z</time>
      </trkpt>
      <trkpt lat="43.21398" lon="5.46897">
        <ele>395.72</ele>
        <time>2014-05-10T10:05:31Z</time>
      </trkpt>
      <trkpt lat="43.214" lon="5.46881">
        <ele>396.2</ele>
        <time>2014-05-10T10:05:47Z</time>
      </trkpt>
      <trkpt lat="43.21407" lon="5.46873">
        <ele>398.12</ele>
        <time>2014-05-10T10:06:01Z</time>
      </trkpt>
      <trkpt lat="43.21414" lon="5.46869">
        <ele>400.05</ele>
        <time>2014-05-10T10:06:14Z</time>
      </trkpt>
      <trkpt lat="43.21421" lon="5.46861">
        <ele>401.49</ele>
        <time>2014-05-10T10:06:30Z</time>
      </trkpt>
      <trkpt lat="43.21422" lon="5.46857">
        <ele>401.97</ele>
        <time>2014-05-10T10:06:34Z</time>
      </trkpt>
      <trkpt lat="43.21437" lon="5.46847">
        <ele>401.49</ele>
        <time>2014-05-10T10:06:50Z</time>
      </trkpt>
      <trkpt lat="43.21447" lon="5.46838">
        <ele>401.49</ele>
        <time>2014-05-10T10:07:03Z</time>
      </trkpt>
      <trkpt lat="43.21456" lon="5.46827">
        <ele>401.49</ele>
        <time>2014-05-10T10:07:20Z</time>
      </trkpt>
      <trkpt lat="43.21458" lon="5.46825">
        <ele>401.49</ele>
        <time>2014-05-10T10:07:40Z</time>
      </trkpt>
      <trkpt lat="43.21458" lon="5.46823">
        <ele>401.01</ele>
        <time>2014-05-10T10:07:45Z</time>
      </trkpt>
      <trkpt lat="43.21459" lon="5.46821">
        <ele>400.05</ele>
        <time>2014-05-10T10:07:47Z</time>
      </trkpt>
      <trkpt lat="43.21469" lon="5.46808">
        <ele>399.57</ele>
        <time>2014-05-10T10:08:01Z</time>
      </trkpt>
      <trkpt lat="43.21474" lon="5.46806">
        <ele>400.53</ele>
        <time>2014-05-10T10:08:06Z</time>
      </trkpt>
      <trkpt lat="43.21487" lon="5.46806">
        <ele>400.53</ele>
        <time>2014-05-10T10:08:20Z</time>
      </trkpt>
      <trkpt lat="43.21489" lon="5.46803">
        <ele>399.08</ele>
        <time>2014-05-10T10:08:25Z</time>
      </trkpt>
      <trkpt lat="43.215" lon="5.46796">
        <ele>397.16</ele>
        <time>2014-05-10T10:08:39Z</time>
      </trkpt>
      <trkpt lat="43.21509" lon="5.46781">
        <ele>398.12</ele>
        <time>2014-05-10T10:08:55Z</time>
      </trkpt>
      <trkpt lat="43.21519" lon="5.4677">
        <ele>399.57</ele>
        <time>2014-05-10T10:09:09Z</time>
      </trkpt>
      <trkpt lat="43.21532" lon="5.4676">
        <ele>397.64</ele>
        <time>2014-05-10T10:09:26Z</time>
      </trkpt>
      <trkpt lat="43.21541" lon="5.46749">
        <ele>396.68</ele>
        <time>2014-05-10T10:09:42Z</time>
      </trkpt>
      <trkpt lat="43.21549" lon="5.4674">
        <ele>398.12</ele>
        <time>2014-05-10T10:09:57Z</time>
      </trkpt>
      <trkpt lat="43.21557" lon="5.46729">
        <ele>399.57</ele>
        <time>2014-05-10T10:10:11Z</time>
      </trkpt>
      <trkpt lat="43.21567" lon="5.46721">
        <ele>400.53</ele>
        <time>2014-05-10T10:10:25Z</time>
      </trkpt>
      <trkpt lat="43.21572" lon="5.46709">
        <ele>399.08</ele>
        <time>2014-05-10T10:10:38Z</time>
      </trkpt>
      <trkpt lat="43.21577" lon="5.46695">
        <ele>396.68</ele>
        <time>2014-05-10T10:10:53Z</time>
      </trkpt>
      <trkpt lat="43.21583" lon="5.46686">
        <ele>396.68</ele>
        <time>2014-05-10T10:11:05Z</time>
      </trkpt>
      <trkpt lat="43.21588" lon="5.46678">
        <ele>396.68</ele>
        <time>2014-05-10T10:11:25Z</time>
      </trkpt>
      <trkpt lat="43.21586" lon="5.46668">
        <ele>398.6</ele>
        <time>2014-05-10T10:11:41Z</time>
      </trkpt>
      <trkpt lat="43.21578" lon="5.46662">
        <ele>401.01</ele>
        <time>2014-05-10T10:11:56Z</time>
      </trkpt>
      <trkpt lat="43.21571" lon="5.46657">
        <ele>402.45</ele>
        <time>2014-05-10T10:12:11Z</time>
      </trkpt>
      <trkpt lat="43.21563" lon="5.46654">
        <ele>403.89</ele>
        <time>2014-05-10T10:12:24Z</time>
      </trkpt>
      <trkpt lat="43.21554" lon="5.46654">
        <ele>406.29</ele>
        <time>2014-05-10T10:12:40Z</time>
      </trkpt>
      <trkpt lat="43.21545" lon="5.46653">
        <ele>407.74</ele>
        <time>2014-05-10T10:12:54Z</time>
      </trkpt>
      <trkpt lat="43.21538" lon="5.46649">
        <ele>408.7</ele>
        <time>2014-05-10T10:13:08Z</time>
      </trkpt>
      <trkpt lat="43.21532" lon="5.46646">
        <ele>410.62</ele>
        <time>2014-05-10T10:13:21Z</time>
      </trkpt>
      <trkpt lat="43.21522" lon="5.46644">
        <ele>411.58</ele>
        <time>2014-05-10T10:13:35Z</time>
      </trkpt>
      <trkpt lat="43.21506" lon="5.46647">
        <ele>412.06</ele>
        <time>2014-05-10T10:13:52Z</time>
      </trkpt>
      <trkpt lat="43.2149" lon="5.46651">
        <ele>411.1</ele>
        <time>2014-05-10T10:14:09Z</time>
      </trkpt>
      <trkpt lat="43.21476" lon="5.46651">
        <ele>410.62</ele>
        <time>2014-05-10T10:14:24Z</time>
      </trkpt>
      <trkpt lat="43.21463" lon="5.46647">
        <ele>411.58</ele>
        <time>2014-05-10T10:14:42Z</time>
      </trkpt>
      <trkpt lat="43.21463" lon="5.46647">
        <ele>411.58</ele>
        <time>2014-05-10T10:14:43Z</time>
      </trkpt>
      <trkpt lat="43.21458" lon="5.46642">
        <ele>413.5</ele>
        <time>2014-05-10T10:14:58Z</time>
      </trkpt>
      <trkpt lat="43.21453" lon="5.46635">
        <ele>415.91</ele>
        <time>2014-05-10T10:15:12Z</time>
      </trkpt>
      <trkpt lat="43.21446" lon="5.46629">
        <ele>417.83</ele>
        <time>2014-05-10T10:15:30Z</time>
      </trkpt>
      <trkpt lat="43.21439" lon="5.46625">
        <ele>420.23</ele>
        <time>2014-05-10T10:15:44Z</time>
      </trkpt>
      <trkpt lat="43.21429" lon="5.4662">
        <ele>421.68</ele>
        <time>2014-05-10T10:16:02Z</time>
      </trkpt>
      <trkpt lat="43.21421" lon="5.46616">
        <ele>424.08</ele>
        <time>2014-05-10T10:16:17Z</time>
      </trkpt>
      <trkpt lat="43.21415" lon="5.46611">
        <ele>425.52</ele>
        <time>2014-05-10T10:16:32Z</time>
      </trkpt>
      <trkpt lat="43.21409" lon="5.46607">
        <ele>427.44</ele>
        <time>2014-05-10T10:16:47Z</time>
      </trkpt>
      <trkpt lat="43.21399" lon="5.46609">
        <ele>428.4</ele>
        <time>2014-05-10T10:17:01Z</time>
      </trkpt>
      <trkpt lat="43.21385" lon="5.46613">
        <ele>428.4</ele>
        <time>2014-05-10T10:17:19Z</time>
      </trkpt>
      <trkpt lat="43.21375" lon="5.46619">
        <ele>426.96</ele>
        <time>2014-05-10T10:17:34Z</time>
      </trkpt>
      <trkpt lat="43.21368" lon="5.46617">
        <ele>426.96</ele>
        <time>2014-05-10T10:17:48Z</time>
      </trkpt>
      <trkpt lat="43.21357" lon="5.46615">
        <ele>425.04</ele>
        <time>2014-05-10T10:18:05Z</time>
      </trkpt>
      <trkpt lat="43.21349" lon="5.46607">
        <ele>425.04</ele>
        <time>2014-05-10T10:18:18Z</time>
      </trkpt>
      <trkpt lat="43.21341" lon="5.46597">
        <ele>425.04</ele>
        <time>2014-05-10T10:18:35Z</time>
      </trkpt>
      <trkpt lat="43.21339" lon="5.46597">
        <ele>425.04</ele>
        <time>2014-05-10T10:19:00Z</time>
      </trkpt>
      <trkpt lat="43.21338" lon="5.46597">
        <ele>425.04</ele>
        <time>2014-05-10T10:19:30Z</time>
      </trkpt>
      <trkpt lat="43.2134" lon="5.46598">
        <ele>426.48</ele>
        <time>2014-05-10T10:20:07Z</time>
      </trkpt>
      <trkpt lat="43.21335" lon="5.466">
        <ele>424.56</ele>
        <time>2014-05-10T10:20:32Z</time>
      </trkpt>
      <trkpt lat="43.21326" lon="5.46602">
        <ele>423.6</ele>
        <time>2014-05-10T10:20:48Z</time>
      </trkpt>
      <trkpt lat="43.21327" lon="5.46596">
        <ele>423.6</ele>
        <time>2014-05-10T10:21:01Z</time>
      </trkpt>
      <trkpt lat="43.2133" lon="5.46592">
        <ele>421.19</ele>
        <time>2014-05-10T10:21:14Z</time>
      </trkpt>
      <trkpt lat="43.2133" lon="5.46592">
        <ele>420.23</ele>
        <time>2014-05-10T10:21:16Z</time>
      </trkpt>
      <trkpt lat="43.2133" lon="5.46592">
        <ele>421.68</ele>
        <time>2014-05-10T10:21:18Z</time>
      </trkpt>
      <trkpt lat="43.2133" lon="5.4659">
        <ele>420.71</ele>
        <time>2014-05-10T10:21:33Z</time>
      </trkpt>
      <trkpt lat="43.21329" lon="5.4659">
        <ele>420.71</ele>
        <time>2014-05-10T10:22:13Z</time>
      </trkpt>
      <trkpt lat="43.21327" lon="5.4659">
        <ele>420.71</ele>
        <time>2014-05-10T10:22:50Z</time>
      </trkpt>
      <trkpt lat="43.21329" lon="5.46592">
        <ele>420.71</ele>
        <time>2014-05-10T10:23:22Z</time>
      </trkpt>
      <trkpt lat="43.21326" lon="5.46591">
        <ele>420.71</ele>
        <time>2014-05-10T10:23:49Z</time>
      </trkpt>
      <trkpt lat="43.21327" lon="5.46592">
        <ele>420.71</ele>
        <time>2014-05-10T10:24:21Z</time>
      </trkpt>
      <trkpt lat="43.21329" lon="5.46597">
        <ele>422.16</ele>
        <time>2014-05-10T10:24:37Z</time>
      </trkpt>
      <trkpt lat="43.21329" lon="5.466">
        <ele>423.12</ele>
        <time>2014-05-10T10:24:41Z</time>
      </trkpt>
      <trkpt lat="43.21332" lon="5.466">
        <ele>423.6</ele>
        <time>2014-05-10T10:24:56Z</time>
      </trkpt>
      <trkpt lat="43.21332" lon="5.46599">
        <ele>422.64</ele>
        <time>2014-05-10T10:25:07Z</time>
      </trkpt>
      <trkpt lat="43.21332" lon="5.46599">
        <ele>422.64</ele>
        <time>2014-05-10T10:25:08Z</time>
      </trkpt>
      <trkpt lat="43.21331" lon="5.46598">
        <ele>422.16</ele>
        <time>2014-05-10T10:25:28Z</time>
      </trkpt>
      <trkpt lat="43.21331" lon="5.46598">
        <ele>423.12</ele>
        <time>2014-05-10T10:26:04Z</time>
      </trkpt>
      <trkpt lat="43.21332" lon="5.46599">
        <ele>423.12</ele>
        <time>2014-05-10T10:26:31Z</time>
      </trkpt>
      <trkpt lat="43.21332" lon="5.46599">
        <ele>423.12</ele>
        <time>2014-05-10T10:27:17Z</time>
      </trkpt>
      <trkpt lat="43.21332" lon="5.46599">
        <ele>423.12</ele>
        <time>2014-05-10T10:27:48Z</time>
      </trkpt>
      <trkpt lat="43.21332" lon="5.46598">
        <ele>423.12</ele>
        <time>2014-05-10T10:28:17Z</time>
      </trkpt>
      <trkpt lat="43.21332" lon="5.46597">
        <ele>424.08</ele>
        <time>2014-05-10T10:28:27Z</time>
      </trkpt>
      <trkpt lat="43.21331" lon="5.46592">
        <ele>421.19</ele>
        <time>2014-05-10T10:28:33Z</time>
      </trkpt>
      <trkpt lat="43.21335" lon="5.46579">
        <ele>418.79</ele>
        <time>2014-05-10T10:28:46Z</time>
      </trkpt>
      <trkpt lat="43.21334" lon="5.46575">
        <ele>416.39</ele>
        <time>2014-05-10T10:29:01Z</time>
      </trkpt>
      <trkpt lat="43.21338" lon="5.46567">
        <ele>414.47</ele>
        <time>2014-05-10T10:29:12Z</time>
      </trkpt>
      <trkpt lat="43.21343" lon="5.46559">
        <ele>413.5</ele>
        <time>2014-05-10T10:29:27Z</time>
      </trkpt>
      <trkpt lat="43.21348" lon="5.46548">
        <ele>411.1</ele>
        <time>2014-05-10T10:29:41Z</time>
      </trkpt>
      <trkpt lat="43.21352" lon="5.46534">
        <ele>409.18</ele>
        <time>2014-05-10T10:29:58Z</time>
      </trkpt>
      <trkpt lat="43.21356" lon="5.4652">
        <ele>408.22</ele>
        <time>2014-05-10T10:30:14Z</time>
      </trkpt>
      <trkpt lat="43.21355" lon="5.46517">
        <ele>407.26</ele>
        <time>2014-05-10T10:30:35Z</time>
      </trkpt>
      <trkpt lat="43.21354" lon="5.46516">
        <ele>407.26</ele>
        <time>2014-05-10T10:31:06Z</time>
      </trkpt>
      <trkpt lat="43.21354" lon="5.46519">
        <ele>406.77</ele>
        <time>2014-05-10T10:31:40Z</time>
      </trkpt>
      <trkpt lat="43.21354" lon="5.46518">
        <ele>406.77</ele>
        <time>2014-05-10T10:32:10Z</time>
      </trkpt>
      <trkpt lat="43.21353" lon="5.46517">
        <ele>406.77</ele>
        <time>2014-05-10T10:32:44Z</time>
      </trkpt>
      <trkpt lat="43.21355" lon="5.46517">
        <ele>406.77</ele>
        <time>2014-05-10T10:33:11Z</time>
      </trkpt>
      <trkpt lat="43.21355" lon="5.46516">
        <ele>406.77</ele>
        <time>2014-05-10T10:33:39Z</time>
      </trkpt>
      <trkpt lat="43.21354" lon="5.46518">
        <ele>406.77</ele>
        <time>2014-05-10T10:34:03Z</time>
      </trkpt>
      <trkpt lat="43.21355" lon="5.46518">
        <ele>407.74</ele>
        <time>2014-05-10T10:34:38Z</time>
      </trkpt>
      <trkpt lat="43.21356" lon="5.46517">
        <ele>408.22</ele>
        <time>2014-05-10T10:35:16Z</time>
      </trkpt>
      <trkpt lat="43.21355" lon="5.46518">
        <ele>408.22</ele>
        <time>2014-05-10T10:35:53Z</time>
      </trkpt>
      <trkpt lat="43.21354" lon="5.46519">
        <ele>408.22</ele>
        <time>2014-05-10T10:36:32Z</time>
      </trkpt>
      <trkpt lat="43.21354" lon="5.46517">
        <ele>408.22</ele>
        <time>2014-05-10T10:36:52Z</time>
      </trkpt>
      <trkpt lat="43.21353" lon="5.46513">
        <ele>401.49</ele>
        <time>2014-05-10T10:37:30Z</time>
      </trkpt>
      <trkpt lat="43.21353" lon="5.46514">
        <ele>401.49</ele>
        <time>2014-05-10T10:37:31Z</time>
      </trkpt>
      <trkpt lat="43.21353" lon="5.46514">
        <ele>421.19</ele>
        <time>2014-05-10T10:37:32Z</time>
      </trkpt>
      <trkpt lat="43.21353" lon="5.46514">
        <ele>410.14</ele>
        <time>2014-05-10T10:37:33Z</time>
      </trkpt>
      <trkpt lat="43.21353" lon="5.46515">
        <ele>407.74</ele>
        <time>2014-05-10T10:37:35Z</time>
      </trkpt>
      <trkpt lat="43.21353" lon="5.46515">
        <ele>401.97</ele>
        <time>2014-05-10T10:37:52Z</time>
      </trkpt>
      <trkpt lat="43.21354" lon="5.46515">
        <ele>408.22</ele>
        <time>2014-05-10T10:37:53Z</time>
      </trkpt>
      <trkpt lat="43.21354" lon="5.46516">
        <ele>406.77</ele>
        <time>2014-05-10T10:38:03Z</time>
      </trkpt>
      <trkpt lat="43.21354" lon="5.46517">
        <ele>408.22</ele>
        <time>2014-05-10T10:38:06Z</time>
      </trkpt>
      <trkpt lat="43.21353" lon="5.46518">
        <ele>405.81</ele>
        <time>2014-05-10T10:38:22Z</time>
      </trkpt>
      <trkpt lat="43.21353" lon="5.46518">
        <ele>411.1</ele>
        <time>2014-05-10T10:38:23Z</time>
      </trkpt>
      <trkpt lat="43.21353" lon="5.46518">
        <ele>407.26</ele>
        <time>2014-05-10T10:38:24Z</time>
      </trkpt>
      <trkpt lat="43.21353" lon="5.46516">
        <ele>406.77</ele>
        <time>2014-05-10T10:38:59Z</time>
      </trkpt>
      <trkpt lat="43.21352" lon="5.46518">
        <ele>406.77</ele>
        <time>2014-05-10T10:39:51Z</time>
      </trkpt>
      <trkpt lat="43.21352" lon="5.46519">
        <ele>407.26</ele>
        <time>2014-05-10T10:40:03Z</time>
      </trkpt>
      <trkpt lat="43.21353" lon="5.46517">
        <ele>406.29</ele>
        <time>2014-05-10T10:40:28Z</time>
      </trkpt>
      <trkpt lat="43.21353" lon="5.46516">
        <ele>408.22</ele>
        <time>2014-05-10T10:40:46Z</time>
      </trkpt>
      <trkpt lat="43.21353" lon="5.46516">
        <ele>406.77</ele>
        <time>2014-05-10T10:40:48Z</time>
      </trkpt>
      <trkpt lat="43.21354" lon="5.46516">
        <ele>407.26</ele>
        <time>2014-05-10T10:41:00Z</time>
      </trkpt>
      <trkpt lat="43.21354" lon="5.46516">
        <ele>407.26</ele>
        <time>2014-05-10T10:41:47Z</time>
      </trkpt>
      <trkpt lat="43.21353" lon="5.46516">
        <ele>402.93</ele>
        <time>2014-05-10T10:42:05Z</time>
      </trkpt>
      <trkpt lat="43.21353" lon="5.46516">
        <ele>410.14</ele>
        <time>2014-05-10T10:42:06Z</time>
      </trkpt>
      <trkpt lat="43.21353" lon="5.46516">
        <ele>405.81</ele>
        <time>2014-05-10T10:42:07Z</time>
      </trkpt>
      <trkpt lat="43.21353" lon="5.46517">
        <ele>409.18</ele>
        <time>2014-05-10T10:42:14Z</time>
      </trkpt>
      <trkpt lat="43.21353" lon="5.46517">
        <ele>406.29</ele>
        <time>2014-05-10T10:42:16Z</time>
      </trkpt>
      <trkpt lat="43.21352" lon="5.46517">
        <ele>409.66</ele>
        <time>2014-05-10T10:42:49Z</time>
      </trkpt>
      <trkpt lat="43.21352" lon="5.46518">
        <ele>406.29</ele>
        <time>2014-05-10T10:42:51Z</time>
      </trkpt>
      <trkpt lat="43.21353" lon="5.46518">
        <ele>406.29</ele>
        <time>2014-05-10T10:43:44Z</time>
      </trkpt>
      <trkpt lat="43.21353" lon="5.46517">
        <ele>406.77</ele>
        <time>2014-05-10T10:44:30Z</time>
      </trkpt>
      <trkpt lat="43.21354" lon="5.46516">
        <ele>406.77</ele>
        <time>2014-05-10T10:45:05Z</time>
      </trkpt>
      <trkpt lat="43.21352" lon="5.46517">
        <ele>407.26</ele>
        <time>2014-05-10T10:45:50Z</time>
      </trkpt>
      <trkpt lat="43.21352" lon="5.46516">
        <ele>408.22</ele>
        <time>2014-05-10T10:46:07Z</time>
      </trkpt>
      <trkpt lat="43.21352" lon="5.46516">
        <ele>404.85</ele>
        <time>2014-05-10T10:46:08Z</time>
      </trkpt>
      <trkpt lat="43.21352" lon="5.46516">
        <ele>406.29</ele>
        <time>2014-05-10T10:46:09Z</time>
      </trkpt>
      <trkpt lat="43.21352" lon="5.46515">
        <ele>407.26</ele>
        <time>2014-05-10T10:46:11Z</time>
      </trkpt>
      <trkpt lat="43.21353" lon="5.46517">
        <ele>407.26</ele>
        <time>2014-05-10T10:46:56Z</time>
      </trkpt>
      <trkpt lat="43.21352" lon="5.46518">
        <ele>407.26</ele>
        <time>2014-05-10T10:47:44Z</time>
      </trkpt>
      <trkpt lat="43.21353" lon="5.46517">
        <ele>407.26</ele>
        <time>2014-05-10T10:48:36Z</time>
      </trkpt>
      <trkpt lat="43.21352" lon="5.46517">
        <ele>407.26</ele>
        <time>2014-05-10T10:49:25Z</time>
      </trkpt>
      <trkpt lat="43.21352" lon="5.46516">
        <ele>403.89</ele>
        <time>2014-05-10T10:50:05Z</time>
      </trkpt>
      <trkpt lat="43.21352" lon="5.46516">
        <ele>407.74</ele>
        <time>2014-05-10T10:50:06Z</time>
      </trkpt>
      <trkpt lat="43.21354" lon="5.46516">
        <ele>407.74</ele>
        <time>2014-05-10T10:50:45Z</time>
      </trkpt>
      <trkpt lat="43.21353" lon="5.46516">
        <ele>407.74</ele>
        <time>2014-05-10T10:51:31Z</time>
      </trkpt>
      <trkpt lat="43.21354" lon="5.46516">
        <ele>407.74</ele>
        <time>2014-05-10T10:52:12Z</time>
      </trkpt>
      <trkpt lat="43.21353" lon="5.46517">
        <ele>407.74</ele>
        <time>2014-05-10T10:52:54Z</time>
      </trkpt>
      <trkpt lat="43.21353" lon="5.46515">
        <ele>407.74</ele>
        <time>2014-05-10T10:53:34Z</time>
      </trkpt>
      <trkpt lat="43.21354" lon="5.46516">
        <ele>407.74</ele>
        <time>2014-05-10T10:54:12Z</time>
      </trkpt>
      <trkpt lat="43.21355" lon="5.46515">
        <ele>408.22</ele>
        <time>2014-05-10T10:54:52Z</time>
      </trkpt>
      <trkpt lat="43.21355" lon="5.46515">
        <ele>404.37</ele>
        <time>2014-05-10T10:54:57Z</time>
      </trkpt>
      <trkpt lat="43.21355" lon="5.46515">
        <ele>408.22</ele>
        <time>2014-05-10T10:54:58Z</time>
      </trkpt>
      <trkpt lat="43.21355" lon="5.46516">
        <ele>408.22</ele>
        <time>2014-05-10T10:55:29Z</time>
      </trkpt>
      <trkpt lat="43.21354" lon="5.46515">
        <ele>408.22</ele>
        <time>2014-05-10T10:56:02Z</time>
      </trkpt>
      <trkpt lat="43.21355" lon="5.46516">
        <ele>408.22</ele>
        <time>2014-05-10T10:56:35Z</time>
      </trkpt>
      <trkpt lat="43.21355" lon="5.46516">
        <ele>408.22</ele>
        <time>2014-05-10T10:56:36Z</time>
      </trkpt>
      <trkpt lat="43.21354" lon="5.46516">
        <ele>413.02</ele>
        <time>2014-05-10T10:56:43Z</time>
      </trkpt>
      <trkpt lat="43.21354" lon="5.46516">
        <ele>409.18</ele>
        <time>2014-05-10T10:56:44Z</time>
      </trkpt>
      <trkpt lat="43.21354" lon="5.46514">
        <ele>408.22</ele>
        <time>2014-05-10T10:57:22Z</time>
      </trkpt>
      <trkpt lat="43.21355" lon="5.46514">
        <ele>408.22</ele>
        <time>2014-05-10T10:57:56Z</time>
      </trkpt>
      <trkpt lat="43.21355" lon="5.46514">
        <ele>408.22</ele>
        <time>2014-05-10T10:58:33Z</time>
      </trkpt>
      <trkpt lat="43.21355" lon="5.46515">
        <ele>408.22</ele>
        <time>2014-05-10T10:59:03Z</time>
      </trkpt>
      <trkpt lat="43.21355" lon="5.46515">
        <ele>409.66</ele>
        <time>2014-05-10T10:59:06Z</time>
      </trkpt>
      <trkpt lat="43.21355" lon="5.46515">
        <ele>408.7</ele>
        <time>2014-05-10T10:59:09Z</time>
      </trkpt>
      <trkpt lat="43.21355" lon="5.46514">
        <ele>408.7</ele>
        <time>2014-05-10T10:59:39Z</time>
      </trkpt>
      <trkpt lat="43.21355" lon="5.46514">
        <ele>410.14</ele>
        <time>2014-05-10T10:59:42Z</time>
      </trkpt>
      <trkpt lat="43.21354" lon="5.46513">
        <ele>410.14</ele>
        <time>2014-05-10T11:00:15Z</time>
      </trkpt>
      <trkpt lat="43.21355" lon="5.46514">
        <ele>410.14</ele>
        <time>2014-05-10T11:00:51Z</time>
      </trkpt>
      <trkpt lat="43.21354" lon="5.46513">
        <ele>408.7</ele>
        <time>2014-05-10T11:01:24Z</time>
      </trkpt>
      <trkpt lat="43.21354" lon="5.46514">
        <ele>408.7</ele>
        <time>2014-05-10T11:01:25Z</time>
      </trkpt>
      <trkpt lat="43.21354" lon="5.46514">
        <ele>410.62</ele>
        <time>2014-05-10T11:01:28Z</time>
      </trkpt>
      <trkpt lat="43.21354" lon="5.46514">
        <ele>408.7</ele>
        <time>2014-05-10T11:01:30Z</time>
      </trkpt>
      <trkpt lat="43.21354" lon="5.46514">
        <ele>409.18</ele>
        <time>2014-05-10T11:01:41Z</time>
      </trkpt>
      <trkpt lat="43.21356" lon="5.46514">
        <ele>407.26</ele>
        <time>2014-05-10T11:02:11Z</time>
      </trkpt>
      <trkpt lat="43.21356" lon="5.46514">
        <ele>411.1</ele>
        <time>2014-05-10T11:02:19Z</time>
      </trkpt>
      <trkpt lat="43.21356" lon="5.46514">
        <ele>408.22</ele>
        <time>2014-05-10T11:02:20Z</time>
      </trkpt>
      <trkpt lat="43.21356" lon="5.46514">
        <ele>408.7</ele>
        <time>2014-05-10T11:02:40Z</time>
      </trkpt>
      <trkpt lat="43.21357" lon="5.46514">
        <ele>410.62</ele>
        <time>2014-05-10T11:02:52Z</time>
      </trkpt>
      <trkpt lat="43.21357" lon="5.46514">
        <ele>409.66</ele>
        <time>2014-05-10T11:02:55Z</time>
      </trkpt>
      <trkpt lat="43.21357" lon="5.46514">
        <ele>408.22</ele>
        <time>2014-05-10T11:03:16Z</time>
      </trkpt>
      <trkpt lat="43.21357" lon="5.46514">
        <ele>411.1</ele>
        <time>2014-05-10T11:03:18Z</time>
      </trkpt>
      <trkpt lat="43.21358" lon="5.46514">
        <ele>409.18</ele>
        <time>2014-05-10T11:03:20Z</time>
      </trkpt>
      <trkpt lat="43.21357" lon="5.46515">
        <ele>409.66</ele>
        <time>2014-05-10T11:03:29Z</time>
      </trkpt>
      <trkpt lat="43.21357" lon="5.46515">
        <ele>409.18</ele>
        <time>2014-05-10T11:03:42Z</time>
      </trkpt>
      <trkpt lat="43.21357" lon="5.46515">
        <ele>410.14</ele>
        <time>2014-05-10T11:03:44Z</time>
      </trkpt>
      <trkpt lat="43.21355" lon="5.46515">
        <ele>408.7</ele>
        <time>2014-05-10T11:04:08Z</time>
      </trkpt>
      <trkpt lat="43.21355" lon="5.46515">
        <ele>411.58</ele>
        <time>2014-05-10T11:04:12Z</time>
      </trkpt>
      <trkpt lat="43.21355" lon="5.46515">
        <ele>415.91</ele>
        <time>2014-05-10T11:04:13Z</time>
      </trkpt>
      <trkpt lat="43.21355" lon="5.46515">
        <ele>410.14</ele>
        <time>2014-05-10T11:04:14Z</time>
      </trkpt>
      <trkpt lat="43.21356" lon="5.46515">
        <ele>409.18</ele>
        <time>2014-05-10T11:04:16Z</time>
      </trkpt>
      <trkpt lat="43.21355" lon="5.46515">
        <ele>411.1</ele>
        <time>2014-05-10T11:04:32Z</time>
      </trkpt>
      <trkpt lat="43.21355" lon="5.46514">
        <ele>409.66</ele>
        <time>2014-05-10T11:04:34Z</time>
      </trkpt>
      <trkpt lat="43.21354" lon="5.46514">
        <ele>409.66</ele>
        <time>2014-05-10T11:05:07Z</time>
      </trkpt>
      <trkpt lat="43.21354" lon="5.46514">
        <ele>411.58</ele>
        <time>2014-05-10T11:05:17Z</time>
      </trkpt>
      <trkpt lat="43.21354" lon="5.46514">
        <ele>409.18</ele>
        <time>2014-05-10T11:05:20Z</time>
      </trkpt>
      <trkpt lat="43.21354" lon="5.46514">
        <ele>410.14</ele>
        <time>2014-05-10T11:05:24Z</time>
      </trkpt>
      <trkpt lat="43.21353" lon="5.46514">
        <ele>405.81</ele>
        <time>2014-05-10T11:05:47Z</time>
      </trkpt>
      <trkpt lat="43.21353" lon="5.46514">
        <ele>413.98</ele>
        <time>2014-05-10T11:05:48Z</time>
      </trkpt>
      <trkpt lat="43.21353" lon="5.46514">
        <ele>410.14</ele>
        <time>2014-05-10T11:05:49Z</time>
      </trkpt>
      <trkpt lat="43.21352" lon="5.46514">
        <ele>409.66</ele>
        <time>2014-05-10T11:06:31Z</time>
      </trkpt>
      <trkpt lat="43.21352" lon="5.46513">
        <ele>409.66</ele>
        <time>2014-05-10T11:07:06Z</time>
      </trkpt>
      <trkpt lat="43.21353" lon="5.46513">
        <ele>409.66</ele>
        <time>2014-05-10T11:07:45Z</time>
      </trkpt>
      <trkpt lat="43.21353" lon="5.46515">
        <ele>409.66</ele>
        <time>2014-05-10T11:08:14Z</time>
      </trkpt>
      <trkpt lat="43.21353" lon="5.46516">
        <ele>409.66</ele>
        <time>2014-05-10T11:08:45Z</time>
      </trkpt>
      <trkpt lat="43.21354" lon="5.46516">
        <ele>409.66</ele>
        <time>2014-05-10T11:09:14Z</time>
      </trkpt>
      <trkpt lat="43.21354" lon="5.46517">
        <ele>409.66</ele>
        <time>2014-05-10T11:09:36Z</time>
      </trkpt>
      <trkpt lat="43.21354" lon="5.46517">
        <ele>410.62</ele>
        <time>2014-05-10T11:10:10Z</time>
      </trkpt>
      <trkpt lat="43.21354" lon="5.46516">
        <ele>410.62</ele>
        <time>2014-05-10T11:10:35Z</time>
      </trkpt>
      <trkpt lat="43.21353" lon="5.46515">
        <ele>410.62</ele>
        <time>2014-05-10T11:11:23Z</time>
      </trkpt>
      <trkpt lat="43.21353" lon="5.46514">
        <ele>409.66</ele>
        <time>2014-05-10T11:12:01Z</time>
      </trkpt>
      <trkpt lat="43.21352" lon="5.46515">
        <ele>409.66</ele>
        <time>2014-05-10T11:12:45Z</time>
      </trkpt>
      <trkpt lat="43.21353" lon="5.46514">
        <ele>409.66</ele>
        <time>2014-05-10T11:13:28Z</time>
      </trkpt>
      <trkpt lat="43.21353" lon="5.46515">
        <ele>409.66</ele>
        <time>2014-05-10T11:14:09Z</time>
      </trkpt>
      <trkpt lat="43.21354" lon="5.46514">
        <ele>409.66</ele>
        <time>2014-05-10T11:14:41Z</time>
      </trkpt>
      <trkpt lat="43.21354" lon="5.46514">
        <ele>409.66</ele>
        <time>2014-05-10T11:15:05Z</time>
      </trkpt>
      <trkpt lat="43.21354" lon="5.46515">
        <ele>409.66</ele>
        <time>2014-05-10T11:15:33Z</time>
      </trkpt>
      <trkpt lat="43.21355" lon="5.46515">
        <ele>409.66</ele>
        <time>2014-05-10T11:15:57Z</time>
      </trkpt>
      <trkpt lat="43.21356" lon="5.46517">
        <ele>409.66</ele>
        <time>2014-05-10T11:16:25Z</time>
      </trkpt>
      <trkpt lat="43.21354" lon="5.46516">
        <ele>409.66</ele>
        <time>2014-05-10T11:16:54Z</time>
      </trkpt>
      <trkpt lat="43.21355" lon="5.46516">
        <ele>409.66</ele>
        <time>2014-05-10T11:17:21Z</time>
      </trkpt>
      <trkpt lat="43.21355" lon="5.46515">
        <ele>409.18</ele>
        <time>2014-05-10T11:17:56Z</time>
      </trkpt>
      <trkpt lat="43.21354" lon="5.46514">
        <ele>409.18</ele>
        <time>2014-05-10T11:18:25Z</time>
      </trkpt>
      <trkpt lat="43.21355" lon="5.46515">
        <ele>409.66</ele>
        <time>2014-05-10T11:18:52Z</time>
      </trkpt>
      <trkpt lat="43.21354" lon="5.46515">
        <ele>409.66</ele>
        <time>2014-05-10T11:19:29Z</time>
      </trkpt>
      <trkpt lat="43.21356" lon="5.46515">
        <ele>409.66</ele>
        <time>2014-05-10T11:20:05Z</time>
      </trkpt>
      <trkpt lat="43.21354" lon="5.46515">
        <ele>409.66</ele>
        <time>2014-05-10T11:20:36Z</time>
      </trkpt>
      <trkpt lat="43.21354" lon="5.46516">
        <ele>409.66</ele>
        <time>2014-05-10T11:21:05Z</time>
      </trkpt>
      <trkpt lat="43.21353" lon="5.46516">
        <ele>411.1</ele>
        <time>2014-05-10T11:21:36Z</time>
      </trkpt>
      <trkpt lat="43.21354" lon="5.46516">
        <ele>411.1</ele>
        <time>2014-05-10T11:22:06Z</time>
      </trkpt>
      <trkpt lat="43.21354" lon="5.46515">
        <ele>411.1</ele>
        <time>2014-05-10T11:22:39Z</time>
      </trkpt>
      <trkpt lat="43.21353" lon="5.46516">
        <ele>412.06</ele>
        <time>2014-05-10T11:23:12Z</time>
      </trkpt>
      <trkpt lat="43.21355" lon="5.46516">
        <ele>412.54</ele>
        <time>2014-05-10T11:23:31Z</time>
      </trkpt>
      <trkpt lat="43.21356" lon="5.46517">
        <ele>412.54</ele>
        <time>2014-05-10T11:23:50Z</time>
      </trkpt>
      <trkpt lat="43.21359" lon="5.46517">
        <ele>412.54</ele>
        <time>2014-05-10T11:24:13Z</time>
      </trkpt>
      <trkpt lat="43.21356" lon="5.4652">
        <ele>413.02</ele>
        <time>2014-05-10T11:24:33Z</time>
      </trkpt>
      <trkpt lat="43.2136" lon="5.4652">
        <ele>413.02</ele>
        <time>2014-05-10T11:24:58Z</time>
      </trkpt>
      <trkpt lat="43.21359" lon="5.46521">
        <ele>413.02</ele>
        <time>2014-05-10T11:25:26Z</time>
      </trkpt>
      <trkpt lat="43.21358" lon="5.46522">
        <ele>413.02</ele>
        <time>2014-05-10T11:25:45Z</time>
      </trkpt>
      <trkpt lat="43.21362" lon="5.46525">
        <ele>413.5</ele>
        <time>2014-05-10T11:26:02Z</time>
      </trkpt>
      <trkpt lat="43.21369" lon="5.46529">
        <ele>411.58</ele>
        <time>2014-05-10T11:26:20Z</time>
      </trkpt>
      <trkpt lat="43.21372" lon="5.4653">
        <ele>411.1</ele>
        <time>2014-05-10T11:26:35Z</time>
      </trkpt>
      <trkpt lat="43.21376" lon="5.46528">
        <ele>409.66</ele>
        <time>2014-05-10T11:26:49Z</time>
      </trkpt>
      <trkpt lat="43.21379" lon="5.46527">
        <ele>408.22</ele>
        <time>2014-05-10T11:27:04Z</time>
      </trkpt>
      <trkpt lat="43.21379" lon="5.46525">
        <ele>406.29</ele>
        <time>2014-05-10T11:27:20Z</time>
      </trkpt>
      <trkpt lat="43.21383" lon="5.4652">
        <ele>404.37</ele>
        <time>2014-05-10T11:27:35Z</time>
      </trkpt>
      <trkpt lat="43.21391" lon="5.46516">
        <ele>401.49</ele>
        <time>2014-05-10T11:27:50Z</time>
      </trkpt>
      <trkpt lat="43.214" lon="5.46516">
        <ele>399.08</ele>
        <time>2014-05-10T11:28:08Z</time>
      </trkpt>
      <trkpt lat="43.2141" lon="5.46514">
        <ele>396.2</ele>
        <time>2014-05-10T11:28:24Z</time>
      </trkpt>
      <trkpt lat="43.21415" lon="5.46515">
        <ele>395.72</ele>
        <time>2014-05-10T11:28:39Z</time>
      </trkpt>
      <trkpt lat="43.21422" lon="5.46513">
        <ele>394.28</ele>
        <time>2014-05-10T11:28:56Z</time>
      </trkpt>
      <trkpt lat="43.21428" lon="5.46511">
        <ele>393.32</ele>
        <time>2014-05-10T11:29:15Z</time>
      </trkpt>
      <trkpt lat="43.21428" lon="5.4651">
        <ele>392.36</ele>
        <time>2014-05-10T11:29:30Z</time>
      </trkpt>
      <trkpt lat="43.21427" lon="5.4651">
        <ele>392.36</ele>
        <time>2014-05-10T11:29:58Z</time>
      </trkpt>
      <trkpt lat="43.21428" lon="5.46507">
        <ele>390.43</ele>
        <time>2014-05-10T11:30:12Z</time>
      </trkpt>
      <trkpt lat="43.21429" lon="5.46505">
        <ele>389.95</ele>
        <time>2014-05-10T11:30:29Z</time>
      </trkpt>
      <trkpt lat="43.21432" lon="5.46504">
        <ele>389.47</ele>
        <time>2014-05-10T11:30:49Z</time>
      </trkpt>
      <trkpt lat="43.21433" lon="5.46501">
        <ele>387.55</ele>
        <time>2014-05-10T11:31:05Z</time>
      </trkpt>
      <trkpt lat="43.21432" lon="5.465">
        <ele>386.11</ele>
        <time>2014-05-10T11:31:24Z</time>
      </trkpt>
      <trkpt lat="43.21436" lon="5.46494">
        <ele>382.74</ele>
        <time>2014-05-10T11:31:40Z</time>
      </trkpt>
      <trkpt lat="43.21444" lon="5.46487">
        <ele>379.86</ele>
        <time>2014-05-10T11:31:56Z</time>
      </trkpt>
      <trkpt lat="43.21451" lon="5.46483">
        <ele>379.86</ele>
        <time>2014-05-10T11:32:14Z</time>
      </trkpt>
      <trkpt lat="43.21453" lon="5.46482">
        <ele>379.38</ele>
        <time>2014-05-10T11:32:17Z</time>
      </trkpt>
      <trkpt lat="43.21455" lon="5.46482">
        <ele>379.38</ele>
        <time>2014-05-10T11:32:19Z</time>
      </trkpt>
      <trkpt lat="43.21466" lon="5.4647">
        <ele>377.94</ele>
        <time>2014-05-10T11:32:33Z</time>
      </trkpt>
      <trkpt lat="43.21467" lon="5.46469">
        <ele>377.45</ele>
        <time>2014-05-10T11:32:34Z</time>
      </trkpt>
      <trkpt lat="43.21471" lon="5.46462">
        <ele>376.01</ele>
        <time>2014-05-10T11:32:42Z</time>
      </trkpt>
      <trkpt lat="43.21472" lon="5.46452">
        <ele>375.05</ele>
        <time>2014-05-10T11:32:50Z</time>
      </trkpt>
      <trkpt lat="43.21464" lon="5.46439">
        <ele>373.61</ele>
        <time>2014-05-10T11:33:04Z</time>
      </trkpt>
      <trkpt lat="43.21457" lon="5.46433">
        <ele>371.69</ele>
        <time>2014-05-10T11:33:17Z</time>
      </trkpt>
      <trkpt lat="43.21452" lon="5.4642">
        <ele>370.24</ele>
        <time>2014-05-10T11:33:30Z</time>
      </trkpt>
      <trkpt lat="43.21454" lon="5.46406">
        <ele>369.76</ele>
        <time>2014-05-10T11:33:45Z</time>
      </trkpt>
      <trkpt lat="43.21458" lon="5.46395">
        <ele>369.76</ele>
        <time>2014-05-10T11:34:01Z</time>
      </trkpt>
      <trkpt lat="43.21463" lon="5.46376">
        <ele>366.88</ele>
        <time>2014-05-10T11:34:17Z</time>
      </trkpt>
      <trkpt lat="43.21472" lon="5.4636">
        <ele>364.48</ele>
        <time>2014-05-10T11:34:33Z</time>
      </trkpt>
      <trkpt lat="43.21476" lon="5.46342">
        <ele>364</ele>
        <time>2014-05-10T11:34:46Z</time>
      </trkpt>
      <trkpt lat="43.21472" lon="5.46335">
        <ele>364</ele>
        <time>2014-05-10T11:35:03Z</time>
      </trkpt>
      <trkpt lat="43.21464" lon="5.46326">
        <ele>363.04</ele>
        <time>2014-05-10T11:35:17Z</time>
      </trkpt>
      <trkpt lat="43.21452" lon="5.46315">
        <ele>360.63</ele>
        <time>2014-05-10T11:35:35Z</time>
      </trkpt>
      <trkpt lat="43.21446" lon="5.463">
        <ele>360.15</ele>
        <time>2014-05-10T11:35:50Z</time>
      </trkpt>
      <trkpt lat="43.21444" lon="5.46286">
        <ele>359.19</ele>
        <time>2014-05-10T11:36:03Z</time>
      </trkpt>
      <trkpt lat="43.21443" lon="5.46272">
        <ele>357.75</ele>
        <time>2014-05-10T11:36:17Z</time>
      </trkpt>
      <trkpt lat="43.21444" lon="5.46254">
        <ele>356.79</ele>
        <time>2014-05-10T11:36:34Z</time>
      </trkpt>
      <trkpt lat="43.21444" lon="5.46244">
        <ele>355.83</ele>
        <time>2014-05-10T11:36:49Z</time>
      </trkpt>
      <trkpt lat="43.2145" lon="5.4622">
        <ele>355.34</ele>
        <time>2014-05-10T11:37:05Z</time>
      </trkpt>
      <trkpt lat="43.21454" lon="5.46201">
        <ele>355.34</ele>
        <time>2014-05-10T11:37:19Z</time>
      </trkpt>
      <trkpt lat="43.21465" lon="5.46195">
        <ele>356.79</ele>
        <time>2014-05-10T11:37:35Z</time>
      </trkpt>
      <trkpt lat="43.21469" lon="5.46194">
        <ele>356.79</ele>
        <time>2014-05-10T11:37:39Z</time>
      </trkpt>
      <trkpt lat="43.21481" lon="5.46188">
        <ele>356.79</ele>
        <time>2014-05-10T11:37:54Z</time>
      </trkpt>
      <trkpt lat="43.21493" lon="5.46184">
        <ele>357.27</ele>
        <time>2014-05-10T11:38:10Z</time>
      </trkpt>
      <trkpt lat="43.21503" lon="5.46181">
        <ele>357.75</ele>
        <time>2014-05-10T11:38:25Z</time>
      </trkpt>
      <trkpt lat="43.21513" lon="5.46176">
        <ele>358.23</ele>
        <time>2014-05-10T11:38:42Z</time>
      </trkpt>
      <trkpt lat="43.2152" lon="5.4617">
        <ele>358.23</ele>
        <time>2014-05-10T11:38:55Z</time>
      </trkpt>
      <trkpt lat="43.21526" lon="5.46159">
        <ele>355.34</ele>
        <time>2014-05-10T11:39:10Z</time>
      </trkpt>
      <trkpt lat="43.21532" lon="5.46144">
        <ele>354.86</ele>
        <time>2014-05-10T11:39:24Z</time>
      </trkpt>
      <trkpt lat="43.21538" lon="5.46122">
        <ele>354.38</ele>
        <time>2014-05-10T11:39:40Z</time>
      </trkpt>
      <trkpt lat="43.21533" lon="5.46104">
        <ele>355.83</ele>
        <time>2014-05-10T11:39:53Z</time>
      </trkpt>
      <trkpt lat="43.21535" lon="5.46087">
        <ele>357.75</ele>
        <time>2014-05-10T11:40:07Z</time>
      </trkpt>
      <trkpt lat="43.21538" lon="5.46066">
        <ele>359.67</ele>
        <time>2014-05-10T11:40:24Z</time>
      </trkpt>
      <trkpt lat="43.2154" lon="5.46051">
        <ele>360.63</ele>
        <time>2014-05-10T11:40:40Z</time>
      </trkpt>
      <trkpt lat="43.21545" lon="5.4605">
        <ele>360.63</ele>
        <time>2014-05-10T11:40:53Z</time>
      </trkpt>
      <trkpt lat="43.21556" lon="5.46054">
        <ele>359.67</ele>
        <time>2014-05-10T11:41:08Z</time>
      </trkpt>
      <trkpt lat="43.2157" lon="5.4606">
        <ele>361.11</ele>
        <time>2014-05-10T11:41:23Z</time>
      </trkpt>
      <trkpt lat="43.21577" lon="5.46062">
        <ele>361.59</ele>
        <time>2014-05-10T11:41:39Z</time>
      </trkpt>
      <trkpt lat="43.21581" lon="5.46064">
        <ele>363.04</ele>
        <time>2014-05-10T11:41:56Z</time>
      </trkpt>
      <trkpt lat="43.21592" lon="5.46066">
        <ele>363.52</ele>
        <time>2014-05-10T11:42:12Z</time>
      </trkpt>
      <trkpt lat="43.21595" lon="5.46066">
        <ele>362.07</ele>
        <time>2014-05-10T11:42:18Z</time>
      </trkpt>
      <trkpt lat="43.21597" lon="5.46065">
        <ele>362.07</ele>
        <time>2014-05-10T11:42:20Z</time>
      </trkpt>
      <trkpt lat="43.21615" lon="5.46059">
        <ele>361.11</ele>
        <time>2014-05-10T11:42:36Z</time>
      </trkpt>
      <trkpt lat="43.21629" lon="5.46051">
        <ele>361.11</ele>
        <time>2014-05-10T11:42:53Z</time>
      </trkpt>
      <trkpt lat="43.21639" lon="5.46055">
        <ele>360.63</ele>
        <time>2014-05-10T11:43:05Z</time>
      </trkpt>
      <trkpt lat="43.21649" lon="5.4606">
        <ele>359.67</ele>
        <time>2014-05-10T11:43:19Z</time>
      </trkpt>
      <trkpt lat="43.21661" lon="5.46066">
        <ele>358.23</ele>
        <time>2014-05-10T11:43:35Z</time>
      </trkpt>
      <trkpt lat="43.21676" lon="5.46061">
        <ele>358.23</ele>
        <time>2014-05-10T11:43:51Z</time>
      </trkpt>
      <trkpt lat="43.21685" lon="5.46057">
        <ele>358.23</ele>
        <time>2014-05-10T11:44:02Z</time>
      </trkpt>
      <trkpt lat="43.21695" lon="5.46057">
        <ele>359.19</ele>
        <time>2014-05-10T11:44:13Z</time>
      </trkpt>
      <trkpt lat="43.21708" lon="5.46054">
        <ele>360.15</ele>
        <time>2014-05-10T11:44:27Z</time>
      </trkpt>
      <trkpt lat="43.21711" lon="5.46039">
        <ele>361.59</ele>
        <time>2014-05-10T11:44:41Z</time>
      </trkpt>
      <trkpt lat="43.217" lon="5.46019">
        <ele>361.11</ele>
        <time>2014-05-10T11:44:58Z</time>
      </trkpt>
      <trkpt lat="43.21696" lon="5.46008">
        <ele>361.11</ele>
        <time>2014-05-10T11:45:13Z</time>
      </trkpt>
      <trkpt lat="43.21694" lon="5.46001">
        <ele>361.59</ele>
        <time>2014-05-10T11:45:29Z</time>
      </trkpt>
      <trkpt lat="43.2169" lon="5.45988">
        <ele>363.52</ele>
        <time>2014-05-10T11:45:42Z</time>
      </trkpt>
      <trkpt lat="43.21687" lon="5.45976">
        <ele>364.96</ele>
        <time>2014-05-10T11:45:54Z</time>
      </trkpt>
      <trkpt lat="43.21687" lon="5.45961">
        <ele>366.4</ele>
        <time>2014-05-10T11:46:09Z</time>
      </trkpt>
      <trkpt lat="43.21685" lon="5.45946">
        <ele>368.8</ele>
        <time>2014-05-10T11:46:24Z</time>
      </trkpt>
      <trkpt lat="43.21688" lon="5.45929">
        <ele>369.28</ele>
        <time>2014-05-10T11:46:40Z</time>
      </trkpt>
      <trkpt lat="43.21692" lon="5.45921">
        <ele>369.76</ele>
        <time>2014-05-10T11:46:54Z</time>
      </trkpt>
      <trkpt lat="43.21695" lon="5.45907">
        <ele>370.73</ele>
        <time>2014-05-10T11:47:08Z</time>
      </trkpt>
      <trkpt lat="43.217" lon="5.45898">
        <ele>370.73</ele>
        <time>2014-05-10T11:47:25Z</time>
      </trkpt>
      <trkpt lat="43.21714" lon="5.45897">
        <ele>370.73</ele>
        <time>2014-05-10T11:47:39Z</time>
      </trkpt>
      <trkpt lat="43.21732" lon="5.45893">
        <ele>371.69</ele>
        <time>2014-05-10T11:47:56Z</time>
      </trkpt>
      <trkpt lat="43.2174" lon="5.45892">
        <ele>372.65</ele>
        <time>2014-05-10T11:48:05Z</time>
      </trkpt>
      <trkpt lat="43.21751" lon="5.45885">
        <ele>375.05</ele>
        <time>2014-05-10T11:48:21Z</time>
      </trkpt>
      <trkpt lat="43.21763" lon="5.4588">
        <ele>376.97</ele>
        <time>2014-05-10T11:48:37Z</time>
      </trkpt>
      <trkpt lat="43.21775" lon="5.45879">
        <ele>377.45</ele>
        <time>2014-05-10T11:48:51Z</time>
      </trkpt>
      <trkpt lat="43.21785" lon="5.45876">
        <ele>377.45</ele>
        <time>2014-05-10T11:49:06Z</time>
      </trkpt>
      <trkpt lat="43.21796" lon="5.45871">
        <ele>377.94</ele>
        <time>2014-05-10T11:49:23Z</time>
      </trkpt>
      <trkpt lat="43.21798" lon="5.45863">
        <ele>377.94</ele>
        <time>2014-05-10T11:49:40Z</time>
      </trkpt>
      <trkpt lat="43.21799" lon="5.45855">
        <ele>378.9</ele>
        <time>2014-05-10T11:49:54Z</time>
      </trkpt>
      <trkpt lat="43.21794" lon="5.45851">
        <ele>381.78</ele>
        <time>2014-05-10T11:50:10Z</time>
      </trkpt>
      <trkpt lat="43.21792" lon="5.45841">
        <ele>383.7</ele>
        <time>2014-05-10T11:50:23Z</time>
      </trkpt>
      <trkpt lat="43.2179" lon="5.45827">
        <ele>386.11</ele>
        <time>2014-05-10T11:50:39Z</time>
      </trkpt>
      <trkpt lat="43.21794" lon="5.45814">
        <ele>387.55</ele>
        <time>2014-05-10T11:50:54Z</time>
      </trkpt>
      <trkpt lat="43.21802" lon="5.4581">
        <ele>388.03</ele>
        <time>2014-05-10T11:51:03Z</time>
      </trkpt>
      <trkpt lat="43.2181" lon="5.4581">
        <ele>388.51</ele>
        <time>2014-05-10T11:51:18Z</time>
      </trkpt>
      <trkpt lat="43.21813" lon="5.45809">
        <ele>388.99</ele>
        <time>2014-05-10T11:51:41Z</time>
      </trkpt>
      <trkpt lat="43.21814" lon="5.45813">
        <ele>389.47</ele>
        <time>2014-05-10T11:51:56Z</time>
      </trkpt>
      <trkpt lat="43.2181" lon="5.45816">
        <ele>389.95</ele>
        <time>2014-05-10T11:52:20Z</time>
      </trkpt>
      <trkpt lat="43.21809" lon="5.4582">
        <ele>390.91</ele>
        <time>2014-05-10T11:52:35Z</time>
      </trkpt>
      <trkpt lat="43.21813" lon="5.45815">
        <ele>390.91</ele>
        <time>2014-05-10T11:53:05Z</time>
      </trkpt>
      <trkpt lat="43.21819" lon="5.4581">
        <ele>389.47</ele>
        <time>2014-05-10T11:53:18Z</time>
      </trkpt>
      <trkpt lat="43.21819" lon="5.45811">
        <ele>389.47</ele>
        <time>2014-05-10T11:53:46Z</time>
      </trkpt>
      <trkpt lat="43.21815" lon="5.45814">
        <ele>389.47</ele>
        <time>2014-05-10T11:54:21Z</time>
      </trkpt>
      <trkpt lat="43.21819" lon="5.45808">
        <ele>389.47</ele>
        <time>2014-05-10T11:54:46Z</time>
      </trkpt>
      <trkpt lat="43.21818" lon="5.45801">
        <ele>388.03</ele>
        <time>2014-05-10T11:54:59Z</time>
      </trkpt>
      <trkpt lat="43.21813" lon="5.45796">
        <ele>386.11</ele>
        <time>2014-05-10T11:55:14Z</time>
      </trkpt>
      <trkpt lat="43.21808" lon="5.45793">
        <ele>384.66</ele>
        <time>2014-05-10T11:55:28Z</time>
      </trkpt>
      <trkpt lat="43.21806" lon="5.45789">
        <ele>384.18</ele>
        <time>2014-05-10T11:55:50Z</time>
      </trkpt>
      <trkpt lat="43.218" lon="5.4579">
        <ele>382.74</ele>
        <time>2014-05-10T11:56:08Z</time>
      </trkpt>
      <trkpt lat="43.21801" lon="5.45787">
        <ele>381.78</ele>
        <time>2014-05-10T11:56:18Z</time>
      </trkpt>
      <trkpt lat="43.21806" lon="5.45789">
        <ele>381.78</ele>
        <time>2014-05-10T11:56:42Z</time>
      </trkpt>
      <trkpt lat="43.21806" lon="5.45785">
        <ele>380.82</ele>
        <time>2014-05-10T11:57:03Z</time>
      </trkpt>
      <trkpt lat="43.21803" lon="5.45779">
        <ele>378.9</ele>
        <time>2014-05-10T11:57:14Z</time>
      </trkpt>
      <trkpt lat="43.218" lon="5.45782">
        <ele>377.45</ele>
        <time>2014-05-10T11:57:27Z</time>
      </trkpt>
      <trkpt lat="43.21799" lon="5.45785">
        <ele>377.45</ele>
        <time>2014-05-10T11:57:41Z</time>
      </trkpt>
      <trkpt lat="43.21795" lon="5.45784">
        <ele>377.45</ele>
        <time>2014-05-10T11:57:58Z</time>
      </trkpt>
      <trkpt lat="43.21794" lon="5.45783">
        <ele>376.01</ele>
        <time>2014-05-10T11:58:16Z</time>
      </trkpt>
      <trkpt lat="43.21792" lon="5.45785">
        <ele>375.53</ele>
        <time>2014-05-10T11:58:41Z</time>
      </trkpt>
      <trkpt lat="43.21792" lon="5.45785">
        <ele>376.01</ele>
        <time>2014-05-10T11:59:10Z</time>
      </trkpt>
      <trkpt lat="43.21791" lon="5.4578">
        <ele>374.57</ele>
        <time>2014-05-10T11:59:23Z</time>
      </trkpt>
      <trkpt lat="43.21789" lon="5.45775">
        <ele>373.13</ele>
        <time>2014-05-10T11:59:40Z</time>
      </trkpt>
      <trkpt lat="43.21786" lon="5.4577">
        <ele>372.65</ele>
        <time>2014-05-10T11:59:58Z</time>
      </trkpt>
      <trkpt lat="43.21785" lon="5.45765">
        <ele>371.69</ele>
        <time>2014-05-10T12:00:11Z</time>
      </trkpt>
      <trkpt lat="43.21785" lon="5.45763">
        <ele>371.69</ele>
        <time>2014-05-10T12:00:27Z</time>
      </trkpt>
      <trkpt lat="43.21782" lon="5.45757">
        <ele>368.32</ele>
        <time>2014-05-10T12:00:38Z</time>
      </trkpt>
      <trkpt lat="43.21781" lon="5.45759">
        <ele>366.88</ele>
        <time>2014-05-10T12:00:49Z</time>
      </trkpt>
      <trkpt lat="43.21782" lon="5.45758">
        <ele>365.92</ele>
        <time>2014-05-10T12:00:51Z</time>
      </trkpt>
      <trkpt lat="43.21781" lon="5.4576">
        <ele>364.48</ele>
        <time>2014-05-10T12:01:02Z</time>
      </trkpt>
      <trkpt lat="43.21782" lon="5.4576">
        <ele>363.04</ele>
        <time>2014-05-10T12:01:10Z</time>
      </trkpt>
      <trkpt lat="43.21777" lon="5.45757">
        <ele>361.11</ele>
        <time>2014-05-10T12:01:22Z</time>
      </trkpt>
      <trkpt lat="43.21778" lon="5.45758">
        <ele>361.11</ele>
        <time>2014-05-10T12:01:37Z</time>
      </trkpt>
      <trkpt lat="43.21777" lon="5.45753">
        <ele>361.11</ele>
        <time>2014-05-10T12:01:57Z</time>
      </trkpt>
      <trkpt lat="43.21775" lon="5.45748">
        <ele>357.75</ele>
        <time>2014-05-10T12:02:10Z</time>
      </trkpt>
      <trkpt lat="43.21771" lon="5.45749">
        <ele>354.86</ele>
        <time>2014-05-10T12:02:22Z</time>
      </trkpt>
      <trkpt lat="43.2177" lon="5.45748">
        <ele>353.9</ele>
        <time>2014-05-10T12:02:24Z</time>
      </trkpt>
      <trkpt lat="43.21767" lon="5.45751">
        <ele>351.98</ele>
        <time>2014-05-10T12:02:32Z</time>
      </trkpt>
      <trkpt lat="43.21766" lon="5.4575">
        <ele>350.54</ele>
        <time>2014-05-10T12:02:34Z</time>
      </trkpt>
      <trkpt lat="43.21761" lon="5.45748">
        <ele>348.62</ele>
        <time>2014-05-10T12:02:43Z</time>
      </trkpt>
      <trkpt lat="43.21759" lon="5.45747">
        <ele>346.69</ele>
        <time>2014-05-10T12:02:54Z</time>
      </trkpt>
      <trkpt lat="43.21756" lon="5.45746">
        <ele>345.25</ele>
        <time>2014-05-10T12:02:58Z</time>
      </trkpt>
      <trkpt lat="43.21751" lon="5.45746">
        <ele>341.89</ele>
        <time>2014-05-10T12:03:08Z</time>
      </trkpt>
      <trkpt lat="43.21746" lon="5.45753">
        <ele>339.96</ele>
        <time>2014-05-10T12:03:17Z</time>
      </trkpt>
      <trkpt lat="43.21742" lon="5.4575">
        <ele>336.6</ele>
        <time>2014-05-10T12:03:25Z</time>
      </trkpt>
      <trkpt lat="43.21736" lon="5.4575">
        <ele>333.71</ele>
        <time>2014-05-10T12:03:37Z</time>
      </trkpt>
      <trkpt lat="43.21735" lon="5.45747">
        <ele>331.79</ele>
        <time>2014-05-10T12:03:50Z</time>
      </trkpt>
      <trkpt lat="43.21735" lon="5.45756">
        <ele>331.79</ele>
        <time>2014-05-10T12:04:17Z</time>
      </trkpt>
      <trkpt lat="43.21733" lon="5.4576">
        <ele>331.79</ele>
        <time>2014-05-10T12:04:45Z</time>
      </trkpt>
      <trkpt lat="43.21732" lon="5.45758">
        <ele>331.79</ele>
        <time>2014-05-10T12:05:16Z</time>
      </trkpt>
      <trkpt lat="43.21734" lon="5.45752">
        <ele>331.79</ele>
        <time>2014-05-10T12:05:45Z</time>
      </trkpt>
      <trkpt lat="43.2173" lon="5.45758">
        <ele>331.31</ele>
        <time>2014-05-10T12:06:19Z</time>
      </trkpt>
      <trkpt lat="43.21734" lon="5.45757">
        <ele>330.83</ele>
        <time>2014-05-10T12:06:39Z</time>
      </trkpt>
      <trkpt lat="43.21733" lon="5.45758">
        <ele>331.79</ele>
        <time>2014-05-10T12:06:58Z</time>
      </trkpt>
      <trkpt lat="43.21736" lon="5.45755">
        <ele>330.83</ele>
        <time>2014-05-10T12:07:25Z</time>
      </trkpt>
      <trkpt lat="43.21737" lon="5.45752">
        <ele>332.75</ele>
        <time>2014-05-10T12:07:51Z</time>
      </trkpt>
      <trkpt lat="43.21734" lon="5.45741">
        <ele>330.83</ele>
        <time>2014-05-10T12:08:25Z</time>
      </trkpt>
      <trkpt lat="43.21734" lon="5.45742">
        <ele>330.83</ele>
        <time>2014-05-10T12:08:55Z</time>
      </trkpt>
      <trkpt lat="43.21734" lon="5.45756">
        <ele>330.83</ele>
        <time>2014-05-10T12:09:20Z</time>
      </trkpt>
      <trkpt lat="43.21729" lon="5.45759">
        <ele>330.83</ele>
        <time>2014-05-10T12:09:45Z</time>
      </trkpt>
      <trkpt lat="43.21722" lon="5.45754">
        <ele>331.31</ele>
        <time>2014-05-10T12:10:08Z</time>
      </trkpt>
      <trkpt lat="43.21719" lon="5.45752">
        <ele>331.79</ele>
        <time>2014-05-10T12:10:26Z</time>
      </trkpt>
      <trkpt lat="43.21717" lon="5.45752">
        <ele>330.83</ele>
        <time>2014-05-10T12:10:37Z</time>
      </trkpt>
      <trkpt lat="43.21715" lon="5.45751">
        <ele>331.79</ele>
        <time>2014-05-10T12:10:49Z</time>
      </trkpt>
      <trkpt lat="43.21715" lon="5.45755">
        <ele>331.31</ele>
        <time>2014-05-10T12:11:07Z</time>
      </trkpt>
      <trkpt lat="43.21712" lon="5.45753">
        <ele>328.91</ele>
        <time>2014-05-10T12:11:19Z</time>
      </trkpt>
      <trkpt lat="43.21712" lon="5.45748">
        <ele>326.5</ele>
        <time>2014-05-10T12:11:31Z</time>
      </trkpt>
      <trkpt lat="43.21711" lon="5.45748">
        <ele>324.58</ele>
        <time>2014-05-10T12:11:36Z</time>
      </trkpt>
      <trkpt lat="43.21708" lon="5.45746">
        <ele>320.74</ele>
        <time>2014-05-10T12:11:49Z</time>
      </trkpt>
      <trkpt lat="43.21705" lon="5.45746">
        <ele>319.3</ele>
        <time>2014-05-10T12:11:54Z</time>
      </trkpt>
      <trkpt lat="43.21707" lon="5.45741">
        <ele>318.33</ele>
        <time>2014-05-10T12:12:06Z</time>
      </trkpt>
      <trkpt lat="43.21708" lon="5.45737">
        <ele>317.37</ele>
        <time>2014-05-10T12:12:24Z</time>
      </trkpt>
      <trkpt lat="43.21701" lon="5.45735">
        <ele>315.45</ele>
        <time>2014-05-10T12:12:36Z</time>
      </trkpt>
      <trkpt lat="43.21705" lon="5.45742">
        <ele>314.97</ele>
        <time>2014-05-10T12:12:49Z</time>
      </trkpt>
      <trkpt lat="43.21704" lon="5.45744">
        <ele>315.45</ele>
        <time>2014-05-10T12:12:53Z</time>
      </trkpt>
      <trkpt lat="43.21704" lon="5.45746">
        <ele>314.01</ele>
        <time>2014-05-10T12:13:05Z</time>
      </trkpt>
      <trkpt lat="43.21705" lon="5.45753">
        <ele>314.01</ele>
        <time>2014-05-10T12:13:19Z</time>
      </trkpt>
      <trkpt lat="43.21706" lon="5.45748">
        <ele>315.45</ele>
        <time>2014-05-10T12:13:35Z</time>
      </trkpt>
      <trkpt lat="43.21702" lon="5.45738">
        <ele>314.49</ele>
        <time>2014-05-10T12:13:48Z</time>
      </trkpt>
      <trkpt lat="43.217" lon="5.45735">
        <ele>314.01</ele>
        <time>2014-05-10T12:13:51Z</time>
      </trkpt>
      <trkpt lat="43.21688" lon="5.4572">
        <ele>312.57</ele>
        <time>2014-05-10T12:14:07Z</time>
      </trkpt>
      <trkpt lat="43.21687" lon="5.45717">
        <ele>312.57</ele>
        <time>2014-05-10T12:14:19Z</time>
      </trkpt>
      <trkpt lat="43.21697" lon="5.45727">
        <ele>313.53</ele>
        <time>2014-05-10T12:14:34Z</time>
      </trkpt>
      <trkpt lat="43.21701" lon="5.45738">
        <ele>313.53</ele>
        <time>2014-05-10T12:14:50Z</time>
      </trkpt>
      <trkpt lat="43.21698" lon="5.45744">
        <ele>313.53</ele>
        <time>2014-05-10T12:15:11Z</time>
      </trkpt>
      <trkpt lat="43.21702" lon="5.45745">
        <ele>314.49</ele>
        <time>2014-05-10T12:15:19Z</time>
      </trkpt>
      <trkpt lat="43.21702" lon="5.45739">
        <ele>313.05</ele>
        <time>2014-05-10T12:15:33Z</time>
      </trkpt>
      <trkpt lat="43.21701" lon="5.45737">
        <ele>314.49</ele>
        <time>2014-05-10T12:16:04Z</time>
      </trkpt>
      <trkpt lat="43.21701" lon="5.45743">
        <ele>314.97</ele>
        <time>2014-05-10T12:16:23Z</time>
      </trkpt>
      <trkpt lat="43.217" lon="5.45744">
        <ele>314.97</ele>
        <time>2014-05-10T12:16:37Z</time>
      </trkpt>
      <trkpt lat="43.21699" lon="5.45731">
        <ele>313.53</ele>
        <time>2014-05-10T12:16:58Z</time>
      </trkpt>
      <trkpt lat="43.21699" lon="5.4573">
        <ele>313.53</ele>
        <time>2014-05-10T12:16:59Z</time>
      </trkpt>
      <trkpt lat="43.21696" lon="5.45724">
        <ele>313.05</ele>
        <time>2014-05-10T12:17:05Z</time>
      </trkpt>
      <trkpt lat="43.21681" lon="5.45707">
        <ele>310.64</ele>
        <time>2014-05-10T12:17:22Z</time>
      </trkpt>
      <trkpt lat="43.21671" lon="5.45689">
        <ele>309.2</ele>
        <time>2014-05-10T12:17:38Z</time>
      </trkpt>
      <trkpt lat="43.21659" lon="5.4567">
        <ele>306.32</ele>
        <time>2014-05-10T12:17:55Z</time>
      </trkpt>
      <trkpt lat="43.2165" lon="5.45651">
        <ele>303.91</ele>
        <time>2014-05-10T12:18:10Z</time>
      </trkpt>
      <trkpt lat="43.2165" lon="5.45645">
        <ele>303.43</ele>
        <time>2014-05-10T12:18:14Z</time>
      </trkpt>
      <trkpt lat="43.21649" lon="5.45639">
        <ele>302.47</ele>
        <time>2014-05-10T12:18:18Z</time>
      </trkpt>
      <trkpt lat="43.21645" lon="5.45619">
        <ele>300.55</ele>
        <time>2014-05-10T12:18:31Z</time>
      </trkpt>
      <trkpt lat="43.21641" lon="5.45593">
        <ele>299.11</ele>
        <time>2014-05-10T12:18:49Z</time>
      </trkpt>
      <trkpt lat="43.21636" lon="5.45572">
        <ele>296.22</ele>
        <time>2014-05-10T12:19:03Z</time>
      </trkpt>
      <trkpt lat="43.2163" lon="5.4555">
        <ele>292.86</ele>
        <time>2014-05-10T12:19:19Z</time>
      </trkpt>
      <trkpt lat="43.21624" lon="5.45526">
        <ele>290.46</ele>
        <time>2014-05-10T12:19:34Z</time>
      </trkpt>
      <trkpt lat="43.21621" lon="5.45501">
        <ele>289.01</ele>
        <time>2014-05-10T12:19:50Z</time>
      </trkpt>
      <trkpt lat="43.21621" lon="5.45498">
        <ele>289.01</ele>
        <time>2014-05-10T12:19:52Z</time>
      </trkpt>
      <trkpt lat="43.21619" lon="5.45495">
        <ele>288.05</ele>
        <time>2014-05-10T12:19:55Z</time>
      </trkpt>
      <trkpt lat="43.21614" lon="5.4549">
        <ele>286.61</ele>
        <time>2014-05-10T12:20:01Z</time>
      </trkpt>
      <trkpt lat="43.21606" lon="5.4548">
        <ele>283.25</ele>
        <time>2014-05-10T12:20:11Z</time>
      </trkpt>
      <trkpt lat="43.21593" lon="5.45465">
        <ele>281.32</ele>
        <time>2014-05-10T12:20:28Z</time>
      </trkpt>
      <trkpt lat="43.21586" lon="5.45457">
        <ele>280.36</ele>
        <time>2014-05-10T12:20:37Z</time>
      </trkpt>
      <trkpt lat="43.21575" lon="5.45446">
        <ele>278.44</ele>
        <time>2014-05-10T12:20:51Z</time>
      </trkpt>
      <trkpt lat="43.21574" lon="5.45442">
        <ele>277.96</ele>
        <time>2014-05-10T12:20:54Z</time>
      </trkpt>
      <trkpt lat="43.21576" lon="5.4542">
        <ele>276.04</ele>
        <time>2014-05-10T12:21:12Z</time>
      </trkpt>
      <trkpt lat="43.2158" lon="5.45396">
        <ele>274.59</ele>
        <time>2014-05-10T12:21:28Z</time>
      </trkpt>
      <trkpt lat="43.21579" lon="5.45368">
        <ele>274.59</ele>
        <time>2014-05-10T12:21:45Z</time>
      </trkpt>
      <trkpt lat="43.21581" lon="5.45353">
        <ele>275.56</ele>
        <time>2014-05-10T12:21:56Z</time>
      </trkpt>
      <trkpt lat="43.21585" lon="5.45344">
        <ele>271.71</ele>
        <time>2014-05-10T12:22:06Z</time>
      </trkpt>
      <trkpt lat="43.21591" lon="5.45334">
        <ele>268.83</ele>
        <time>2014-05-10T12:22:17Z</time>
      </trkpt>
      <trkpt lat="43.21596" lon="5.45328">
        <ele>265.94</ele>
        <time>2014-05-10T12:22:27Z</time>
      </trkpt>
      <trkpt lat="43.21603" lon="5.45319">
        <ele>262.58</ele>
        <time>2014-05-10T12:22:41Z</time>
      </trkpt>
      <trkpt lat="43.216" lon="5.45308">
        <ele>261.14</ele>
        <time>2014-05-10T12:22:54Z</time>
      </trkpt>
      <trkpt lat="43.21588" lon="5.45309">
        <ele>257.29</ele>
        <time>2014-05-10T12:23:08Z</time>
      </trkpt>
      <trkpt lat="43.21577" lon="5.45311">
        <ele>253.93</ele>
        <time>2014-05-10T12:23:22Z</time>
      </trkpt>
      <trkpt lat="43.21567" lon="5.45316">
        <ele>251.04</ele>
        <time>2014-05-10T12:23:36Z</time>
      </trkpt>
      <trkpt lat="43.21558" lon="5.45315">
        <ele>248.16</ele>
        <time>2014-05-10T12:23:48Z</time>
      </trkpt>
      <trkpt lat="43.21552" lon="5.45306">
        <ele>245.27</ele>
        <time>2014-05-10T12:23:56Z</time>
      </trkpt>
      <trkpt lat="43.2155" lon="5.45289">
        <ele>244.31</ele>
        <time>2014-05-10T12:24:10Z</time>
      </trkpt>
      <trkpt lat="43.21559" lon="5.45282">
        <ele>240.47</ele>
        <time>2014-05-10T12:24:21Z</time>
      </trkpt>
      <trkpt lat="43.2156" lon="5.45281">
        <ele>240.47</ele>
        <time>2014-05-10T12:24:22Z</time>
      </trkpt>
      <trkpt lat="43.21568" lon="5.45274">
        <ele>237.58</ele>
        <time>2014-05-10T12:24:31Z</time>
      </trkpt>
      <trkpt lat="43.21574" lon="5.45261">
        <ele>234.22</ele>
        <time>2014-05-10T12:24:43Z</time>
      </trkpt>
      <trkpt lat="43.21579" lon="5.4525">
        <ele>231.33</ele>
        <time>2014-05-10T12:24:54Z</time>
      </trkpt>
      <trkpt lat="43.21582" lon="5.45244">
        <ele>230.85</ele>
        <time>2014-05-10T12:24:59Z</time>
      </trkpt>
      <trkpt lat="43.21583" lon="5.4524">
        <ele>229.41</ele>
        <time>2014-05-10T12:25:02Z</time>
      </trkpt>
      <trkpt lat="43.21593" lon="5.45221">
        <ele>226.05</ele>
        <time>2014-05-10T12:25:19Z</time>
      </trkpt>
      <trkpt lat="43.21594" lon="5.45218">
        <ele>225.57</ele>
        <time>2014-05-10T12:25:21Z</time>
      </trkpt>
      <trkpt lat="43.216" lon="5.45205">
        <ele>222.2</ele>
        <time>2014-05-10T12:25:33Z</time>
      </trkpt>
      <trkpt lat="43.21602" lon="5.452">
        <ele>220.76</ele>
        <time>2014-05-10T12:25:47Z</time>
      </trkpt>
      <trkpt lat="43.216" lon="5.45199">
        <ele>221.72</ele>
        <time>2014-05-10T12:26:05Z</time>
      </trkpt>
      <trkpt lat="43.21599" lon="5.452">
        <ele>221.72</ele>
        <time>2014-05-10T12:26:25Z</time>
      </trkpt>
      <trkpt lat="43.21598" lon="5.45202">
        <ele>222.68</ele>
        <time>2014-05-10T12:26:59Z</time>
      </trkpt>
      <trkpt lat="43.21598" lon="5.45201">
        <ele>222.68</ele>
        <time>2014-05-10T12:27:18Z</time>
      </trkpt>
      <trkpt lat="43.21598" lon="5.45203">
        <ele>222.2</ele>
        <time>2014-05-10T12:27:45Z</time>
      </trkpt>
      <trkpt lat="43.21598" lon="5.45201">
        <ele>221.72</ele>
        <time>2014-05-10T12:28:05Z</time>
      </trkpt>
      <trkpt lat="43.21599" lon="5.45198">
        <ele>221.72</ele>
        <time>2014-05-10T12:28:30Z</time>
      </trkpt>
      <trkpt lat="43.21598" lon="5.45199">
        <ele>222.2</ele>
        <time>2014-05-10T12:28:46Z</time>
      </trkpt>
      <trkpt lat="43.21597" lon="5.45199">
        <ele>222.2</ele>
        <time>2014-05-10T12:29:14Z</time>
      </trkpt>
      <trkpt lat="43.21598" lon="5.452">
        <ele>222.2</ele>
        <time>2014-05-10T12:29:38Z</time>
      </trkpt>
      <trkpt lat="43.21599" lon="5.452">
        <ele>222.2</ele>
        <time>2014-05-10T12:30:05Z</time>
      </trkpt>
      <trkpt lat="43.21601" lon="5.45199">
        <ele>222.68</ele>
        <time>2014-05-10T12:30:26Z</time>
      </trkpt>
      <trkpt lat="43.21599" lon="5.452">
        <ele>221.72</ele>
        <time>2014-05-10T12:30:47Z</time>
      </trkpt>
      <trkpt lat="43.21598" lon="5.45201">
        <ele>222.68</ele>
        <time>2014-05-10T12:31:00Z</time>
      </trkpt>
      <trkpt lat="43.21599" lon="5.45201">
        <ele>222.68</ele>
        <time>2014-05-10T12:31:28Z</time>
      </trkpt>
      <trkpt lat="43.21602" lon="5.45201">
        <ele>222.68</ele>
        <time>2014-05-10T12:31:59Z</time>
      </trkpt>
      <trkpt lat="43.21602" lon="5.45199">
        <ele>222.2</ele>
        <time>2014-05-10T12:32:33Z</time>
      </trkpt>
      <trkpt lat="43.21603" lon="5.45198">
        <ele>222.2</ele>
        <time>2014-05-10T12:33:05Z</time>
      </trkpt>
      <trkpt lat="43.21602" lon="5.452">
        <ele>222.2</ele>
        <time>2014-05-10T12:33:32Z</time>
      </trkpt>
      <trkpt lat="43.21609" lon="5.45207">
        <ele>222.2</ele>
        <time>2014-05-10T12:33:50Z</time>
      </trkpt>
      <trkpt lat="43.2161" lon="5.45208">
        <ele>222.2</ele>
        <time>2014-05-10T12:33:51Z</time>
      </trkpt>
      <trkpt lat="43.2162" lon="5.45219">
        <ele>220.76</ele>
        <time>2014-05-10T12:34:06Z</time>
      </trkpt>
      <trkpt lat="43.21636" lon="5.45228">
        <ele>220.76</ele>
        <time>2014-05-10T12:34:23Z</time>
      </trkpt>
      <trkpt lat="43.21648" lon="5.45239">
        <ele>220.28</ele>
        <time>2014-05-10T12:34:39Z</time>
      </trkpt>
      <trkpt lat="43.21661" lon="5.45252">
        <ele>220.28</ele>
        <time>2014-05-10T12:34:56Z</time>
      </trkpt>
      <trkpt lat="43.21673" lon="5.45269">
        <ele>220.28</ele>
        <time>2014-05-10T12:35:12Z</time>
      </trkpt>
      <trkpt lat="43.21686" lon="5.45283">
        <ele>219.8</ele>
        <time>2014-05-10T12:35:27Z</time>
      </trkpt>
      <trkpt lat="43.21705" lon="5.45296">
        <ele>218.84</ele>
        <time>2014-05-10T12:35:42Z</time>
      </trkpt>
      <trkpt lat="43.2171" lon="5.453">
        <ele>218.36</ele>
        <time>2014-05-10T12:35:47Z</time>
      </trkpt>
      <trkpt lat="43.21727" lon="5.45305">
        <ele>217.4</ele>
        <time>2014-05-10T12:36:01Z</time>
      </trkpt>
      <trkpt lat="43.21738" lon="5.45294">
        <ele>216.91</ele>
        <time>2014-05-10T12:36:11Z</time>
      </trkpt>
      <trkpt lat="43.21739" lon="5.45282">
        <ele>216.43</ele>
        <time>2014-05-10T12:36:19Z</time>
      </trkpt>
      <trkpt lat="43.21732" lon="5.45247">
        <ele>215.47</ele>
        <time>2014-05-10T12:36:36Z</time>
      </trkpt>
      <trkpt lat="43.21725" lon="5.45217">
        <ele>214.99</ele>
        <time>2014-05-10T12:36:51Z</time>
      </trkpt>
      <trkpt lat="43.21723" lon="5.45207">
        <ele>214.51</ele>
        <time>2014-05-10T12:36:57Z</time>
      </trkpt>
      <trkpt lat="43.21721" lon="5.45177">
        <ele>214.03</ele>
        <time>2014-05-10T12:37:16Z</time>
      </trkpt>
      <trkpt lat="43.21719" lon="5.45159">
        <ele>213.07</ele>
        <time>2014-05-10T12:37:27Z</time>
      </trkpt>
      <trkpt lat="43.21719" lon="5.45131">
        <ele>211.63</ele>
        <time>2014-05-10T12:37:45Z</time>
      </trkpt>
      <trkpt lat="43.21716" lon="5.45104">
        <ele>211.63</ele>
        <time>2014-05-10T12:38:03Z</time>
      </trkpt>
      <trkpt lat="43.21706" lon="5.45081">
        <ele>210.67</ele>
        <time>2014-05-10T12:38:19Z</time>
      </trkpt>
      <trkpt lat="43.21692" lon="5.45055">
        <ele>210.19</ele>
        <time>2014-05-10T12:38:39Z</time>
      </trkpt>
      <trkpt lat="43.21682" lon="5.45046">
        <ele>209.7</ele>
        <time>2014-05-10T12:38:49Z</time>
      </trkpt>
      <trkpt lat="43.21677" lon="5.4504">
        <ele>209.7</ele>
        <time>2014-05-10T12:38:54Z</time>
      </trkpt>
      <trkpt lat="43.21677" lon="5.4501">
        <ele>209.7</ele>
        <time>2014-05-10T12:39:13Z</time>
      </trkpt>
      <trkpt lat="43.21679" lon="5.45001">
        <ele>211.15</ele>
        <time>2014-05-10T12:39:19Z</time>
      </trkpt>
      <trkpt lat="43.21688" lon="5.44974">
        <ele>211.15</ele>
        <time>2014-05-10T12:39:38Z</time>
      </trkpt>
      <trkpt lat="43.21703" lon="5.44954">
        <ele>211.63</ele>
        <time>2014-05-10T12:39:57Z</time>
      </trkpt>
      <trkpt lat="43.21721" lon="5.44941">
        <ele>211.63</ele>
        <time>2014-05-10T12:40:15Z</time>
      </trkpt>
      <trkpt lat="43.21737" lon="5.44928">
        <ele>211.63</ele>
        <time>2014-05-10T12:40:31Z</time>
      </trkpt>
      <trkpt lat="43.21759" lon="5.44915">
        <ele>211.63</ele>
        <time>2014-05-10T12:40:51Z</time>
      </trkpt>
      <trkpt lat="43.21776" lon="5.44915">
        <ele>211.63</ele>
        <time>2014-05-10T12:41:06Z</time>
      </trkpt>
      <trkpt lat="43.21796" lon="5.44915">
        <ele>212.11</ele>
        <time>2014-05-10T12:41:23Z</time>
      </trkpt>
      <trkpt lat="43.21803" lon="5.44913">
        <ele>212.11</ele>
        <time>2014-05-10T12:41:29Z</time>
      </trkpt>
      <trkpt lat="43.21807" lon="5.44887">
        <ele>212.11</ele>
        <time>2014-05-10T12:41:46Z</time>
      </trkpt>
      <trkpt lat="43.21818" lon="5.44861">
        <ele>212.59</ele>
        <time>2014-05-10T12:42:06Z</time>
      </trkpt>
      <trkpt lat="43.21825" lon="5.44857">
        <ele>212.59</ele>
        <time>2014-05-10T12:42:12Z</time>
      </trkpt>
      <trkpt lat="43.21849" lon="5.44858">
        <ele>213.07</ele>
        <time>2014-05-10T12:42:33Z</time>
      </trkpt>
      <trkpt lat="43.21866" lon="5.44856">
        <ele>213.55</ele>
        <time>2014-05-10T12:42:49Z</time>
      </trkpt>
      <trkpt lat="43.21876" lon="5.44838">
        <ele>214.51</ele>
        <time>2014-05-10T12:43:03Z</time>
      </trkpt>
      <trkpt lat="43.21877" lon="5.44813">
        <ele>214.99</ele>
        <time>2014-05-10T12:43:19Z</time>
      </trkpt>
      <trkpt lat="43.21874" lon="5.44792">
        <ele>215.95</ele>
        <time>2014-05-10T12:43:32Z</time>
      </trkpt>
      <trkpt lat="43.21885" lon="5.44761">
        <ele>216.91</ele>
        <time>2014-05-10T12:43:54Z</time>
      </trkpt>
      <trkpt lat="43.21884" lon="5.44737">
        <ele>217.4</ele>
        <time>2014-05-10T12:44:10Z</time>
      </trkpt>
      <trkpt lat="43.21877" lon="5.44712">
        <ele>217.88</ele>
        <time>2014-05-10T12:44:26Z</time>
      </trkpt>
      <trkpt lat="43.21877" lon="5.44706">
        <ele>216.43</ele>
        <time>2014-05-10T12:44:29Z</time>
      </trkpt>
      <trkpt lat="43.21878" lon="5.4468">
        <ele>216.43</ele>
        <time>2014-05-10T12:44:45Z</time>
      </trkpt>
      <trkpt lat="43.21882" lon="5.4466">
        <ele>214.03</ele>
        <time>2014-05-10T12:45:01Z</time>
      </trkpt>
      <trkpt lat="43.21887" lon="5.44632">
        <ele>212.59</ele>
        <time>2014-05-10T12:45:19Z</time>
      </trkpt>
      <trkpt lat="43.21901" lon="5.44611">
        <ele>211.15</ele>
        <time>2014-05-10T12:45:38Z</time>
      </trkpt>
      <trkpt lat="43.21913" lon="5.44588">
        <ele>209.7</ele>
        <time>2014-05-10T12:45:56Z</time>
      </trkpt>
      <trkpt lat="43.21925" lon="5.44566">
        <ele>207.78</ele>
        <time>2014-05-10T12:46:13Z</time>
      </trkpt>
      <trkpt lat="43.21927" lon="5.44556">
        <ele>206.82</ele>
        <time>2014-05-10T12:46:20Z</time>
      </trkpt>
      <trkpt lat="43.21921" lon="5.44531">
        <ele>205.38</ele>
        <time>2014-05-10T12:46:38Z</time>
      </trkpt>
      <trkpt lat="43.21916" lon="5.44504">
        <ele>203.94</ele>
        <time>2014-05-10T12:46:55Z</time>
      </trkpt>
      <trkpt lat="43.2192" lon="5.44478">
        <ele>202.01</ele>
        <time>2014-05-10T12:47:10Z</time>
      </trkpt>
      <trkpt lat="43.21924" lon="5.44452">
        <ele>201.05</ele>
        <time>2014-05-10T12:47:27Z</time>
      </trkpt>
      <trkpt lat="43.21925" lon="5.44449">
        <ele>201.05</ele>
        <time>2014-05-10T12:47:29Z</time>
      </trkpt>
      <trkpt lat="43.21933" lon="5.44431">
        <ele>199.13</ele>
        <time>2014-05-10T12:47:44Z</time>
      </trkpt>
      <trkpt lat="43.2195" lon="5.44408">
        <ele>197.21</ele>
        <time>2014-05-10T12:48:05Z</time>
      </trkpt>
      <trkpt lat="43.21962" lon="5.44393">
        <ele>195.77</ele>
        <time>2014-05-10T12:48:20Z</time>
      </trkpt>
      <trkpt lat="43.21972" lon="5.44375">
        <ele>194.32</ele>
        <time>2014-05-10T12:48:35Z</time>
      </trkpt>
      <trkpt lat="43.21973" lon="5.44374">
        <ele>194.32</ele>
        <time>2014-05-10T12:48:36Z</time>
      </trkpt>
      <trkpt lat="43.21976" lon="5.44367">
        <ele>193.84</ele>
        <time>2014-05-10T12:48:41Z</time>
      </trkpt>
      <trkpt lat="43.21985" lon="5.44345">
        <ele>192.88</ele>
        <time>2014-05-10T12:48:58Z</time>
      </trkpt>
      <trkpt lat="43.21996" lon="5.44326">
        <ele>191.92</ele>
        <time>2014-05-10T12:49:14Z</time>
      </trkpt>
      <trkpt lat="43.22005" lon="5.44309">
        <ele>191.44</ele>
        <time>2014-05-10T12:49:29Z</time>
      </trkpt>
      <trkpt lat="43.22018" lon="5.44287">
        <ele>190</ele>
        <time>2014-05-10T12:49:47Z</time>
      </trkpt>
      <trkpt lat="43.22026" lon="5.44269">
        <ele>188.56</ele>
        <time>2014-05-10T12:50:01Z</time>
      </trkpt>
      <trkpt lat="43.22031" lon="5.44246">
        <ele>187.59</ele>
        <time>2014-05-10T12:50:16Z</time>
      </trkpt>
      <trkpt lat="43.22038" lon="5.44223">
        <ele>186.63</ele>
        <time>2014-05-10T12:50:32Z</time>
      </trkpt>
      <trkpt lat="43.22042" lon="5.44214">
        <ele>186.15</ele>
        <time>2014-05-10T12:50:39Z</time>
      </trkpt>
      <trkpt lat="43.22049" lon="5.44188">
        <ele>184.71</ele>
        <time>2014-05-10T12:50:57Z</time>
      </trkpt>
      <trkpt lat="43.22053" lon="5.44166">
        <ele>183.75</ele>
        <time>2014-05-10T12:51:12Z</time>
      </trkpt>
      <trkpt lat="43.22059" lon="5.44144">
        <ele>182.79</ele>
        <time>2014-05-10T12:51:28Z</time>
      </trkpt>
      <trkpt lat="43.22068" lon="5.44125">
        <ele>181.83</ele>
        <time>2014-05-10T12:51:42Z</time>
      </trkpt>
      <trkpt lat="43.22081" lon="5.44106">
        <ele>180.87</ele>
        <time>2014-05-10T12:51:58Z</time>
      </trkpt>
      <trkpt lat="43.22094" lon="5.4409">
        <ele>179.9</ele>
        <time>2014-05-10T12:52:15Z</time>
      </trkpt>
      <trkpt lat="43.22112" lon="5.44076">
        <ele>178.46</ele>
        <time>2014-05-10T12:52:35Z</time>
      </trkpt>
      <trkpt lat="43.22126" lon="5.44066">
        <ele>177.02</ele>
        <time>2014-05-10T12:52:52Z</time>
      </trkpt>
      <trkpt lat="43.22146" lon="5.44048">
        <ele>175.58</ele>
        <time>2014-05-10T12:53:13Z</time>
      </trkpt>
      <trkpt lat="43.22161" lon="5.44035">
        <ele>174.62</ele>
        <time>2014-05-10T12:53:29Z</time>
      </trkpt>
      <trkpt lat="43.22177" lon="5.4402">
        <ele>173.17</ele>
        <time>2014-05-10T12:53:47Z</time>
      </trkpt>
      <trkpt lat="43.22199" lon="5.44014">
        <ele>172.69</ele>
        <time>2014-05-10T12:54:05Z</time>
      </trkpt>
      <trkpt lat="43.2222" lon="5.44008">
        <ele>170.77</ele>
        <time>2014-05-10T12:54:23Z</time>
      </trkpt>
      <trkpt lat="43.22238" lon="5.44">
        <ele>170.77</ele>
        <time>2014-05-10T12:54:41Z</time>
      </trkpt>
      <trkpt lat="43.22262" lon="5.43993">
        <ele>169.81</ele>
        <time>2014-05-10T12:55:02Z</time>
      </trkpt>
      <trkpt lat="43.22277" lon="5.43984">
        <ele>168.85</ele>
        <time>2014-05-10T12:55:17Z</time>
      </trkpt>
      <trkpt lat="43.22292" lon="5.4397">
        <ele>168.37</ele>
        <time>2014-05-10T12:55:34Z</time>
      </trkpt>
      <trkpt lat="43.22306" lon="5.43957">
        <ele>167.41</ele>
        <time>2014-05-10T12:55:50Z</time>
      </trkpt>
      <trkpt lat="43.2231" lon="5.43952">
        <ele>166.93</ele>
        <time>2014-05-10T12:55:55Z</time>
      </trkpt>
      <trkpt lat="43.22324" lon="5.43936">
        <ele>165.96</ele>
        <time>2014-05-10T12:56:11Z</time>
      </trkpt>
      <trkpt lat="43.22337" lon="5.43917">
        <ele>165.48</ele>
        <time>2014-05-10T12:56:28Z</time>
      </trkpt>
      <trkpt lat="43.22351" lon="5.43898">
        <ele>164.52</ele>
        <time>2014-05-10T12:56:46Z</time>
      </trkpt>
      <trkpt lat="43.22371" lon="5.43878">
        <ele>163.56</ele>
        <time>2014-05-10T12:57:07Z</time>
      </trkpt>
      <trkpt lat="43.22389" lon="5.43867">
        <ele>162.6</ele>
        <time>2014-05-10T12:57:26Z</time>
      </trkpt>
      <trkpt lat="43.22406" lon="5.43861">
        <ele>162.12</ele>
        <time>2014-05-10T12:57:45Z</time>
      </trkpt>
      <trkpt lat="43.2242" lon="5.43852">
        <ele>161.64</ele>
        <time>2014-05-10T12:58:00Z</time>
      </trkpt>
      <trkpt lat="43.22439" lon="5.43837">
        <ele>161.16</ele>
        <time>2014-05-10T12:58:17Z</time>
      </trkpt>
      <trkpt lat="43.22447" lon="5.43825">
        <ele>161.16</ele>
        <time>2014-05-10T12:58:31Z</time>
      </trkpt>
      <trkpt lat="43.22462" lon="5.43819">
        <ele>161.16</ele>
        <time>2014-05-10T12:58:48Z</time>
      </trkpt>
      <trkpt lat="43.2248" lon="5.43816">
        <ele>161.16</ele>
        <time>2014-05-10T12:59:04Z</time>
      </trkpt>
      <trkpt lat="43.22483" lon="5.43816">
        <ele>161.16</ele>
        <time>2014-05-10T12:59:06Z</time>
      </trkpt>
      <trkpt lat="43.22505" lon="5.43818">
        <ele>160.68</ele>
        <time>2014-05-10T12:59:21Z</time>
      </trkpt>
      <trkpt lat="43.22524" lon="5.43817">
        <ele>160.68</ele>
        <time>2014-05-10T12:59:39Z</time>
      </trkpt>
      <trkpt lat="43.22541" lon="5.43818">
        <ele>160.68</ele>
        <time>2014-05-10T12:59:56Z</time>
      </trkpt>
      <trkpt lat="43.22562" lon="5.43818">
        <ele>160.2</ele>
        <time>2014-05-10T13:00:15Z</time>
      </trkpt>
      <trkpt lat="43.22584" lon="5.43815">
        <ele>161.64</ele>
        <time>2014-05-10T13:00:30Z</time>
      </trkpt>
      <trkpt lat="43.22601" lon="5.43812">
        <ele>161.64</ele>
        <time>2014-05-10T13:00:47Z</time>
      </trkpt>
      <trkpt lat="43.22622" lon="5.43808">
        <ele>162.12</ele>
        <time>2014-05-10T13:01:05Z</time>
      </trkpt>
      <trkpt lat="43.22642" lon="5.43798">
        <ele>162.12</ele>
        <time>2014-05-10T13:01:23Z</time>
      </trkpt>
      <trkpt lat="43.2266" lon="5.43786">
        <ele>161.64</ele>
        <time>2014-05-10T13:01:40Z</time>
      </trkpt>
      <trkpt lat="43.22681" lon="5.43769">
        <ele>159.72</ele>
        <time>2014-05-10T13:02:02Z</time>
      </trkpt>
      <trkpt lat="43.22699" lon="5.43753">
        <ele>158.27</ele>
        <time>2014-05-10T13:02:21Z</time>
      </trkpt>
      <trkpt lat="43.22719" lon="5.4374">
        <ele>156.83</ele>
        <time>2014-05-10T13:02:41Z</time>
      </trkpt>
      <trkpt lat="43.22737" lon="5.43733">
        <ele>155.87</ele>
        <time>2014-05-10T13:02:59Z</time>
      </trkpt>
      <trkpt lat="43.22755" lon="5.43729">
        <ele>154.43</ele>
        <time>2014-05-10T13:03:15Z</time>
      </trkpt>
      <trkpt lat="43.22766" lon="5.43725">
        <ele>154.43</ele>
        <time>2014-05-10T13:03:25Z</time>
      </trkpt>
      <trkpt lat="43.22784" lon="5.43728">
        <ele>153.47</ele>
        <time>2014-05-10T13:03:43Z</time>
      </trkpt>
      <trkpt lat="43.22785" lon="5.43729">
        <ele>152.99</ele>
        <time>2014-05-10T13:03:44Z</time>
      </trkpt>
      <trkpt lat="43.22804" lon="5.4373">
        <ele>151.54</ele>
        <time>2014-05-10T13:04:02Z</time>
      </trkpt>
      <trkpt lat="43.22818" lon="5.43729">
        <ele>150.58</ele>
        <time>2014-05-10T13:04:16Z</time>
      </trkpt>
      <trkpt lat="43.22837" lon="5.43726">
        <ele>149.62</ele>
        <time>2014-05-10T13:04:33Z</time>
      </trkpt>
      <trkpt lat="43.22856" lon="5.43724">
        <ele>148.18</ele>
        <time>2014-05-10T13:04:50Z</time>
      </trkpt>
      <trkpt lat="43.2287" lon="5.43724">
        <ele>147.22</ele>
        <time>2014-05-10T13:05:04Z</time>
      </trkpt>
      <trkpt lat="43.22887" lon="5.43721">
        <ele>145.78</ele>
        <time>2014-05-10T13:05:20Z</time>
      </trkpt>
      <trkpt lat="43.22901" lon="5.43721">
        <ele>144.82</ele>
        <time>2014-05-10T13:05:36Z</time>
      </trkpt>
      <trkpt lat="43.2292" lon="5.43718">
        <ele>143.37</ele>
        <time>2014-05-10T13:05:54Z</time>
      </trkpt>
      <trkpt lat="43.22939" lon="5.43714">
        <ele>141.45</ele>
        <time>2014-05-10T13:06:12Z</time>
      </trkpt>
      <trkpt lat="43.2296" lon="5.43711">
        <ele>140.49</ele>
        <time>2014-05-10T13:06:31Z</time>
      </trkpt>
      <trkpt lat="43.22974" lon="5.43708">
        <ele>139.53</ele>
        <time>2014-05-10T13:06:44Z</time>
      </trkpt>
      <trkpt lat="43.22991" lon="5.43703">
        <ele>139.05</ele>
        <time>2014-05-10T13:07:01Z</time>
      </trkpt>
      <trkpt lat="43.23009" lon="5.43699">
        <ele>137.13</ele>
        <time>2014-05-10T13:07:21Z</time>
      </trkpt>
      <trkpt lat="43.23024" lon="5.43694">
        <ele>136.16</ele>
        <time>2014-05-10T13:07:36Z</time>
      </trkpt>
      <trkpt lat="43.23037" lon="5.43678">
        <ele>134.72</ele>
        <time>2014-05-10T13:07:53Z</time>
      </trkpt>
      <trkpt lat="43.23037" lon="5.4367">
        <ele>133.76</ele>
        <time>2014-05-10T13:08:07Z</time>
      </trkpt>
      <trkpt lat="43.23036" lon="5.43668">
        <ele>133.28</ele>
        <time>2014-05-10T13:08:40Z</time>
      </trkpt>
      <trkpt lat="43.23035" lon="5.43665">
        <ele>133.28</ele>
        <time>2014-05-10T13:09:10Z</time>
      </trkpt>
      <trkpt lat="43.23035" lon="5.43669">
        <ele>132.32</ele>
        <time>2014-05-10T13:09:42Z</time>
      </trkpt>
      <trkpt lat="43.23033" lon="5.43672">
        <ele>132.32</ele>
        <time>2014-05-10T13:10:15Z</time>
      </trkpt>
      <trkpt lat="43.23031" lon="5.4367">
        <ele>132.32</ele>
        <time>2014-05-10T13:10:43Z</time>
      </trkpt>
      <trkpt lat="43.2303" lon="5.43669">
        <ele>131.84</ele>
        <time>2014-05-10T13:11:13Z</time>
      </trkpt>
      <trkpt lat="43.23032" lon="5.43666">
        <ele>131.84</ele>
        <time>2014-05-10T13:11:46Z</time>
      </trkpt>
      <trkpt lat="43.23034" lon="5.43667">
        <ele>131.36</ele>
        <time>2014-05-10T13:12:18Z</time>
      </trkpt>
      <trkpt lat="43.23037" lon="5.43666">
        <ele>131.36</ele>
        <time>2014-05-10T13:12:48Z</time>
      </trkpt>
      <trkpt lat="43.23041" lon="5.43666">
        <ele>132.32</ele>
        <time>2014-05-10T13:13:19Z</time>
      </trkpt>
    </trkseg>
  </trk>
</gpx>